﻿<?xml version="1.0" encoding="utf-8"?><gpx creator="Garmin Desktop App" version="1.1" xsi:schemaLocation="http://www.topografix.com/GPX/1/1 http://www.topografix.com/GPX/1/1/gpx.xsd http://www.garmin.com/xmlschemas/WaypointExtension/v1 http://www8.garmin.com/xmlschemas/WaypointExtensionv1.xsd http://www.garmin.com/xmlschemas/TrackPointExtension/v1 http://www.garmin.com/xmlschemas/TrackPointExtensionv1.xsd http://www.garmin.com/xmlschemas/GpxExtensions/v3 http://www8.garmin.com/xmlschemas/GpxExtensionsv3.xsd http://www.garmin.com/xmlschemas/ActivityExtension/v1 http://www8.garmin.com/xmlschemas/ActivityExtensionv1.xsd http://www.garmin.com/xmlschemas/AdventuresExtensions/v1 http://www8.garmin.com/xmlschemas/AdventuresExtensionv1.xsd http://www.garmin.com/xmlschemas/PressureExtension/v1 http://www.garmin.com/xmlschemas/PressureExtensionv1.xsd http://www.garmin.com/xmlschemas/TripExtensions/v1 http://www.garmin.com/xmlschemas/TripExtensionsv1.xsd http://www.garmin.com/xmlschemas/TripMetaDataExtensions/v1 http://www.garmin.com/xmlschemas/TripMetaDataExtensionsv1.xsd http://www.garmin.com/xmlschemas/ViaPointTransportationModeExtensions/v1 http://www.garmin.com/xmlschemas/ViaPointTransportationModeExtensionsv1.xsd http://www.garmin.com/xmlschemas/CreationTimeExtension/v1 http://www.garmin.com/xmlschemas/CreationTimeExtensionsv1.xsd http://www.garmin.com/xmlschemas/AccelerationExtension/v1 http://www.garmin.com/xmlschemas/AccelerationExtensionv1.xsd http://www.garmin.com/xmlschemas/PowerExtension/v1 http://www.garmin.com/xmlschemas/PowerExtensionv1.xsd http://www.garmin.com/xmlschemas/VideoExtension/v1 http://www.garmin.com/xmlschemas/VideoExtensionv1.xsd" xmlns="http://www.topografix.com/GPX/1/1" xmlns:xsi="http://www.w3.org/2001/XMLSchema-instance" xmlns:wptx1="http://www.garmin.com/xmlschemas/WaypointExtension/v1" xmlns:gpxtrx="http://www.garmin.com/xmlschemas/GpxExtensions/v3" xmlns:gpxtpx="http://www.garmin.com/xmlschemas/TrackPointExtension/v1" xmlns:gpxx="http://www.garmin.com/xmlschemas/GpxExtensions/v3" xmlns:trp="http://www.garmin.com/xmlschemas/TripExtensions/v1" xmlns:adv="http://www.garmin.com/xmlschemas/AdventuresExtensions/v1" xmlns:prs="http://www.garmin.com/xmlschemas/PressureExtension/v1" xmlns:tmd="http://www.garmin.com/xmlschemas/TripMetaDataExtensions/v1" xmlns:vptm="http://www.garmin.com/xmlschemas/ViaPointTransportationModeExtensions/v1" xmlns:ctx="http://www.garmin.com/xmlschemas/CreationTimeExtension/v1" xmlns:gpxacc="http://www.garmin.com/xmlschemas/AccelerationExtension/v1" xmlns:gpxpx="http://www.garmin.com/xmlschemas/PowerExtension/v1" xmlns:vidx1="http://www.garmin.com/xmlschemas/VideoExtension/v1">

  <metadata>
    <link href="http://www.garmin.com">
      <text>Garmin International</text>
    </link>
    <time>2026-04-25T18:22:05Z</time>
    <bounds maxlat="59.079612577334046" maxlon="30.031685661524534" minlat="59.062972068786621" minlon="30.003311913460493" />
  </metadata>

  <trk>
    <name>Трек 024</name>
    <extensions>
      <gpxx:TrackExtension>
        <gpxx:DisplayColor>Cyan</gpxx:DisplayColor>
      </gpxx:TrackExtension>
    </extensions>
    <trkseg>
      <trkpt lat="59.063423434272408" lon="30.031685661524534">
        <ele>212.59</ele>
        <time>2026-04-25T08:28:19Z</time>
      </trkpt>
      <trkpt lat="59.063476743176579" lon="30.031659845262766">
        <ele>210.66999999999999</ele>
        <time>2026-04-25T08:28:45Z</time>
      </trkpt>
      <trkpt lat="59.063458805903792" lon="30.031638722866774">
        <ele>209.22</ele>
        <time>2026-04-25T08:29:07Z</time>
      </trkpt>
      <trkpt lat="59.06346115283668" lon="30.031653475016356">
        <ele>208.74000000000001</ele>
        <time>2026-04-25T08:29:22Z</time>
      </trkpt>
      <trkpt lat="59.063546312972903" lon="30.031652636826038">
        <ele>207.78</ele>
        <time>2026-04-25T08:29:40Z</time>
      </trkpt>
      <trkpt lat="59.06354078091681" lon="30.031655905768275">
        <ele>206.34</ele>
        <time>2026-04-25T08:30:00Z</time>
      </trkpt>
      <trkpt lat="59.063506750389934" lon="30.031625730916858">
        <ele>204.90000000000001</ele>
        <time>2026-04-25T08:30:16Z</time>
      </trkpt>
      <trkpt lat="59.063469031825662" lon="30.03148315474391">
        <ele>203.94</ele>
        <time>2026-04-25T08:30:29Z</time>
      </trkpt>
      <trkpt lat="59.063475402072072" lon="30.031351894140244">
        <ele>203.46000000000001</ele>
        <time>2026-04-25T08:30:37Z</time>
      </trkpt>
      <trkpt lat="59.063462074846029" lon="30.031190039590001">
        <ele>203.46000000000001</ele>
        <time>2026-04-25T08:30:45Z</time>
      </trkpt>
      <trkpt lat="59.063454531133175" lon="30.031139915809035">
        <ele>202.97999999999999</ele>
        <time>2026-04-25T08:30:48Z</time>
      </trkpt>
      <trkpt lat="59.063449837267399" lon="30.031098844483495">
        <ele>202.97999999999999</ele>
        <time>2026-04-25T08:30:50Z</time>
      </trkpt>
      <trkpt lat="59.063451681286097" lon="30.031078141182661">
        <ele>202.97999999999999</ele>
        <time>2026-04-25T08:30:52Z</time>
      </trkpt>
      <trkpt lat="59.063435755670071" lon="30.030997255817056">
        <ele>202.00999999999999</ele>
        <time>2026-04-25T08:31:04Z</time>
      </trkpt>
      <trkpt lat="59.063384626060724" lon="30.031040254980326">
        <ele>200.56999999999999</ele>
        <time>2026-04-25T08:31:22Z</time>
      </trkpt>
      <trkpt lat="59.063410693779588" lon="30.031030029058456">
        <ele>199.13</ele>
        <time>2026-04-25T08:31:42Z</time>
      </trkpt>
      <trkpt lat="59.063399797305465" lon="30.031021982431412">
        <ele>198.65000000000001</ele>
        <time>2026-04-25T08:31:49Z</time>
      </trkpt>
      <trkpt lat="59.063374735414982" lon="30.031053498387337">
        <ele>198.65000000000001</ele>
        <time>2026-04-25T08:31:52Z</time>
      </trkpt>
      <trkpt lat="59.063354870304465" lon="30.031090965494514">
        <ele>198.16999999999999</ele>
        <time>2026-04-25T08:31:58Z</time>
      </trkpt>
      <trkpt lat="59.063333999365568" lon="30.03110839985311">
        <ele>198.16999999999999</ele>
        <time>2026-04-25T08:32:01Z</time>
      </trkpt>
      <trkpt lat="59.063340034335852" lon="30.031105801463127">
        <ele>197.69</ele>
        <time>2026-04-25T08:32:04Z</time>
      </trkpt>
      <trkpt lat="59.063357217237353" lon="30.03103950060904">
        <ele>197.69</ele>
        <time>2026-04-25T08:32:11Z</time>
      </trkpt>
      <trkpt lat="59.063424943014979" lon="30.031015109270811">
        <ele>196.25</ele>
        <time>2026-04-25T08:32:29Z</time>
      </trkpt>
      <trkpt lat="59.06342938542366" lon="30.030965907499194">
        <ele>193.36000000000001</ele>
        <time>2026-04-25T08:33:17Z</time>
      </trkpt>
      <trkpt lat="59.063429301604629" lon="30.030953167006373">
        <ele>190.47999999999999</ele>
        <time>2026-04-25T08:34:16Z</time>
      </trkpt>
      <trkpt lat="59.063431229442358" lon="30.030880244448781">
        <ele>189.03999999999999</ele>
        <time>2026-04-25T08:34:38Z</time>
      </trkpt>
      <trkpt lat="59.0635119471699" lon="30.030883513391018">
        <ele>188.08000000000001</ele>
        <time>2026-04-25T08:34:50Z</time>
      </trkpt>
      <trkpt lat="59.063534159213305" lon="30.030891224741936">
        <ele>187.11000000000001</ele>
        <time>2026-04-25T08:35:06Z</time>
      </trkpt>
      <trkpt lat="59.0636155474931" lon="30.030763149261475">
        <ele>186.15000000000001</ele>
        <time>2026-04-25T08:35:22Z</time>
      </trkpt>
      <trkpt lat="59.063614876940846" lon="30.03081033937633">
        <ele>185.19</ele>
        <time>2026-04-25T08:35:41Z</time>
      </trkpt>
      <trkpt lat="59.063611943274736" lon="30.030796090140939">
        <ele>182.78999999999999</ele>
        <time>2026-04-25T08:36:05Z</time>
      </trkpt>
      <trkpt lat="59.063595598563552" lon="30.030810758471489">
        <ele>181.34999999999999</ele>
        <time>2026-04-25T08:36:29Z</time>
      </trkpt>
      <trkpt lat="59.063682518899441" lon="30.030789971351624">
        <ele>180.38</ele>
        <time>2026-04-25T08:36:44Z</time>
      </trkpt>
      <trkpt lat="59.063789220526814" lon="30.030805394053459">
        <ele>178.94</ele>
        <time>2026-04-25T08:37:15Z</time>
      </trkpt>
      <trkpt lat="59.063860382884741" lon="30.030792821198702">
        <ele>177.97999999999999</ele>
        <time>2026-04-25T08:37:31Z</time>
      </trkpt>
      <trkpt lat="59.063921235501766" lon="30.030741859227419">
        <ele>177.5</ele>
        <time>2026-04-25T08:37:45Z</time>
      </trkpt>
      <trkpt lat="59.063953505828977" lon="30.030706571415067">
        <ele>177.02000000000001</ele>
        <time>2026-04-25T08:37:50Z</time>
      </trkpt>
      <trkpt lat="59.064000779762864" lon="30.030614789575338">
        <ele>176.06</ele>
        <time>2026-04-25T08:38:03Z</time>
      </trkpt>
      <trkpt lat="59.064021483063698" lon="30.030486294999719">
        <ele>175.58000000000001</ele>
        <time>2026-04-25T08:38:14Z</time>
      </trkpt>
      <trkpt lat="59.064093232154846" lon="30.030337013304234">
        <ele>175.09999999999999</ele>
        <time>2026-04-25T08:38:28Z</time>
      </trkpt>
      <trkpt lat="59.064174117520452" lon="30.030177421867847">
        <ele>174.13999999999999</ele>
        <time>2026-04-25T08:38:41Z</time>
      </trkpt>
      <trkpt lat="59.064186690375209" lon="30.030054291710258">
        <ele>173.66</ele>
        <time>2026-04-25T08:38:54Z</time>
      </trkpt>
      <trkpt lat="59.064193060621619" lon="30.029878355562687">
        <ele>172.69</ele>
        <time>2026-04-25T08:39:05Z</time>
      </trkpt>
      <trkpt lat="59.064237652346492" lon="30.029797637835145">
        <ele>172.21000000000001</ele>
        <time>2026-04-25T08:39:16Z</time>
      </trkpt>
      <trkpt lat="59.064286770299077" lon="30.029669143259525">
        <ele>171.25</ele>
        <time>2026-04-25T08:39:30Z</time>
      </trkpt>
      <trkpt lat="59.064283166080713" lon="30.029512736946344">
        <ele>170.28999999999999</ele>
        <time>2026-04-25T08:39:47Z</time>
      </trkpt>
      <trkpt lat="59.064271347597241" lon="30.029452973976731">
        <ele>170.28999999999999</ele>
        <time>2026-04-25T08:39:51Z</time>
      </trkpt>
      <trkpt lat="59.064315939322114" lon="30.029519274830818">
        <ele>169.33000000000001</ele>
        <time>2026-04-25T08:40:03Z</time>
      </trkpt>
      <trkpt lat="59.064406715333462" lon="30.029562944546342">
        <ele>168.84999999999999</ele>
        <time>2026-04-25T08:40:17Z</time>
      </trkpt>
      <trkpt lat="59.064438734203577" lon="30.029602088034153">
        <ele>168.37</ele>
        <time>2026-04-25T08:40:21Z</time>
      </trkpt>
      <trkpt lat="59.064561445266008" lon="30.029545594006777">
        <ele>167.88999999999999</ele>
        <time>2026-04-25T08:40:36Z</time>
      </trkpt>
      <trkpt lat="59.064602768048644" lon="30.029423972591758">
        <ele>167.88999999999999</ele>
        <time>2026-04-25T08:40:44Z</time>
      </trkpt>
      <trkpt lat="59.064664039760828" lon="30.029347194358706">
        <ele>167.41</ele>
        <time>2026-04-25T08:40:58Z</time>
      </trkpt>
      <trkpt lat="59.064683569595218" lon="30.029320288449526">
        <ele>167.41</ele>
        <time>2026-04-25T08:41:00Z</time>
      </trkpt>
      <trkpt lat="59.064716761931777" lon="30.029288521036506">
        <ele>166.93000000000001</ele>
        <time>2026-04-25T08:41:03Z</time>
      </trkpt>
      <trkpt lat="59.064791612327099" lon="30.029202355071902">
        <ele>166.44999999999999</ele>
        <time>2026-04-25T08:41:12Z</time>
      </trkpt>
      <trkpt lat="59.06482539139688" lon="30.029009403660893">
        <ele>165.96000000000001</ele>
        <time>2026-04-25T08:41:26Z</time>
      </trkpt>
      <trkpt lat="59.0649348590523" lon="30.028821565210819">
        <ele>165</ele>
        <time>2026-04-25T08:41:41Z</time>
      </trkpt>
      <trkpt lat="59.064989928156137" lon="30.028729867190123">
        <ele>164.03999999999999</ele>
        <time>2026-04-25T08:41:58Z</time>
      </trkpt>
      <trkpt lat="59.065020019188523" lon="30.028892727568746">
        <ele>162.59999999999999</ele>
        <time>2026-04-25T08:42:26Z</time>
      </trkpt>
      <trkpt lat="59.065100234001875" lon="30.028826342895627">
        <ele>162.12</ele>
        <time>2026-04-25T08:42:40Z</time>
      </trkpt>
      <trkpt lat="59.065144406631589" lon="30.028643449768424">
        <ele>161.16</ele>
        <time>2026-04-25T08:42:54Z</time>
      </trkpt>
      <trkpt lat="59.065168127417564" lon="30.028493078425527">
        <ele>160.68000000000001</ele>
        <time>2026-04-25T08:43:07Z</time>
      </trkpt>
      <trkpt lat="59.065196709707379" lon="30.02839551307261">
        <ele>159.72</ele>
        <time>2026-04-25T08:43:20Z</time>
      </trkpt>
      <trkpt lat="59.065269716084003" lon="30.028256876394153">
        <ele>159.24000000000001</ele>
        <time>2026-04-25T08:43:34Z</time>
      </trkpt>
      <trkpt lat="59.065355882048607" lon="30.028103403747082">
        <ele>158.27000000000001</ele>
        <time>2026-04-25T08:43:49Z</time>
      </trkpt>
      <trkpt lat="59.065374908968806" lon="30.028000557795167">
        <ele>157.78999999999999</ele>
        <time>2026-04-25T08:44:02Z</time>
      </trkpt>
      <trkpt lat="59.06542930752039" lon="30.027922773733735">
        <ele>157.31</ele>
        <time>2026-04-25T08:44:10Z</time>
      </trkpt>
      <trkpt lat="59.065502062439919" lon="30.027806852012873">
        <ele>156.83000000000001</ele>
        <time>2026-04-25T08:44:18Z</time>
      </trkpt>
      <trkpt lat="59.065587474033237" lon="30.027590515092015">
        <ele>156.34999999999999</ele>
        <time>2026-04-25T08:44:31Z</time>
      </trkpt>
      <trkpt lat="59.065600214526057" lon="30.027514072135091">
        <ele>155.87</ele>
        <time>2026-04-25T08:44:36Z</time>
      </trkpt>
      <trkpt lat="59.065690487623215" lon="30.027346853166819">
        <ele>154.91</ele>
        <time>2026-04-25T08:44:52Z</time>
      </trkpt>
      <trkpt lat="59.065676992759109" lon="30.027192290872335">
        <ele>154.91</ele>
        <time>2026-04-25T08:45:02Z</time>
      </trkpt>
      <trkpt lat="59.065787047147751" lon="30.027135293930769">
        <ele>154.43000000000001</ele>
        <time>2026-04-25T08:45:13Z</time>
      </trkpt>
      <trkpt lat="59.065929455682635" lon="30.026992633938789">
        <ele>153.47</ele>
        <time>2026-04-25T08:45:28Z</time>
      </trkpt>
      <trkpt lat="59.066006653010845" lon="30.026761880144477">
        <ele>152.50999999999999</ele>
        <time>2026-04-25T08:45:44Z</time>
      </trkpt>
      <trkpt lat="59.066116958856583" lon="30.026642102748156">
        <ele>152.03</ele>
        <time>2026-04-25T08:45:58Z</time>
      </trkpt>
      <trkpt lat="59.066122239455581" lon="30.026606060564518">
        <ele>152.03</ele>
        <time>2026-04-25T08:46:01Z</time>
      </trkpt>
      <trkpt lat="59.066201029345393" lon="30.026484942063689">
        <ele>151.06</ele>
        <time>2026-04-25T08:46:15Z</time>
      </trkpt>
      <trkpt lat="59.066264647990465" lon="30.026413779705763">
        <ele>151.06</ele>
        <time>2026-04-25T08:46:24Z</time>
      </trkpt>
      <trkpt lat="59.066279316321015" lon="30.026386538520455">
        <ele>150.58000000000001</ele>
        <time>2026-04-25T08:46:27Z</time>
      </trkpt>
      <trkpt lat="59.066364644095302" lon="30.026154862716794">
        <ele>150.09999999999999</ele>
        <time>2026-04-25T08:46:43Z</time>
      </trkpt>
      <trkpt lat="59.066432788968086" lon="30.0261199939996">
        <ele>149.62</ele>
        <time>2026-04-25T08:46:48Z</time>
      </trkpt>
      <trkpt lat="59.06654485501349" lon="30.026068361476064">
        <ele>149.13999999999999</ele>
        <time>2026-04-25T08:47:02Z</time>
      </trkpt>
      <trkpt lat="59.066592045128345" lon="30.025953026488423">
        <ele>149.13999999999999</ele>
        <time>2026-04-25T08:47:16Z</time>
      </trkpt>
      <trkpt lat="59.066622974351048" lon="30.025935424491763">
        <ele>148.66</ele>
        <time>2026-04-25T08:47:18Z</time>
      </trkpt>
      <trkpt lat="59.066666644066572" lon="30.025778599083424">
        <ele>148.18000000000001</ele>
        <time>2026-04-25T08:47:32Z</time>
      </trkpt>
      <trkpt lat="59.066699668765068" lon="30.025651529431343">
        <ele>147.69999999999999</ele>
        <time>2026-04-25T08:47:46Z</time>
      </trkpt>
      <trkpt lat="59.066766891628504" lon="30.025511803105474">
        <ele>147.22</ele>
        <time>2026-04-25T08:48:00Z</time>
      </trkpt>
      <trkpt lat="59.06688884831965" lon="30.025323377922177">
        <ele>147.22</ele>
        <time>2026-04-25T08:48:13Z</time>
      </trkpt>
      <trkpt lat="59.066936289891601" lon="30.025260681286454">
        <ele>146.74000000000001</ele>
        <time>2026-04-25T08:48:22Z</time>
      </trkpt>
      <trkpt lat="59.06697878614068" lon="30.025120200589299">
        <ele>146.74000000000001</ele>
        <time>2026-04-25T08:48:33Z</time>
      </trkpt>
      <trkpt lat="59.067027484998107" lon="30.024988269433379">
        <ele>145.78</ele>
        <time>2026-04-25T08:48:48Z</time>
      </trkpt>
      <trkpt lat="59.06707601621747" lon="30.024740165099502">
        <ele>145.78</ele>
        <time>2026-04-25T08:49:04Z</time>
      </trkpt>
      <trkpt lat="59.067112896591425" lon="30.024598343297839">
        <ele>145.30000000000001</ele>
        <time>2026-04-25T08:49:16Z</time>
      </trkpt>
      <trkpt lat="59.067166540771723" lon="30.024539167061448">
        <ele>145.30000000000001</ele>
        <time>2026-04-25T08:49:23Z</time>
      </trkpt>
      <trkpt lat="59.06719964928925" lon="30.02453874796629">
        <ele>145.30000000000001</ele>
        <time>2026-04-25T08:49:27Z</time>
      </trkpt>
      <trkpt lat="59.067292856052518" lon="30.024608904495835">
        <ele>144.81999999999999</ele>
        <time>2026-04-25T08:49:37Z</time>
      </trkpt>
      <trkpt lat="59.067418752238154" lon="30.024616615846753">
        <ele>144.81999999999999</ele>
        <time>2026-04-25T08:49:52Z</time>
      </trkpt>
      <trkpt lat="59.067471558228135" lon="30.024567246437073">
        <ele>144.81999999999999</ele>
        <time>2026-04-25T08:50:01Z</time>
      </trkpt>
      <trkpt lat="59.067586725577712" lon="30.024529360234737">
        <ele>144.81999999999999</ele>
        <time>2026-04-25T08:50:14Z</time>
      </trkpt>
      <trkpt lat="59.067647578194737" lon="30.024512931704521">
        <ele>144.34</ele>
        <time>2026-04-25T08:50:22Z</time>
      </trkpt>
      <trkpt lat="59.067722763866186" lon="30.024332888424397">
        <ele>143.84999999999999</ele>
        <time>2026-04-25T08:50:36Z</time>
      </trkpt>
      <trkpt lat="59.067743131890893" lon="30.024275807663798">
        <ele>144.34</ele>
        <time>2026-04-25T08:50:41Z</time>
      </trkpt>
      <trkpt lat="59.067822173237801" lon="30.024141613394022">
        <ele>143.84999999999999</ele>
        <time>2026-04-25T08:50:57Z</time>
      </trkpt>
      <trkpt lat="59.067896017804742" lon="30.024027368053794">
        <ele>142.88999999999999</ele>
        <time>2026-04-25T08:51:13Z</time>
      </trkpt>
      <trkpt lat="59.067881517112255" lon="30.023818910121918">
        <ele>141.44999999999999</ele>
        <time>2026-04-25T08:51:29Z</time>
      </trkpt>
      <trkpt lat="59.067892665043473" lon="30.023673651739955">
        <ele>140.97</ele>
        <time>2026-04-25T08:51:49Z</time>
      </trkpt>
      <trkpt lat="59.067923594266176" lon="30.023596454411745">
        <ele>140.49000000000001</ele>
        <time>2026-04-25T08:52:02Z</time>
      </trkpt>
      <trkpt lat="59.067992996424437" lon="30.023513976484537">
        <ele>140.00999999999999</ele>
        <time>2026-04-25T08:52:16Z</time>
      </trkpt>
      <trkpt lat="59.068030212074518" lon="30.023461254313588">
        <ele>139.53</ele>
        <time>2026-04-25T08:52:37Z</time>
      </trkpt>
      <trkpt lat="59.068082766607404" lon="30.023458739742637">
        <ele>136.16</ele>
        <time>2026-04-25T08:52:43Z</time>
      </trkpt>
      <trkpt lat="59.068126855418086" lon="30.023411968722939">
        <ele>139.53</ele>
        <time>2026-04-25T08:53:00Z</time>
      </trkpt>
      <trkpt lat="59.068120317533612" lon="30.023391684517264">
        <ele>139.05000000000001</ele>
        <time>2026-04-25T08:53:23Z</time>
      </trkpt>
      <trkpt lat="59.068141775205731" lon="30.023478269577026">
        <ele>136.63999999999999</ele>
        <time>2026-04-25T08:53:49Z</time>
      </trkpt>
      <trkpt lat="59.068077905103564" lon="30.023631071671844">
        <ele>136.16</ele>
        <time>2026-04-25T08:54:07Z</time>
      </trkpt>
      <trkpt lat="59.068089807406068" lon="30.023517245426774">
        <ele>136.16</ele>
        <time>2026-04-25T08:54:13Z</time>
      </trkpt>
      <trkpt lat="59.068120988085866" lon="30.02335337921977">
        <ele>135.68000000000001</ele>
        <time>2026-04-25T08:54:22Z</time>
      </trkpt>
      <trkpt lat="59.06810749322176" lon="30.02321558073163">
        <ele>135.68000000000001</ele>
        <time>2026-04-25T08:54:29Z</time>
      </trkpt>
      <trkpt lat="59.068100117146969" lon="30.023124134168029">
        <ele>135.19999999999999</ele>
        <time>2026-04-25T08:54:47Z</time>
      </trkpt>
      <trkpt lat="59.068076144903898" lon="30.023212479427457">
        <ele>134.24000000000001</ele>
        <time>2026-04-25T08:55:11Z</time>
      </trkpt>
      <trkpt lat="59.068176560103893" lon="30.022959681227803">
        <ele>134.24000000000001</ele>
        <time>2026-04-25T08:55:25Z</time>
      </trkpt>
      <trkpt lat="59.068214949220419" lon="30.022731442004442">
        <ele>133.75999999999999</ele>
        <time>2026-04-25T08:55:41Z</time>
      </trkpt>
      <trkpt lat="59.068230288103223" lon="30.02269028685987">
        <ele>133.75999999999999</ele>
        <time>2026-04-25T08:55:46Z</time>
      </trkpt>
      <trkpt lat="59.068274041637778" lon="30.02250605262816">
        <ele>133.28</ele>
        <time>2026-04-25T08:56:01Z</time>
      </trkpt>
      <trkpt lat="59.068319471552968" lon="30.022428184747696">
        <ele>132.80000000000001</ele>
        <time>2026-04-25T08:56:15Z</time>
      </trkpt>
      <trkpt lat="59.068326679989696" lon="30.022391052916646">
        <ele>132.80000000000001</ele>
        <time>2026-04-25T08:56:23Z</time>
      </trkpt>
      <trkpt lat="59.068396165966988" lon="30.022298181429505">
        <ele>132.31999999999999</ele>
        <time>2026-04-25T08:56:41Z</time>
      </trkpt>
      <trkpt lat="59.068406224250793" lon="30.02226272597909">
        <ele>131.84</ele>
        <time>2026-04-25T08:56:48Z</time>
      </trkpt>
      <trkpt lat="59.068442936986685" lon="30.022277226671576">
        <ele>131.36000000000001</ele>
        <time>2026-04-25T08:57:05Z</time>
      </trkpt>
      <trkpt lat="59.068542597815394" lon="30.022207824513316">
        <ele>130.88</ele>
        <time>2026-04-25T08:57:18Z</time>
      </trkpt>
      <trkpt lat="59.068554416298866" lon="30.022213356569409">
        <ele>130.88</ele>
        <time>2026-04-25T08:57:21Z</time>
      </trkpt>
      <trkpt lat="59.06859515234828" lon="30.022096261382103">
        <ele>130.88</ele>
        <time>2026-04-25T08:57:34Z</time>
      </trkpt>
      <trkpt lat="59.068616526201367" lon="30.021966760978103">
        <ele>131.36000000000001</ele>
        <time>2026-04-25T08:57:47Z</time>
      </trkpt>
      <trkpt lat="59.068684838712215" lon="30.021873638033867">
        <ele>130.88</ele>
        <time>2026-04-25T08:57:57Z</time>
      </trkpt>
      <trkpt lat="59.068709732964635" lon="30.021871374920011">
        <ele>130.88</ele>
        <time>2026-04-25T08:57:59Z</time>
      </trkpt>
      <trkpt lat="59.068848872557282" lon="30.02175310626626">
        <ele>130.40000000000001</ele>
        <time>2026-04-25T08:58:12Z</time>
      </trkpt>
      <trkpt lat="59.068930931389332" lon="30.021648919209838">
        <ele>130.40000000000001</ele>
        <time>2026-04-25T08:58:26Z</time>
      </trkpt>
      <trkpt lat="59.068954233080149" lon="30.021571051329374">
        <ele>129.91999999999999</ele>
        <time>2026-04-25T08:58:35Z</time>
      </trkpt>
      <trkpt lat="59.068975271657109" lon="30.021597538143396">
        <ele>129.91999999999999</ele>
        <time>2026-04-25T08:58:37Z</time>
      </trkpt>
      <trkpt lat="59.069047020748258" lon="30.021632239222527">
        <ele>129.91999999999999</ele>
        <time>2026-04-25T08:58:44Z</time>
      </trkpt>
      <trkpt lat="59.06917660497129" lon="30.021583875641227">
        <ele>129.91999999999999</ele>
        <time>2026-04-25T08:58:58Z</time>
      </trkpt>
      <trkpt lat="59.069244246929884" lon="30.021547665819526">
        <ele>129.43000000000001</ele>
        <time>2026-04-25T08:59:12Z</time>
      </trkpt>
      <trkpt lat="59.069373579695821" lon="30.021571051329374">
        <ele>129.43000000000001</ele>
        <time>2026-04-25T08:59:26Z</time>
      </trkpt>
      <trkpt lat="59.069385062903166" lon="30.021562166512012">
        <ele>129.43000000000001</ele>
        <time>2026-04-25T08:59:27Z</time>
      </trkpt>
      <trkpt lat="59.069447172805667" lon="30.02147801220417">
        <ele>129.43000000000001</ele>
        <time>2026-04-25T08:59:36Z</time>
      </trkpt>
      <trkpt lat="59.069550102576613" lon="30.021317666396499">
        <ele>128.94999999999999</ele>
        <time>2026-04-25T08:59:54Z</time>
      </trkpt>
      <trkpt lat="59.069561334326863" lon="30.021296795457602">
        <ele>128.94999999999999</ele>
        <time>2026-04-25T08:59:56Z</time>
      </trkpt>
      <trkpt lat="59.069573236629367" lon="30.021121194586158">
        <ele>128.47</ele>
        <time>2026-04-25T09:00:06Z</time>
      </trkpt>
      <trkpt lat="59.069625791162252" lon="30.021067969501019">
        <ele>128.47</ele>
        <time>2026-04-25T09:00:13Z</time>
      </trkpt>
      <trkpt lat="59.069575583562255" lon="30.021090433001518">
        <ele>127.51000000000001</ele>
        <time>2026-04-25T09:00:33Z</time>
      </trkpt>
      <trkpt lat="59.069611793383956" lon="30.020960681140423">
        <ele>127.51000000000001</ele>
        <time>2026-04-25T09:00:46Z</time>
      </trkpt>
      <trkpt lat="59.069680189713836" lon="30.02101038582623">
        <ele>127.03</ele>
        <time>2026-04-25T09:01:04Z</time>
      </trkpt>
      <trkpt lat="59.069757889956236" lon="30.02102161757648">
        <ele>126.55</ele>
        <time>2026-04-25T09:01:20Z</time>
      </trkpt>
      <trkpt lat="59.069758392870426" lon="30.020986245945096">
        <ele>125.59</ele>
        <time>2026-04-25T09:01:46Z</time>
      </trkpt>
      <trkpt lat="59.069781862199306" lon="30.0208530575037">
        <ele>125.59</ele>
        <time>2026-04-25T09:02:00Z</time>
      </trkpt>
      <trkpt lat="59.069808097556233" lon="30.02067125402391">
        <ele>125.11</ele>
        <time>2026-04-25T09:02:10Z</time>
      </trkpt>
      <trkpt lat="59.069785969331861" lon="30.020459275692701">
        <ele>125.11</ele>
        <time>2026-04-25T09:02:23Z</time>
      </trkpt>
      <trkpt lat="59.069821173325181" lon="30.020493473857641">
        <ele>124.63</ele>
        <time>2026-04-25T09:02:31Z</time>
      </trkpt>
      <trkpt lat="59.069928964599967" lon="30.02056228928268">
        <ele>123.67</ele>
        <time>2026-04-25T09:02:48Z</time>
      </trkpt>
      <trkpt lat="59.06995159573853" lon="30.020537981763482">
        <ele>123.19</ele>
        <time>2026-04-25T09:03:07Z</time>
      </trkpt>
      <trkpt lat="59.069977328181267" lon="30.020550303161144">
        <ele>122.70999999999999</ele>
        <time>2026-04-25T09:03:21Z</time>
      </trkpt>
      <trkpt lat="59.069951763376594" lon="30.020624985918403">
        <ele>122.22</ele>
        <time>2026-04-25T09:03:44Z</time>
      </trkpt>
      <trkpt lat="59.06991982832551" lon="30.020673936232924">
        <ele>121.73999999999999</ele>
        <time>2026-04-25T09:04:06Z</time>
      </trkpt>
      <trkpt lat="59.070013202726841" lon="30.020670834928751">
        <ele>121.73999999999999</ele>
        <time>2026-04-25T09:04:24Z</time>
      </trkpt>
      <trkpt lat="59.069999540224671" lon="30.020685587078333">
        <ele>121.26000000000001</ele>
        <time>2026-04-25T09:04:46Z</time>
      </trkpt>
      <trkpt lat="59.070015298202634" lon="30.020681815221906">
        <ele>120.78</ele>
        <time>2026-04-25T09:05:08Z</time>
      </trkpt>
      <trkpt lat="59.069989733397961" lon="30.020675864070654">
        <ele>120.78</ele>
        <time>2026-04-25T09:05:12Z</time>
      </trkpt>
      <trkpt lat="59.070051172748208" lon="30.020608892664313">
        <ele>120.78</ele>
        <time>2026-04-25T09:05:28Z</time>
      </trkpt>
      <trkpt lat="59.070078413933516" lon="30.020447205752134">
        <ele>120.3</ele>
        <time>2026-04-25T09:05:43Z</time>
      </trkpt>
      <trkpt lat="59.070089729502797" lon="30.020367493852973">
        <ele>120.3</ele>
        <time>2026-04-25T09:05:50Z</time>
      </trkpt>
      <trkpt lat="59.070161897689104" lon="30.020392136648297">
        <ele>120.3</ele>
        <time>2026-04-25T09:05:55Z</time>
      </trkpt>
      <trkpt lat="59.070075480267406" lon="30.020257942378521">
        <ele>119.81999999999999</ele>
        <time>2026-04-25T09:06:10Z</time>
      </trkpt>
      <trkpt lat="59.070163825526834" lon="30.020182086154819">
        <ele>119.81999999999999</ele>
        <time>2026-04-25T09:06:23Z</time>
      </trkpt>
      <trkpt lat="59.070159802213311" lon="30.020030122250319">
        <ele>119.34</ele>
        <time>2026-04-25T09:06:44Z</time>
      </trkpt>
      <trkpt lat="59.070220990106463" lon="30.019965078681707">
        <ele>119.34</ele>
        <time>2026-04-25T09:06:57Z</time>
      </trkpt>
      <trkpt lat="59.070310089737177" lon="30.019902633503079">
        <ele>119.34</ele>
        <time>2026-04-25T09:07:08Z</time>
      </trkpt>
      <trkpt lat="59.070389466360211" lon="30.019889222458005">
        <ele>118.86</ele>
        <time>2026-04-25T09:07:21Z</time>
      </trkpt>
      <trkpt lat="59.070433722808957" lon="30.019717812538147">
        <ele>118.86</ele>
        <time>2026-04-25T09:07:39Z</time>
      </trkpt>
      <trkpt lat="59.070490133017302" lon="30.01969451084733">
        <ele>118.38</ele>
        <time>2026-04-25T09:07:49Z</time>
      </trkpt>
      <trkpt lat="59.070508237928152" lon="30.019611027091742">
        <ele>118.38</ele>
        <time>2026-04-25T09:07:56Z</time>
      </trkpt>
      <trkpt lat="59.070605300366879" lon="30.019571296870708">
        <ele>117.90000000000001</ele>
        <time>2026-04-25T09:08:08Z</time>
      </trkpt>
      <trkpt lat="59.070707308128476" lon="30.01947708427906">
        <ele>117.90000000000001</ele>
        <time>2026-04-25T09:08:22Z</time>
      </trkpt>
      <trkpt lat="59.070755084976554" lon="30.019297376275063">
        <ele>117.42</ele>
        <time>2026-04-25T09:08:37Z</time>
      </trkpt>
      <trkpt lat="59.070765310898423" lon="30.019102748483419">
        <ele>117.42</ele>
        <time>2026-04-25T09:08:52Z</time>
      </trkpt>
      <trkpt lat="59.070827504619956" lon="30.018953885883093">
        <ele>116.94</ele>
        <time>2026-04-25T09:09:06Z</time>
      </trkpt>
      <trkpt lat="59.070866564288735" lon="30.018856655806303">
        <ele>116.94</ele>
        <time>2026-04-25T09:09:16Z</time>
      </trkpt>
      <trkpt lat="59.070921549573541" lon="30.018747607246041">
        <ele>116.45999999999999</ele>
        <time>2026-04-25T09:09:31Z</time>
      </trkpt>
      <trkpt lat="59.070897661149502" lon="30.01872505992651">
        <ele>116.45999999999999</ele>
        <time>2026-04-25T09:09:36Z</time>
      </trkpt>
      <trkpt lat="59.070842172950506" lon="30.018724724650383">
        <ele>116.45999999999999</ele>
        <time>2026-04-25T09:09:42Z</time>
      </trkpt>
      <trkpt lat="59.070873185992241" lon="30.018593715503812">
        <ele>115.98</ele>
        <time>2026-04-25T09:10:00Z</time>
      </trkpt>
      <trkpt lat="59.07093420624733" lon="30.018432196229696">
        <ele>115.98</ele>
        <time>2026-04-25T09:10:14Z</time>
      </trkpt>
      <trkpt lat="59.070977959781885" lon="30.018378887325525">
        <ele>115.5</ele>
        <time>2026-04-25T09:10:20Z</time>
      </trkpt>
      <trkpt lat="59.071063958108425" lon="30.018279980868101">
        <ele>115.5</ele>
        <time>2026-04-25T09:10:31Z</time>
      </trkpt>
      <trkpt lat="59.071119194850326" lon="30.018276292830706">
        <ele>115.5</ele>
        <time>2026-04-25T09:10:36Z</time>
      </trkpt>
      <trkpt lat="59.071238888427615" lon="30.018244106322527">
        <ele>115.5</ele>
        <time>2026-04-25T09:10:49Z</time>
      </trkpt>
      <trkpt lat="59.071281552314758" lon="30.018216697499156">
        <ele>116.45999999999999</ele>
        <time>2026-04-25T09:10:55Z</time>
      </trkpt>
      <trkpt lat="59.071389427408576" lon="30.018328931182623">
        <ele>116.45999999999999</ele>
        <time>2026-04-25T09:11:09Z</time>
      </trkpt>
      <trkpt lat="59.071422703564167" lon="30.018286183476448">
        <ele>116.45999999999999</ele>
        <time>2026-04-25T09:11:23Z</time>
      </trkpt>
      <trkpt lat="59.071507696062326" lon="30.018324069678783">
        <ele>115.98</ele>
        <time>2026-04-25T09:11:38Z</time>
      </trkpt>
      <trkpt lat="59.071576008573174" lon="30.018167998641729">
        <ele>115.98</ele>
        <time>2026-04-25T09:11:54Z</time>
      </trkpt>
      <trkpt lat="59.071645075455308" lon="30.018059201538563">
        <ele>115.98</ele>
        <time>2026-04-25T09:12:08Z</time>
      </trkpt>
      <trkpt lat="59.071685560047626" lon="30.017961636185646">
        <ele>115.5</ele>
        <time>2026-04-25T09:12:22Z</time>
      </trkpt>
      <trkpt lat="59.071720177307725" lon="30.01796473748982">
        <ele>115.5</ele>
        <time>2026-04-25T09:12:26Z</time>
      </trkpt>
      <trkpt lat="59.071845151484013" lon="30.017871111631393">
        <ele>115.5</ele>
        <time>2026-04-25T09:12:43Z</time>
      </trkpt>
      <trkpt lat="59.071919750422239" lon="30.017728786915541">
        <ele>115.01000000000001</ele>
        <time>2026-04-25T09:12:58Z</time>
      </trkpt>
      <trkpt lat="59.071945566684008" lon="30.017597526311874">
        <ele>115.01000000000001</ele>
        <time>2026-04-25T09:13:10Z</time>
      </trkpt>
      <trkpt lat="59.07200038433075" lon="30.01742628403008">
        <ele>115.01000000000001</ele>
        <time>2026-04-25T09:13:25Z</time>
      </trkpt>
      <trkpt lat="59.072082107886672" lon="30.017339279875159">
        <ele>114.53</ele>
        <time>2026-04-25T09:13:39Z</time>
      </trkpt>
      <trkpt lat="59.07210792414844" lon="30.017308769747615">
        <ele>114.53</ele>
        <time>2026-04-25T09:13:43Z</time>
      </trkpt>
      <trkpt lat="59.072148660197854" lon="30.017256215214729">
        <ele>114.53</ele>
        <time>2026-04-25T09:13:56Z</time>
      </trkpt>
      <trkpt lat="59.07215922139585" lon="30.017211623489857">
        <ele>115.01000000000001</ele>
        <time>2026-04-25T09:14:24Z</time>
      </trkpt>
      <trkpt lat="59.072156036272645" lon="30.017172396183014">
        <ele>114.53</ele>
        <time>2026-04-25T09:14:27Z</time>
      </trkpt>
      <trkpt lat="59.072152012959123" lon="30.017077261582017">
        <ele>114.53</ele>
        <time>2026-04-25T09:14:32Z</time>
      </trkpt>
      <trkpt lat="59.072208674624562" lon="30.017054798081517">
        <ele>114.53</ele>
        <time>2026-04-25T09:14:40Z</time>
      </trkpt>
      <trkpt lat="59.072235245257616" lon="30.017001153901219">
        <ele>114.53</ele>
        <time>2026-04-25T09:14:44Z</time>
      </trkpt>
      <trkpt lat="59.072349574416876" lon="30.016798311844468">
        <ele>114.05</ele>
        <time>2026-04-25T09:15:02Z</time>
      </trkpt>
      <trkpt lat="59.072429118677974" lon="30.016654394567013">
        <ele>113.56999999999999</ele>
        <time>2026-04-25T09:15:16Z</time>
      </trkpt>
      <trkpt lat="59.072535401210189" lon="30.016566887497902">
        <ele>113.09</ele>
        <time>2026-04-25T09:15:31Z</time>
      </trkpt>
      <trkpt lat="59.072566414251924" lon="30.016515757888556">
        <ele>113.09</ele>
        <time>2026-04-25T09:15:36Z</time>
      </trkpt>
      <trkpt lat="59.072679653763771" lon="30.016391538083553">
        <ele>113.09</ele>
        <time>2026-04-25T09:15:51Z</time>
      </trkpt>
      <trkpt lat="59.072716701775789" lon="30.016271928325295">
        <ele>112.61</ele>
        <time>2026-04-25T09:16:02Z</time>
      </trkpt>
      <trkpt lat="59.07278317026794" lon="30.016124658286572">
        <ele>112.61</ele>
        <time>2026-04-25T09:16:15Z</time>
      </trkpt>
      <trkpt lat="59.072786523029208" lon="30.016106050461531">
        <ele>112.13</ele>
        <time>2026-04-25T09:16:16Z</time>
      </trkpt>
      <trkpt lat="59.072799347341061" lon="30.016088197007775">
        <ele>112.13</ele>
        <time>2026-04-25T09:16:18Z</time>
      </trkpt>
      <trkpt lat="59.072831366211176" lon="30.016003372147679">
        <ele>112.13</ele>
        <time>2026-04-25T09:16:28Z</time>
      </trkpt>
      <trkpt lat="59.072966482490301" lon="30.015934556722641">
        <ele>111.65000000000001</ele>
        <time>2026-04-25T09:16:44Z</time>
      </trkpt>
      <trkpt lat="59.073065975680947" lon="30.015809247270226">
        <ele>111.65000000000001</ele>
        <time>2026-04-25T09:17:00Z</time>
      </trkpt>
      <trkpt lat="59.07319120131433" lon="30.015767924487591">
        <ele>111.17</ele>
        <time>2026-04-25T09:17:13Z</time>
      </trkpt>
      <trkpt lat="59.073291029781103" lon="30.015674298629165">
        <ele>111.17</ele>
        <time>2026-04-25T09:17:25Z</time>
      </trkpt>
      <trkpt lat="59.07338323071599" lon="30.015642363578081">
        <ele>110.69</ele>
        <time>2026-04-25T09:17:38Z</time>
      </trkpt>
      <trkpt lat="59.073460344225168" lon="30.015614619478583">
        <ele>110.69</ele>
        <time>2026-04-25T09:17:50Z</time>
      </trkpt>
      <trkpt lat="59.073545085266232" lon="30.015514958649874">
        <ele>110.69</ele>
        <time>2026-04-25T09:18:03Z</time>
      </trkpt>
      <trkpt lat="59.073571236804128" lon="30.01542292535305">
        <ele>110.20999999999999</ele>
        <time>2026-04-25T09:18:10Z</time>
      </trkpt>
      <trkpt lat="59.07361188903451" lon="30.015265345573425">
        <ele>110.20999999999999</ele>
        <time>2026-04-25T09:18:23Z</time>
      </trkpt>
      <trkpt lat="59.073624797165394" lon="30.015199212357402">
        <ele>110.20999999999999</ele>
        <time>2026-04-25T09:18:30Z</time>
      </trkpt>
      <trkpt lat="59.073653630912304" lon="30.015117404982448">
        <ele>109.73</ele>
        <time>2026-04-25T09:18:37Z</time>
      </trkpt>
      <trkpt lat="59.073683554306626" lon="30.0150525290519">
        <ele>110.20999999999999</ele>
        <time>2026-04-25T09:18:46Z</time>
      </trkpt>
      <trkpt lat="59.073768043890595" lon="30.014858990907669">
        <ele>110.20999999999999</ele>
        <time>2026-04-25T09:19:02Z</time>
      </trkpt>
      <trkpt lat="59.07386502251029" lon="30.014736112207174">
        <ele>109.73</ele>
        <time>2026-04-25T09:19:17Z</time>
      </trkpt>
      <trkpt lat="59.073894442990422" lon="30.014703338965774">
        <ele>109.73</ele>
        <time>2026-04-25T09:19:21Z</time>
      </trkpt>
      <trkpt lat="59.073918247595429" lon="30.014636870473623">
        <ele>108.77</ele>
        <time>2026-04-25T09:19:28Z</time>
      </trkpt>
      <trkpt lat="59.073991673067212" lon="30.014538215473294">
        <ele>108.29000000000001</ele>
        <time>2026-04-25T09:19:43Z</time>
      </trkpt>
      <trkpt lat="59.074055710807443" lon="30.014466298744082">
        <ele>107.81</ele>
        <time>2026-04-25T09:19:56Z</time>
      </trkpt>
      <trkpt lat="59.074056465178728" lon="30.01435087993741">
        <ele>107.81</ele>
        <time>2026-04-25T09:20:08Z</time>
      </trkpt>
      <trkpt lat="59.074053531512618" lon="30.014289943501353">
        <ele>107.31999999999999</ele>
        <time>2026-04-25T09:20:22Z</time>
      </trkpt>
      <trkpt lat="59.07405361533165" lon="30.014323806390166">
        <ele>106.84</ele>
        <time>2026-04-25T09:21:03Z</time>
      </trkpt>
      <trkpt lat="59.074063505977392" lon="30.014258092269301">
        <ele>106.36</ele>
        <time>2026-04-25T09:21:39Z</time>
      </trkpt>
      <trkpt lat="59.074047831818461" lon="30.014266641810536">
        <ele>105.40000000000001</ele>
        <time>2026-04-25T09:22:24Z</time>
      </trkpt>
      <trkpt lat="59.07407951541245" lon="30.014265468344092">
        <ele>104.44</ele>
        <time>2026-04-25T09:23:22Z</time>
      </trkpt>
      <trkpt lat="59.074103320017457" lon="30.01420034095645">
        <ele>104.44</ele>
        <time>2026-04-25T09:23:28Z</time>
      </trkpt>
      <trkpt lat="59.074175823479891" lon="30.014115432277322">
        <ele>103.95999999999999</ele>
        <time>2026-04-25T09:23:42Z</time>
      </trkpt>
      <trkpt lat="59.074240615591407" lon="30.014019710943103">
        <ele>103.95999999999999</ele>
        <time>2026-04-25T09:23:54Z</time>
      </trkpt>
      <trkpt lat="59.074337929487228" lon="30.013990458101034">
        <ele>103.95999999999999</ele>
        <time>2026-04-25T09:24:09Z</time>
      </trkpt>
      <trkpt lat="59.074399452656507" lon="30.013930443674326">
        <ele>103.48</ele>
        <time>2026-04-25T09:24:18Z</time>
      </trkpt>
      <trkpt lat="59.074415378272533" lon="30.013892222195864">
        <ele>103.48</ele>
        <time>2026-04-25T09:24:21Z</time>
      </trkpt>
      <trkpt lat="59.074418563395739" lon="30.013780826702714">
        <ele>103.48</ele>
        <time>2026-04-25T09:24:29Z</time>
      </trkpt>
      <trkpt lat="59.074428956955671" lon="30.013702288269997">
        <ele>103.48</ele>
        <time>2026-04-25T09:24:35Z</time>
      </trkpt>
      <trkpt lat="59.074414372444153" lon="30.013639340177178">
        <ele>103</ele>
        <time>2026-04-25T09:24:39Z</time>
      </trkpt>
      <trkpt lat="59.074400374665856" lon="30.013565327972174">
        <ele>103</ele>
        <time>2026-04-25T09:24:45Z</time>
      </trkpt>
      <trkpt lat="59.074424766004086" lon="30.01353339292109">
        <ele>103</ele>
        <time>2026-04-25T09:24:49Z</time>
      </trkpt>
      <trkpt lat="59.074433902278543" lon="30.013497099280357">
        <ele>104.44</ele>
        <time>2026-04-25T09:24:52Z</time>
      </trkpt>
      <trkpt lat="59.074433483183384" lon="30.013428786769509">
        <ele>103.95999999999999</ele>
        <time>2026-04-25T09:24:58Z</time>
      </trkpt>
      <trkpt lat="59.074443290010095" lon="30.013417303562164">
        <ele>103.95999999999999</ele>
        <time>2026-04-25T09:25:00Z</time>
      </trkpt>
      <trkpt lat="59.074487295001745" lon="30.01339903101325">
        <ele>103.95999999999999</ele>
        <time>2026-04-25T09:25:06Z</time>
      </trkpt>
      <trkpt lat="59.074518224224448" lon="30.013356367126107">
        <ele>103.95999999999999</ele>
        <time>2026-04-25T09:25:10Z</time>
      </trkpt>
      <trkpt lat="59.074549404904246" lon="30.013311691582203">
        <ele>103.95999999999999</ele>
        <time>2026-04-25T09:25:15Z</time>
      </trkpt>
      <trkpt lat="59.07456373795867" lon="30.013268692418933">
        <ele>103.95999999999999</ele>
        <time>2026-04-25T09:25:19Z</time>
      </trkpt>
      <trkpt lat="59.074573880061507" lon="30.013185627758503">
        <ele>103.48</ele>
        <time>2026-04-25T09:25:24Z</time>
      </trkpt>
      <trkpt lat="59.074641689658165" lon="30.013067359104753">
        <ele>103.48</ele>
        <time>2026-04-25T09:25:38Z</time>
      </trkpt>
      <trkpt lat="59.074734225869179" lon="30.01296853646636">
        <ele>103.48</ele>
        <time>2026-04-25T09:25:53Z</time>
      </trkpt>
      <trkpt lat="59.074801532551646" lon="30.012874575331807">
        <ele>103</ele>
        <time>2026-04-25T09:26:07Z</time>
      </trkpt>
      <trkpt lat="59.074805723503232" lon="30.012835767120123">
        <ele>103</ele>
        <time>2026-04-25T09:26:11Z</time>
      </trkpt>
      <trkpt lat="59.07488040626049" lon="30.012749182060361">
        <ele>102.52</ele>
        <time>2026-04-25T09:26:24Z</time>
      </trkpt>
      <trkpt lat="59.074928937479854" lon="30.012675253674388">
        <ele>102.52</ele>
        <time>2026-04-25T09:26:41Z</time>
      </trkpt>
      <trkpt lat="59.074980402365327" lon="30.012615071609616">
        <ele>102.52</ele>
        <time>2026-04-25T09:26:50Z</time>
      </trkpt>
      <trkpt lat="59.075072519481182" lon="30.012561175972223">
        <ele>102.04000000000001</ele>
        <time>2026-04-25T09:27:07Z</time>
      </trkpt>
      <trkpt lat="59.075177125632763" lon="30.012383228167892">
        <ele>101.56</ele>
        <time>2026-04-25T09:27:28Z</time>
      </trkpt>
      <trkpt lat="59.075279133394361" lon="30.012229839339852">
        <ele>101.56</ele>
        <time>2026-04-25T09:27:46Z</time>
      </trkpt>
      <trkpt lat="59.075358929112554" lon="30.012079635635018">
        <ele>101.08</ele>
        <time>2026-04-25T09:28:04Z</time>
      </trkpt>
      <trkpt lat="59.075455404818058" lon="30.011895149946213">
        <ele>101.08</ele>
        <time>2026-04-25T09:28:24Z</time>
      </trkpt>
      <trkpt lat="59.075527070090175" lon="30.011796578764915">
        <ele>100.59999999999999</ele>
        <time>2026-04-25T09:28:39Z</time>
      </trkpt>
      <trkpt lat="59.075624132528901" lon="30.011649644002318">
        <ele>100.59999999999999</ele>
        <time>2026-04-25T09:28:59Z</time>
      </trkpt>
      <trkpt lat="59.075697222724557" lon="30.011565238237381">
        <ele>100.11</ele>
        <time>2026-04-25T09:29:15Z</time>
      </trkpt>
      <trkpt lat="59.075793782249093" lon="30.011399192735553">
        <ele>100.11</ele>
        <time>2026-04-25T09:29:36Z</time>
      </trkpt>
      <trkpt lat="59.075876092538238" lon="30.011320151388645">
        <ele>99.629999999999995</ele>
        <time>2026-04-25T09:29:50Z</time>
      </trkpt>
      <trkpt lat="59.075926300138235" lon="30.011221161112189">
        <ele>99.629999999999995</ele>
        <time>2026-04-25T09:30:06Z</time>
      </trkpt>
      <trkpt lat="59.075990840792656" lon="30.011050337925553">
        <ele>99.629999999999995</ele>
        <time>2026-04-25T09:30:19Z</time>
      </trkpt>
      <trkpt lat="59.076042305678129" lon="30.010879682376981">
        <ele>99.150000000000006</ele>
        <time>2026-04-25T09:30:31Z</time>
      </trkpt>
      <trkpt lat="59.076158730313182" lon="30.010734591633081">
        <ele>99.150000000000006</ele>
        <time>2026-04-25T09:30:49Z</time>
      </trkpt>
      <trkpt lat="59.076221846044064" lon="30.010668626055121">
        <ele>99.150000000000006</ele>
        <time>2026-04-25T09:31:06Z</time>
      </trkpt>
      <trkpt lat="59.076354280114174" lon="30.01066368073225">
        <ele>98.670000000000002</ele>
        <time>2026-04-25T09:31:37Z</time>
      </trkpt>
      <trkpt lat="59.076456371694803" lon="30.010605845600367">
        <ele>98.189999999999998</ele>
        <time>2026-04-25T09:31:53Z</time>
      </trkpt>
      <trkpt lat="59.0765480697155" lon="30.010449774563313">
        <ele>98.189999999999998</ele>
        <time>2026-04-25T09:32:08Z</time>
      </trkpt>
      <trkpt lat="59.076626608148217" lon="30.010168813169003">
        <ele>97.709999999999994</ele>
        <time>2026-04-25T09:32:31Z</time>
      </trkpt>
      <trkpt lat="59.076709421351552" lon="30.010071750730276">
        <ele>97.709999999999994</ele>
        <time>2026-04-25T09:32:44Z</time>
      </trkpt>
      <trkpt lat="59.076848980039358" lon="30.009799841791391">
        <ele>97.230000000000004</ele>
        <time>2026-04-25T09:33:05Z</time>
      </trkpt>
      <trkpt lat="59.076971523463726" lon="30.009677549824119">
        <ele>97.230000000000004</ele>
        <time>2026-04-25T09:33:23Z</time>
      </trkpt>
      <trkpt lat="59.077160283923149" lon="30.00959062948823">
        <ele>97.230000000000004</ele>
        <time>2026-04-25T09:33:42Z</time>
      </trkpt>
      <trkpt lat="59.077259777113795" lon="30.009420225396752">
        <ele>96.75</ele>
        <time>2026-04-25T09:33:59Z</time>
      </trkpt>
      <trkpt lat="59.077351726591587" lon="30.009164661169052">
        <ele>96.75</ele>
        <time>2026-04-25T09:34:20Z</time>
      </trkpt>
      <trkpt lat="59.077403694391251" lon="30.009027533233166">
        <ele>96.75</ele>
        <time>2026-04-25T09:34:34Z</time>
      </trkpt>
      <trkpt lat="59.077426409348845" lon="30.008965171873569">
        <ele>96.75</ele>
        <time>2026-04-25T09:34:41Z</time>
      </trkpt>
      <trkpt lat="59.077492039650679" lon="30.008764006197453">
        <ele>96.75</ele>
        <time>2026-04-25T09:34:54Z</time>
      </trkpt>
      <trkpt lat="59.077544175088406" lon="30.008666692301631">
        <ele>96.269999999999996</ele>
        <time>2026-04-25T09:35:06Z</time>
      </trkpt>
      <trkpt lat="59.077657498419285" lon="30.008437447249889">
        <ele>96.269999999999996</ele>
        <time>2026-04-25T09:35:24Z</time>
      </trkpt>
      <trkpt lat="59.077668227255344" lon="30.008375085890293">
        <ele>96.269999999999996</ele>
        <time>2026-04-25T09:35:41Z</time>
      </trkpt>
      <trkpt lat="59.077715585008264" lon="30.008311048150063">
        <ele>96.269999999999996</ele>
        <time>2026-04-25T09:35:50Z</time>
      </trkpt>
      <trkpt lat="59.077845169231296" lon="30.008136704564095">
        <ele>96.269999999999996</ele>
        <time>2026-04-25T09:36:07Z</time>
      </trkpt>
      <trkpt lat="59.077960755676031" lon="30.008007455617189">
        <ele>96.269999999999996</ele>
        <time>2026-04-25T09:36:22Z</time>
      </trkpt>
      <trkpt lat="59.078059494495392" lon="30.00785356387496">
        <ele>95.790000000000006</ele>
        <time>2026-04-25T09:36:39Z</time>
      </trkpt>
      <trkpt lat="59.078134847804904" lon="30.007685590535402">
        <ele>95.790000000000006</ele>
        <time>2026-04-25T09:36:53Z</time>
      </trkpt>
      <trkpt lat="59.078215733170509" lon="30.007524825632572">
        <ele>96.269999999999996</ele>
        <time>2026-04-25T09:37:07Z</time>
      </trkpt>
      <trkpt lat="59.078311873599887" lon="30.007428266108036">
        <ele>96.269999999999996</ele>
        <time>2026-04-25T09:37:20Z</time>
      </trkpt>
      <trkpt lat="59.078323189169168" lon="30.007404964417219">
        <ele>96.269999999999996</ele>
        <time>2026-04-25T09:37:22Z</time>
      </trkpt>
      <trkpt lat="59.078413126990199" lon="30.007336987182498">
        <ele>96.269999999999996</ele>
        <time>2026-04-25T09:37:33Z</time>
      </trkpt>
      <trkpt lat="59.078510189428926" lon="30.007281331345439">
        <ele>96.269999999999996</ele>
        <time>2026-04-25T09:37:43Z</time>
      </trkpt>
      <trkpt lat="59.078596355393529" lon="30.007237493991852">
        <ele>95.790000000000006</ele>
        <time>2026-04-25T09:37:57Z</time>
      </trkpt>
      <trkpt lat="59.07872149720788" lon="30.007162895053625">
        <ele>95.790000000000006</ele>
        <time>2026-04-25T09:38:13Z</time>
      </trkpt>
      <trkpt lat="59.078827947378159" lon="30.007045045495033">
        <ele>95.790000000000006</ele>
        <time>2026-04-25T09:38:27Z</time>
      </trkpt>
      <trkpt lat="59.078891146928072" lon="30.006934069097042">
        <ele>95.790000000000006</ele>
        <time>2026-04-25T09:38:40Z</time>
      </trkpt>
      <trkpt lat="59.079034645110369" lon="30.006744554266334">
        <ele>95.790000000000006</ele>
        <time>2026-04-25T09:39:02Z</time>
      </trkpt>
      <trkpt lat="59.079134557396173" lon="30.006542466580868">
        <ele>95.310000000000002</ele>
        <time>2026-04-25T09:39:20Z</time>
      </trkpt>
      <trkpt lat="59.079187698662281" lon="30.006384719163179">
        <ele>95.310000000000002</ele>
        <time>2026-04-25T09:39:36Z</time>
      </trkpt>
      <trkpt lat="59.079284677281976" lon="30.006237784400582">
        <ele>95.790000000000006</ele>
        <time>2026-04-25T09:39:56Z</time>
      </trkpt>
      <trkpt lat="59.079348212108016" lon="30.006074421107769">
        <ele>95.790000000000006</ele>
        <time>2026-04-25T09:40:10Z</time>
      </trkpt>
      <trkpt lat="59.079421302303672" lon="30.00580670312047">
        <ele>95.790000000000006</ele>
        <time>2026-04-25T09:40:34Z</time>
      </trkpt>
      <trkpt lat="59.079503361135721" lon="30.005621463060379">
        <ele>95.790000000000006</ele>
        <time>2026-04-25T09:40:50Z</time>
      </trkpt>
      <trkpt lat="59.079560441896319" lon="30.005403868854046">
        <ele>95.790000000000006</ele>
        <time>2026-04-25T09:41:08Z</time>
      </trkpt>
      <trkpt lat="59.07954971306026" lon="30.005361791700125">
        <ele>95.790000000000006</ele>
        <time>2026-04-25T09:41:32Z</time>
      </trkpt>
      <trkpt lat="59.079550299793482" lon="30.005339244380593">
        <ele>95.790000000000006</ele>
        <time>2026-04-25T09:42:09Z</time>
      </trkpt>
      <trkpt lat="59.079604698345065" lon="30.005283923819661">
        <ele>94.349999999999994</ele>
        <time>2026-04-25T09:42:55Z</time>
      </trkpt>
      <trkpt lat="59.079612577334046" lon="30.00523405149579">
        <ele>94.829999999999998</ele>
        <time>2026-04-25T09:43:26Z</time>
      </trkpt>
      <trkpt lat="59.079585084691644" lon="30.005303621292114">
        <ele>94.829999999999998</ele>
        <time>2026-04-25T09:43:55Z</time>
      </trkpt>
      <trkpt lat="59.079585503786802" lon="30.005337316542864">
        <ele>94.829999999999998</ele>
        <time>2026-04-25T09:44:48Z</time>
      </trkpt>
      <trkpt lat="59.079568739980459" lon="30.005300687626004">
        <ele>94.829999999999998</ele>
        <time>2026-04-25T09:45:23Z</time>
      </trkpt>
      <trkpt lat="59.07959564588964" lon="30.005372017621994">
        <ele>94.829999999999998</ele>
        <time>2026-04-25T09:45:45Z</time>
      </trkpt>
      <trkpt lat="59.079584246501327" lon="30.005213934928179">
        <ele>94.829999999999998</ele>
        <time>2026-04-25T09:45:59Z</time>
      </trkpt>
      <trkpt lat="59.079572511836886" lon="30.005181580781937">
        <ele>94.829999999999998</ele>
        <time>2026-04-25T09:46:02Z</time>
      </trkpt>
      <trkpt lat="59.079532530158758" lon="30.005134725943208">
        <ele>94.829999999999998</ele>
        <time>2026-04-25T09:46:09Z</time>
      </trkpt>
      <trkpt lat="59.079489279538393" lon="30.004867007955909">
        <ele>94.829999999999998</ele>
        <time>2026-04-25T09:46:30Z</time>
      </trkpt>
      <trkpt lat="59.07948425039649" lon="30.004863822832704">
        <ele>94.829999999999998</ele>
        <time>2026-04-25T09:46:47Z</time>
      </trkpt>
      <trkpt lat="59.07944762147963" lon="30.004713367670774">
        <ele>94.829999999999998</ele>
        <time>2026-04-25T09:47:03Z</time>
      </trkpt>
      <trkpt lat="59.079402443021536" lon="30.004683444276452">
        <ele>94.829999999999998</ele>
        <time>2026-04-25T09:47:19Z</time>
      </trkpt>
      <trkpt lat="59.079369753599167" lon="30.004622926935554">
        <ele>94.349999999999994</ele>
        <time>2026-04-25T09:47:46Z</time>
      </trkpt>
      <trkpt lat="59.079310828819871" lon="30.004693418741226">
        <ele>94.349999999999994</ele>
        <time>2026-04-25T09:47:59Z</time>
      </trkpt>
      <trkpt lat="59.079259447753429" lon="30.004448080435395">
        <ele>94.349999999999994</ele>
        <time>2026-04-25T09:48:14Z</time>
      </trkpt>
      <trkpt lat="59.079170348122716" lon="30.004337774589658">
        <ele>94.349999999999994</ele>
        <time>2026-04-25T09:48:29Z</time>
      </trkpt>
      <trkpt lat="59.079157104715705" lon="30.004223026335239">
        <ele>94.349999999999994</ele>
        <time>2026-04-25T09:48:50Z</time>
      </trkpt>
      <trkpt lat="59.079134557396173" lon="30.00410727225244">
        <ele>94.349999999999994</ele>
        <time>2026-04-25T09:49:08Z</time>
      </trkpt>
      <trkpt lat="59.079075716435909" lon="30.004025045782328">
        <ele>94.349999999999994</ele>
        <time>2026-04-25T09:49:19Z</time>
      </trkpt>
      <trkpt lat="59.079087367281318" lon="30.003786077722907">
        <ele>94.349999999999994</ele>
        <time>2026-04-25T09:49:35Z</time>
      </trkpt>
      <trkpt lat="59.079075464978814" lon="30.003621960058808">
        <ele>94.349999999999994</ele>
        <time>2026-04-25T09:49:51Z</time>
      </trkpt>
      <trkpt lat="59.079006481915712" lon="30.003426661714911">
        <ele>94.349999999999994</ele>
        <time>2026-04-25T09:50:08Z</time>
      </trkpt>
      <trkpt lat="59.078977480530739" lon="30.003316691145301">
        <ele>94.349999999999994</ele>
        <time>2026-04-25T09:50:49Z</time>
      </trkpt>
      <trkpt lat="59.078974043950438" lon="30.003326581791043">
        <ele>94.349999999999994</ele>
        <time>2026-04-25T09:50:52Z</time>
      </trkpt>
      <trkpt lat="59.078953675925732" lon="30.00339237973094">
        <ele>94.349999999999994</ele>
        <time>2026-04-25T09:51:18Z</time>
      </trkpt>
      <trkpt lat="59.078957196325064" lon="30.003459099680185">
        <ele>94.349999999999994</ele>
        <time>2026-04-25T09:51:38Z</time>
      </trkpt>
      <trkpt lat="59.078979324549437" lon="30.003464547917247">
        <ele>94.349999999999994</ele>
        <time>2026-04-25T09:51:43Z</time>
      </trkpt>
      <trkpt lat="59.078939845785499" lon="30.003438983112574">
        <ele>94.349999999999994</ele>
        <time>2026-04-25T09:52:03Z</time>
      </trkpt>
      <trkpt lat="59.078954514116049" lon="30.003459518775344">
        <ele>94.349999999999994</ele>
        <time>2026-04-25T09:52:06Z</time>
      </trkpt>
      <trkpt lat="59.078869186341763" lon="30.00349061563611">
        <ele>94.349999999999994</ele>
        <time>2026-04-25T09:52:27Z</time>
      </trkpt>
      <trkpt lat="59.078806824982166" lon="30.003518527373672">
        <ele>93.870000000000005</ele>
        <time>2026-04-25T09:52:35Z</time>
      </trkpt>
      <trkpt lat="59.078765837475657" lon="30.003527328372002">
        <ele>93.870000000000005</ele>
        <time>2026-04-25T09:53:01Z</time>
      </trkpt>
      <trkpt lat="59.078778913244605" lon="30.0035653822124">
        <ele>93.870000000000005</ele>
        <time>2026-04-25T09:53:26Z</time>
      </trkpt>
      <trkpt lat="59.078738344833255" lon="30.003557000309229">
        <ele>93.870000000000005</ele>
        <time>2026-04-25T09:53:42Z</time>
      </trkpt>
      <trkpt lat="59.078825768083334" lon="30.003708461299539">
        <ele>93.870000000000005</ele>
        <time>2026-04-25T09:53:57Z</time>
      </trkpt>
      <trkpt lat="59.078878741711378" lon="30.003896802663803">
        <ele>93.390000000000001</ele>
        <time>2026-04-25T09:54:10Z</time>
      </trkpt>
      <trkpt lat="59.078854015097022" lon="30.004156222566962">
        <ele>93.390000000000001</ele>
        <time>2026-04-25T09:54:26Z</time>
      </trkpt>
      <trkpt lat="59.078924925997853" lon="30.004261080175638">
        <ele>93.390000000000001</ele>
        <time>2026-04-25T09:54:39Z</time>
      </trkpt>
      <trkpt lat="59.078955519944429" lon="30.004500299692154">
        <ele>93.390000000000001</ele>
        <time>2026-04-25T09:54:54Z</time>
      </trkpt>
      <trkpt lat="59.078897517174482" lon="30.004584370180964">
        <ele>93.390000000000001</ele>
        <time>2026-04-25T09:55:11Z</time>
      </trkpt>
      <trkpt lat="59.078938756138086" lon="30.004774471744895">
        <ele>93.390000000000001</ele>
        <time>2026-04-25T09:55:25Z</time>
      </trkpt>
      <trkpt lat="59.079024251550436" lon="30.004942864179611">
        <ele>92.900000000000006</ele>
        <time>2026-04-25T09:55:38Z</time>
      </trkpt>
      <trkpt lat="59.079046044498682" lon="30.005174204707146">
        <ele>92.900000000000006</ele>
        <time>2026-04-25T09:55:52Z</time>
      </trkpt>
      <trkpt lat="59.07903422601521" lon="30.005411664023995">
        <ele>92.900000000000006</ele>
        <time>2026-04-25T09:56:07Z</time>
      </trkpt>
      <trkpt lat="59.079084768891335" lon="30.005584079772234">
        <ele>92.900000000000006</ele>
        <time>2026-04-25T09:56:22Z</time>
      </trkpt>
      <trkpt lat="59.079126426950097" lon="30.005828160792589">
        <ele>92.900000000000006</ele>
        <time>2026-04-25T09:56:36Z</time>
      </trkpt>
      <trkpt lat="59.079236732795835" lon="30.00590929761529">
        <ele>92.900000000000006</ele>
        <time>2026-04-25T09:56:55Z</time>
      </trkpt>
      <trkpt lat="59.079292891547084" lon="30.006108954548836">
        <ele>92.900000000000006</ele>
        <time>2026-04-25T09:57:09Z</time>
      </trkpt>
      <trkpt lat="59.079315522685647" lon="30.006125969812274">
        <ele>93.870000000000005</ele>
        <time>2026-04-25T09:57:12Z</time>
      </trkpt>
      <trkpt lat="59.079317701980472" lon="30.006346581503749">
        <ele>93.870000000000005</ele>
        <time>2026-04-25T09:57:28Z</time>
      </trkpt>
      <trkpt lat="59.079265315085649" lon="30.006293104961514">
        <ele>93.870000000000005</ele>
        <time>2026-04-25T09:57:45Z</time>
      </trkpt>
      <trkpt lat="59.079164396971464" lon="30.006260415539145">
        <ele>93.870000000000005</ele>
        <time>2026-04-25T09:57:56Z</time>
      </trkpt>
      <trkpt lat="59.079077979549766" lon="30.006254967302084">
        <ele>93.870000000000005</ele>
        <time>2026-04-25T09:58:16Z</time>
      </trkpt>
      <trkpt lat="59.07905132509768" lon="30.006109457463026">
        <ele>93.870000000000005</ele>
        <time>2026-04-25T09:58:36Z</time>
      </trkpt>
      <trkpt lat="59.078972032293677" lon="30.006183469668031">
        <ele>93.870000000000005</ele>
        <time>2026-04-25T09:58:59Z</time>
      </trkpt>
      <trkpt lat="59.078856529667974" lon="30.006200317293406">
        <ele>93.870000000000005</ele>
        <time>2026-04-25T09:59:16Z</time>
      </trkpt>
      <trkpt lat="59.078751839697361" lon="30.006112726405263">
        <ele>93.870000000000005</ele>
        <time>2026-04-25T09:59:31Z</time>
      </trkpt>
      <trkpt lat="59.078697105869651" lon="30.006047012284398">
        <ele>93.870000000000005</ele>
        <time>2026-04-25T09:59:46Z</time>
      </trkpt>
      <trkpt lat="59.078691909089684" lon="30.005944753065705">
        <ele>93.870000000000005</ele>
        <time>2026-04-25T10:00:02Z</time>
      </trkpt>
      <trkpt lat="59.078665589913726" lon="30.005773510783911">
        <ele>93.390000000000001</ele>
        <time>2026-04-25T10:00:52Z</time>
      </trkpt>
      <trkpt lat="59.078661482781172" lon="30.00552574172616">
        <ele>93.870000000000005</ele>
        <time>2026-04-25T10:01:09Z</time>
      </trkpt>
      <trkpt lat="59.078685203567147" lon="30.005360869690776">
        <ele>93.870000000000005</ele>
        <time>2026-04-25T10:01:19Z</time>
      </trkpt>
      <trkpt lat="59.07858906313777" lon="30.005166409537196">
        <ele>93.390000000000001</ele>
        <time>2026-04-25T10:01:34Z</time>
      </trkpt>
      <trkpt lat="59.078534999862313" lon="30.005008494481444">
        <ele>93.390000000000001</ele>
        <time>2026-04-25T10:01:47Z</time>
      </trkpt>
      <trkpt lat="59.078512284904718" lon="30.004784110933542">
        <ele>93.390000000000001</ele>
        <time>2026-04-25T10:02:02Z</time>
      </trkpt>
      <trkpt lat="59.078466854989529" lon="30.004547238349915">
        <ele>93.390000000000001</ele>
        <time>2026-04-25T10:02:19Z</time>
      </trkpt>
      <trkpt lat="59.078397285193205" lon="30.004345569759607">
        <ele>93.390000000000001</ele>
        <time>2026-04-25T10:02:33Z</time>
      </trkpt>
      <trkpt lat="59.078374905511737" lon="30.004139626398683">
        <ele>93.390000000000001</ele>
        <time>2026-04-25T10:02:46Z</time>
      </trkpt>
      <trkpt lat="59.078328469768167" lon="30.003974502906203">
        <ele>93.390000000000001</ele>
        <time>2026-04-25T10:02:58Z</time>
      </trkpt>
      <trkpt lat="59.07831153832376" lon="30.003758501261473">
        <ele>93.390000000000001</ele>
        <time>2026-04-25T10:03:13Z</time>
      </trkpt>
      <trkpt lat="59.078276418149471" lon="30.003564292564988">
        <ele>93.390000000000001</ele>
        <time>2026-04-25T10:03:28Z</time>
      </trkpt>
      <trkpt lat="59.078275496140122" lon="30.003388607874513">
        <ele>92.900000000000006</ele>
        <time>2026-04-25T10:03:38Z</time>
      </trkpt>
      <trkpt lat="59.07824314199388" lon="30.003311913460493">
        <ele>92.900000000000006</ele>
        <time>2026-04-25T10:03:49Z</time>
      </trkpt>
      <trkpt lat="59.07818790525198" lon="30.003395900130272">
        <ele>92.900000000000006</ele>
        <time>2026-04-25T10:04:10Z</time>
      </trkpt>
      <trkpt lat="59.078131914138794" lon="30.003485083580017">
        <ele>92.900000000000006</ele>
        <time>2026-04-25T10:04:31Z</time>
      </trkpt>
      <trkpt lat="59.078022865578532" lon="30.003429092466831">
        <ele>92.900000000000006</ele>
        <time>2026-04-25T10:04:47Z</time>
      </trkpt>
      <trkpt lat="59.077933095395565" lon="30.00353017821908">
        <ele>92.900000000000006</ele>
        <time>2026-04-25T10:05:01Z</time>
      </trkpt>
      <trkpt lat="59.077896969392896" lon="30.003662025555968">
        <ele>92.900000000000006</ele>
        <time>2026-04-25T10:05:13Z</time>
      </trkpt>
      <trkpt lat="59.077914571389556" lon="30.003782054409385">
        <ele>92.900000000000006</ele>
        <time>2026-04-25T10:05:27Z</time>
      </trkpt>
      <trkpt lat="59.077942064031959" lon="30.003847936168313">
        <ele>92.900000000000006</ele>
        <time>2026-04-25T10:05:48Z</time>
      </trkpt>
      <trkpt lat="59.077957067638636" lon="30.003976430743933">
        <ele>92.420000000000002</ele>
        <time>2026-04-25T10:06:09Z</time>
      </trkpt>
      <trkpt lat="59.078017165884376" lon="30.004012808203697">
        <ele>92.420000000000002</ele>
        <time>2026-04-25T10:06:23Z</time>
      </trkpt>
      <trkpt lat="59.078069804236293" lon="30.004223445430398">
        <ele>92.420000000000002</ele>
        <time>2026-04-25T10:06:39Z</time>
      </trkpt>
      <trkpt lat="59.078051950782537" lon="30.004491750150919">
        <ele>92.420000000000002</ele>
        <time>2026-04-25T10:06:55Z</time>
      </trkpt>
      <trkpt lat="59.078096626326442" lon="30.004644803702831">
        <ele>92.420000000000002</ele>
        <time>2026-04-25T10:07:09Z</time>
      </trkpt>
      <trkpt lat="59.078124705702066" lon="30.004725689068437">
        <ele>92.420000000000002</ele>
        <time>2026-04-25T10:07:29Z</time>
      </trkpt>
      <trkpt lat="59.078145325183868" lon="30.004946300759912">
        <ele>91.939999999999998</ele>
        <time>2026-04-25T10:07:45Z</time>
      </trkpt>
      <trkpt lat="59.078117664903402" lon="30.005106311291456">
        <ele>91.939999999999998</ele>
        <time>2026-04-25T10:07:56Z</time>
      </trkpt>
      <trkpt lat="59.078148594126105" lon="30.005304710939527">
        <ele>90.980000000000004</ele>
        <time>2026-04-25T10:08:10Z</time>
      </trkpt>
      <trkpt lat="59.078191760927439" lon="30.005443766713142">
        <ele>90.980000000000004</ele>
        <time>2026-04-25T10:08:25Z</time>
      </trkpt>
      <trkpt lat="59.078212212771177" lon="30.005643256008625">
        <ele>90.980000000000004</ele>
        <time>2026-04-25T10:08:40Z</time>
      </trkpt>
      <trkpt lat="59.078256636857986" lon="30.005822042003274">
        <ele>90.980000000000004</ele>
        <time>2026-04-25T10:08:56Z</time>
      </trkpt>
      <trkpt lat="59.078266862779856" lon="30.006051203235984">
        <ele>90.980000000000004</ele>
        <time>2026-04-25T10:09:11Z</time>
      </trkpt>
      <trkpt lat="59.078315896913409" lon="30.006127646192908">
        <ele>90.980000000000004</ele>
        <time>2026-04-25T10:09:28Z</time>
      </trkpt>
      <trkpt lat="59.078316986560822" lon="30.006136111915112">
        <ele>90.5</ele>
        <time>2026-04-25T10:09:38Z</time>
      </trkpt>
      <trkpt lat="59.07824506983161" lon="30.006274497136474">
        <ele>90.5</ele>
        <time>2026-04-25T10:09:56Z</time>
      </trkpt>
      <trkpt lat="59.078230485320091" lon="30.006282292306423">
        <ele>90.5</ele>
        <time>2026-04-25T10:09:58Z</time>
      </trkpt>
      <trkpt lat="59.078286308795214" lon="30.006198221817613">
        <ele>90.5</ele>
        <time>2026-04-25T10:10:34Z</time>
      </trkpt>
      <trkpt lat="59.078219672665" lon="30.006195288151503">
        <ele>90.5</ele>
        <time>2026-04-25T10:11:24Z</time>
      </trkpt>
      <trkpt lat="59.078104421496391" lon="30.006122868508101">
        <ele>90.5</ele>
        <time>2026-04-25T10:11:50Z</time>
      </trkpt>
      <trkpt lat="59.078048430383205" lon="30.006085401400924">
        <ele>90.5</ele>
        <time>2026-04-25T10:12:03Z</time>
      </trkpt>
      <trkpt lat="59.077981375157833" lon="30.006111469119787">
        <ele>90.5</ele>
        <time>2026-04-25T10:12:15Z</time>
      </trkpt>
      <trkpt lat="59.077911805361509" lon="30.006215823814273">
        <ele>90.5</ele>
        <time>2026-04-25T10:12:27Z</time>
      </trkpt>
      <trkpt lat="59.077845755964518" lon="30.006229486316442">
        <ele>90.019999999999996</ele>
        <time>2026-04-25T10:12:48Z</time>
      </trkpt>
      <trkpt lat="59.077833602204919" lon="30.006123539060354">
        <ele>90.019999999999996</ele>
        <time>2026-04-25T10:13:22Z</time>
      </trkpt>
      <trkpt lat="59.077792530879378" lon="30.005947267636657">
        <ele>90.019999999999996</ele>
        <time>2026-04-25T10:13:36Z</time>
      </trkpt>
      <trkpt lat="59.077785741537809" lon="30.005782227963209">
        <ele>90.019999999999996</ele>
        <time>2026-04-25T10:13:49Z</time>
      </trkpt>
      <trkpt lat="59.077775096520782" lon="30.005668234080076">
        <ele>90.019999999999996</ele>
        <time>2026-04-25T10:14:02Z</time>
      </trkpt>
      <trkpt lat="59.077745508402586" lon="30.005518030375242">
        <ele>90.019999999999996</ele>
        <time>2026-04-25T10:14:20Z</time>
      </trkpt>
      <trkpt lat="59.077702173963189" lon="30.005387105047703">
        <ele>90.019999999999996</ele>
        <time>2026-04-25T10:14:37Z</time>
      </trkpt>
      <trkpt lat="59.07767585478723" lon="30.005112010985613">
        <ele>89.540000000000006</ele>
        <time>2026-04-25T10:15:00Z</time>
      </trkpt>
      <trkpt lat="59.077586838975549" lon="30.004984438419342">
        <ele>89.540000000000006</ele>
        <time>2026-04-25T10:15:19Z</time>
      </trkpt>
      <trkpt lat="59.077545683830976" lon="30.004741782322526">
        <ele>89.540000000000006</ele>
        <time>2026-04-25T10:15:39Z</time>
      </trkpt>
      <trkpt lat="59.077568231150508" lon="30.004537012428045">
        <ele>90.980000000000004</ele>
        <time>2026-04-25T10:15:52Z</time>
      </trkpt>
      <trkpt lat="59.077499751001596" lon="30.004275664687157">
        <ele>90.980000000000004</ele>
        <time>2026-04-25T10:16:13Z</time>
      </trkpt>
      <trkpt lat="59.077475527301431" lon="30.00408623367548">
        <ele>90.5</ele>
        <time>2026-04-25T10:16:27Z</time>
      </trkpt>
      <trkpt lat="59.077447783201933" lon="30.003786664456129">
        <ele>90.5</ele>
        <time>2026-04-25T10:16:53Z</time>
      </trkpt>
      <trkpt lat="59.077464714646339" lon="30.00376034528017">
        <ele>90.5</ele>
        <time>2026-04-25T10:17:09Z</time>
      </trkpt>
      <trkpt lat="59.077484328299761" lon="30.003775516524911">
        <ele>90.5</ele>
        <time>2026-04-25T10:17:44Z</time>
      </trkpt>
      <trkpt lat="59.077438060194254" lon="30.003778031095862">
        <ele>90.019999999999996</ele>
        <time>2026-04-25T10:18:10Z</time>
      </trkpt>
      <trkpt lat="59.077426660805941" lon="30.003778617829084">
        <ele>90.019999999999996</ele>
        <time>2026-04-25T10:18:16Z</time>
      </trkpt>
      <trkpt lat="59.077419368550181" lon="30.003764787688851">
        <ele>90.019999999999996</ele>
        <time>2026-04-25T10:18:18Z</time>
      </trkpt>
      <trkpt lat="59.077422972768545" lon="30.003733187913895">
        <ele>90.019999999999996</ele>
        <time>2026-04-25T10:18:28Z</time>
      </trkpt>
      <trkpt lat="59.077418278902769" lon="30.003721117973328">
        <ele>90.019999999999996</ele>
        <time>2026-04-25T10:18:36Z</time>
      </trkpt>
      <trkpt lat="59.077406208962202" lon="30.003751292824745">
        <ele>90.019999999999996</ele>
        <time>2026-04-25T10:18:42Z</time>
      </trkpt>
      <trkpt lat="59.077410399913788" lon="30.003783479332924">
        <ele>90.019999999999996</ele>
        <time>2026-04-25T10:18:44Z</time>
      </trkpt>
      <trkpt lat="59.077427415177226" lon="30.003840392455459">
        <ele>90.019999999999996</ele>
        <time>2026-04-25T10:18:57Z</time>
      </trkpt>
      <trkpt lat="59.077437389642" lon="30.003837374970317">
        <ele>90.019999999999996</ele>
        <time>2026-04-25T10:19:08Z</time>
      </trkpt>
      <trkpt lat="59.077433366328478" lon="30.00381994061172">
        <ele>90.019999999999996</ele>
        <time>2026-04-25T10:19:09Z</time>
      </trkpt>
      <trkpt lat="59.077338734641671" lon="30.003853971138597">
        <ele>90.019999999999996</ele>
        <time>2026-04-25T10:19:21Z</time>
      </trkpt>
      <trkpt lat="59.077262375503778" lon="30.003859419375658">
        <ele>90.019999999999996</ele>
        <time>2026-04-25T10:19:32Z</time>
      </trkpt>
      <trkpt lat="59.077198002487421" lon="30.003874003887177">
        <ele>89.540000000000006</ele>
        <time>2026-04-25T10:19:42Z</time>
      </trkpt>
      <trkpt lat="59.077179478481412" lon="30.003924714401364">
        <ele>89.540000000000006</ele>
        <time>2026-04-25T10:19:47Z</time>
      </trkpt>
      <trkpt lat="59.077167995274067" lon="30.003959834575653">
        <ele>89.540000000000006</ele>
        <time>2026-04-25T10:19:59Z</time>
      </trkpt>
      <trkpt lat="59.077097671106458" lon="30.004027308896184">
        <ele>89.540000000000006</ele>
        <time>2026-04-25T10:20:12Z</time>
      </trkpt>
      <trkpt lat="59.07711049541831" lon="30.004003504291177">
        <ele>89.540000000000006</ele>
        <time>2026-04-25T10:20:24Z</time>
      </trkpt>
      <trkpt lat="59.077124493196607" lon="30.004031835123897">
        <ele>89.540000000000006</ele>
        <time>2026-04-25T10:20:34Z</time>
      </trkpt>
      <trkpt lat="59.077126253396273" lon="30.004042061045766">
        <ele>89.540000000000006</ele>
        <time>2026-04-25T10:20:40Z</time>
      </trkpt>
      <trkpt lat="59.077168414369226" lon="30.004157898947597">
        <ele>89.540000000000006</ele>
        <time>2026-04-25T10:20:53Z</time>
      </trkpt>
      <trkpt lat="59.077166989445686" lon="30.004313634708524">
        <ele>89.540000000000006</ele>
        <time>2026-04-25T10:21:06Z</time>
      </trkpt>
      <trkpt lat="59.077149052172899" lon="30.004339450970292">
        <ele>89.540000000000006</ele>
        <time>2026-04-25T10:21:10Z</time>
      </trkpt>
      <trkpt lat="59.07714955508709" lon="30.004463251680136">
        <ele>89.540000000000006</ele>
        <time>2026-04-25T10:21:20Z</time>
      </trkpt>
      <trkpt lat="59.077149135991931" lon="30.004550674930215">
        <ele>89.060000000000002</ele>
        <time>2026-04-25T10:21:30Z</time>
      </trkpt>
      <trkpt lat="59.077155506238341" lon="30.004614796489477">
        <ele>89.060000000000002</ele>
        <time>2026-04-25T10:21:35Z</time>
      </trkpt>
      <trkpt lat="59.077199595049024" lon="30.004844712093472">
        <ele>89.060000000000002</ele>
        <time>2026-04-25T10:21:48Z</time>
      </trkpt>
      <trkpt lat="59.077221807092428" lon="30.004973709583282">
        <ele>89.060000000000002</ele>
        <time>2026-04-25T10:21:59Z</time>
      </trkpt>
      <trkpt lat="59.077211581170559" lon="30.0050332210958">
        <ele>89.060000000000002</ele>
        <time>2026-04-25T10:22:03Z</time>
      </trkpt>
      <trkpt lat="59.077187525108457" lon="30.005117962136865">
        <ele>89.060000000000002</ele>
        <time>2026-04-25T10:22:11Z</time>
      </trkpt>
      <trkpt lat="59.077223315834999" lon="30.005226507782936">
        <ele>89.060000000000002</ele>
        <time>2026-04-25T10:22:26Z</time>
      </trkpt>
      <trkpt lat="59.077260280027986" lon="30.005373107269406">
        <ele>89.060000000000002</ele>
        <time>2026-04-25T10:22:40Z</time>
      </trkpt>
      <trkpt lat="59.077265057712793" lon="30.005507888272405">
        <ele>88.579999999999998</ele>
        <time>2026-04-25T10:22:51Z</time>
      </trkpt>
      <trkpt lat="59.077290035784245" lon="30.00560000538826">
        <ele>88.579999999999998</ele>
        <time>2026-04-25T10:23:04Z</time>
      </trkpt>
      <trkpt lat="59.077329346910119" lon="30.005673263221979">
        <ele>88.579999999999998</ele>
        <time>2026-04-25T10:23:16Z</time>
      </trkpt>
      <trkpt lat="59.07733429223299" lon="30.005729170516133">
        <ele>88.579999999999998</ele>
        <time>2026-04-25T10:23:27Z</time>
      </trkpt>
      <trkpt lat="59.077339991927147" lon="30.005873590707779">
        <ele>88.579999999999998</ele>
        <time>2026-04-25T10:23:42Z</time>
      </trkpt>
      <trkpt lat="59.077316271141171" lon="30.005952045321465">
        <ele>88.579999999999998</ele>
        <time>2026-04-25T10:23:56Z</time>
      </trkpt>
      <trkpt lat="59.07727075740695" lon="30.006039636209607">
        <ele>88.579999999999998</ele>
        <time>2026-04-25T10:24:10Z</time>
      </trkpt>
      <trkpt lat="59.077325239777565" lon="30.006100740283728">
        <ele>88.579999999999998</ele>
        <time>2026-04-25T10:24:21Z</time>
      </trkpt>
      <trkpt lat="59.07740905880928" lon="30.006198137998581">
        <ele>88.099999999999994</ele>
        <time>2026-04-25T10:24:35Z</time>
      </trkpt>
      <trkpt lat="59.077426996082067" lon="30.00626603141427">
        <ele>88.099999999999994</ele>
        <time>2026-04-25T10:24:45Z</time>
      </trkpt>
      <trkpt lat="59.077397575601935" lon="30.006387149915099">
        <ele>88.099999999999994</ele>
        <time>2026-04-25T10:24:56Z</time>
      </trkpt>
      <trkpt lat="59.077371843159199" lon="30.006562750786543">
        <ele>88.099999999999994</ele>
        <time>2026-04-25T10:25:11Z</time>
      </trkpt>
      <trkpt lat="59.077355917543173" lon="30.006660567596555">
        <ele>88.099999999999994</ele>
        <time>2026-04-25T10:25:36Z</time>
      </trkpt>
      <trkpt lat="59.077327670529485" lon="30.006486224010587">
        <ele>88.099999999999994</ele>
        <time>2026-04-25T10:26:15Z</time>
      </trkpt>
      <trkpt lat="59.077266482636333" lon="30.006498796865344">
        <ele>88.099999999999994</ele>
        <time>2026-04-25T10:27:29Z</time>
      </trkpt>
      <trkpt lat="59.077295400202274" lon="30.006546406075358">
        <ele>88.099999999999994</ele>
        <time>2026-04-25T10:27:35Z</time>
      </trkpt>
      <trkpt lat="59.077247455716133" lon="30.006669368594885">
        <ele>88.099999999999994</ele>
        <time>2026-04-25T10:27:48Z</time>
      </trkpt>
      <trkpt lat="59.077155757695436" lon="30.006634164601564">
        <ele>88.099999999999994</ele>
        <time>2026-04-25T10:28:01Z</time>
      </trkpt>
      <trkpt lat="59.077072525396943" lon="30.006505837664008">
        <ele>88.099999999999994</ele>
        <time>2026-04-25T10:28:15Z</time>
      </trkpt>
      <trkpt lat="59.077020138502121" lon="30.006397794932127">
        <ele>88.099999999999994</ele>
        <time>2026-04-25T10:28:27Z</time>
      </trkpt>
      <trkpt lat="59.076951742172241" lon="30.006261924281716">
        <ele>88.099999999999994</ele>
        <time>2026-04-25T10:28:41Z</time>
      </trkpt>
      <trkpt lat="59.076927769929171" lon="30.006107445806265">
        <ele>88.099999999999994</ele>
        <time>2026-04-25T10:28:52Z</time>
      </trkpt>
      <trkpt lat="59.076933888718486" lon="30.005960846319795">
        <ele>88.099999999999994</ele>
        <time>2026-04-25T10:29:04Z</time>
      </trkpt>
      <trkpt lat="59.076925925910473" lon="30.005796309560537">
        <ele>88.099999999999994</ele>
        <time>2026-04-25T10:29:18Z</time>
      </trkpt>
      <trkpt lat="59.076929362490773" lon="30.005691451951861">
        <ele>88.099999999999994</ele>
        <time>2026-04-25T10:29:35Z</time>
      </trkpt>
      <trkpt lat="59.076923411339521" lon="30.005628671497107">
        <ele>88.099999999999994</ele>
        <time>2026-04-25T10:29:47Z</time>
      </trkpt>
      <trkpt lat="59.076940007507801" lon="30.005666390061378">
        <ele>87.620000000000005</ele>
        <time>2026-04-25T10:31:02Z</time>
      </trkpt>
      <trkpt lat="59.076904719695449" lon="30.005504367873073">
        <ele>87.620000000000005</ele>
        <time>2026-04-25T10:31:18Z</time>
      </trkpt>
      <trkpt lat="59.076933721080422" lon="30.005337651818991">
        <ele>87.620000000000005</ele>
        <time>2026-04-25T10:31:35Z</time>
      </trkpt>
      <trkpt lat="59.07692089676857" lon="30.005225753411651">
        <ele>87.620000000000005</ele>
        <time>2026-04-25T10:31:45Z</time>
      </trkpt>
      <trkpt lat="59.076904803514481" lon="30.005112932994962">
        <ele>87.140000000000001</ele>
        <time>2026-04-25T10:32:00Z</time>
      </trkpt>
      <trkpt lat="59.076833138242364" lon="30.005130870267749">
        <ele>87.140000000000001</ele>
        <time>2026-04-25T10:32:12Z</time>
      </trkpt>
      <trkpt lat="59.076808327808976" lon="30.004961891099811">
        <ele>87.140000000000001</ele>
        <time>2026-04-25T10:32:25Z</time>
      </trkpt>
      <trkpt lat="59.076785026118159" lon="30.004770616069436">
        <ele>87.140000000000001</ele>
        <time>2026-04-25T10:32:41Z</time>
      </trkpt>
      <trkpt lat="59.076776141300797" lon="30.004672212526202">
        <ele>87.620000000000005</ele>
        <time>2026-04-25T10:32:49Z</time>
      </trkpt>
      <trkpt lat="59.076741356402636" lon="30.004571964964271">
        <ele>87.620000000000005</ele>
        <time>2026-04-25T10:32:57Z</time>
      </trkpt>
      <trkpt lat="59.076708666980267" lon="30.004562409594655">
        <ele>87.620000000000005</ele>
        <time>2026-04-25T10:33:06Z</time>
      </trkpt>
      <trkpt lat="59.076693328097463" lon="30.004478674381971">
        <ele>87.620000000000005</ele>
        <time>2026-04-25T10:33:15Z</time>
      </trkpt>
      <trkpt lat="59.07673230394721" lon="30.004350934177637">
        <ele>87.620000000000005</ele>
        <time>2026-04-25T10:33:27Z</time>
      </trkpt>
      <trkpt lat="59.076666589826345" lon="30.004183212295175">
        <ele>87.620000000000005</ele>
        <time>2026-04-25T10:33:40Z</time>
      </trkpt>
      <trkpt lat="59.076662566512823" lon="30.004185810685158">
        <ele>87.620000000000005</ele>
        <time>2026-04-25T10:33:41Z</time>
      </trkpt>
      <trkpt lat="59.07666047103703" lon="30.00420106574893">
        <ele>87.620000000000005</ele>
        <time>2026-04-25T10:33:48Z</time>
      </trkpt>
      <trkpt lat="59.076617388054729" lon="30.00406133942306">
        <ele>87.620000000000005</ele>
        <time>2026-04-25T10:33:57Z</time>
      </trkpt>
      <trkpt lat="59.076586877927184" lon="30.003997469320893">
        <ele>87.620000000000005</ele>
        <time>2026-04-25T10:34:08Z</time>
      </trkpt>
      <trkpt lat="59.07661110162735" lon="30.004013730213046">
        <ele>87.620000000000005</ele>
        <time>2026-04-25T10:34:18Z</time>
      </trkpt>
      <trkpt lat="59.076608084142208" lon="30.004021357744932">
        <ele>87.620000000000005</ele>
        <time>2026-04-25T10:34:31Z</time>
      </trkpt>
      <trkpt lat="59.076584782451391" lon="30.0040403008461">
        <ele>87.140000000000001</ele>
        <time>2026-04-25T10:34:54Z</time>
      </trkpt>
      <trkpt lat="59.076583944261074" lon="30.004043066874146">
        <ele>87.140000000000001</ele>
        <time>2026-04-25T10:34:56Z</time>
      </trkpt>
      <trkpt lat="59.076518733054399" lon="30.004084389656782">
        <ele>87.620000000000005</ele>
        <time>2026-04-25T10:35:07Z</time>
      </trkpt>
      <trkpt lat="59.076473135501146" lon="30.004116073250771">
        <ele>87.620000000000005</ele>
        <time>2026-04-25T10:35:19Z</time>
      </trkpt>
      <trkpt lat="59.076434578746557" lon="30.004190169274807">
        <ele>87.620000000000005</ele>
        <time>2026-04-25T10:35:32Z</time>
      </trkpt>
      <trkpt lat="59.076420580968261" lon="30.004218583926558">
        <ele>87.620000000000005</ele>
        <time>2026-04-25T10:35:44Z</time>
      </trkpt>
      <trkpt lat="59.076415300369263" lon="30.004205424338579">
        <ele>87.620000000000005</ele>
        <time>2026-04-25T10:35:49Z</time>
      </trkpt>
      <trkpt lat="59.07639853656292" lon="30.004260996356606">
        <ele>87.620000000000005</ele>
        <time>2026-04-25T10:36:01Z</time>
      </trkpt>
      <trkpt lat="59.076396524906158" lon="30.004370380192995">
        <ele>87.620000000000005</ele>
        <time>2026-04-25T10:36:13Z</time>
      </trkpt>
      <trkpt lat="59.07638537697494" lon="30.004499545320868">
        <ele>87.620000000000005</ele>
        <time>2026-04-25T10:36:26Z</time>
      </trkpt>
      <trkpt lat="59.07636777497828" lon="30.004557883366942">
        <ele>87.140000000000001</ele>
        <time>2026-04-25T10:36:43Z</time>
      </trkpt>
      <trkpt lat="59.076377497985959" lon="30.004678666591644">
        <ele>87.140000000000001</ele>
        <time>2026-04-25T10:36:55Z</time>
      </trkpt>
      <trkpt lat="59.076387975364923" lon="30.004850411787629">
        <ele>87.140000000000001</ele>
        <time>2026-04-25T10:37:09Z</time>
      </trkpt>
      <trkpt lat="59.076358387246728" lon="30.004969602450728">
        <ele>87.140000000000001</ele>
        <time>2026-04-25T10:37:21Z</time>
      </trkpt>
      <trkpt lat="59.076295522972941" lon="30.005036490038037">
        <ele>87.140000000000001</ele>
        <time>2026-04-25T10:37:33Z</time>
      </trkpt>
      <trkpt lat="59.076325194910169" lon="30.005074460059404">
        <ele>87.140000000000001</ele>
        <time>2026-04-25T10:37:43Z</time>
      </trkpt>
      <trkpt lat="59.076385041698813" lon="30.005162637680769">
        <ele>87.140000000000001</ele>
        <time>2026-04-25T10:37:58Z</time>
      </trkpt>
      <trkpt lat="59.076427454128861" lon="30.005246037617326">
        <ele>86.659999999999997</ele>
        <time>2026-04-25T10:38:10Z</time>
      </trkpt>
      <trkpt lat="59.076445391401649" lon="30.005301609635353">
        <ele>86.659999999999997</ele>
        <time>2026-04-25T10:38:21Z</time>
      </trkpt>
      <trkpt lat="59.07643860206008" lon="30.005348883569241">
        <ele>86.659999999999997</ele>
        <time>2026-04-25T10:38:35Z</time>
      </trkpt>
      <trkpt lat="59.076457126066089" lon="30.00540160574019">
        <ele>86.659999999999997</ele>
        <time>2026-04-25T10:38:50Z</time>
      </trkpt>
      <trkpt lat="59.076460897922516" lon="30.005499590188265">
        <ele>86.659999999999997</ele>
        <time>2026-04-25T10:39:10Z</time>
      </trkpt>
      <trkpt lat="59.07645913772285" lon="30.005686338990927">
        <ele>86.659999999999997</ele>
        <time>2026-04-25T10:39:27Z</time>
      </trkpt>
      <trkpt lat="59.076438182964921" lon="30.005778288468719">
        <ele>86.659999999999997</ele>
        <time>2026-04-25T10:39:42Z</time>
      </trkpt>
      <trkpt lat="59.076431896537542" lon="30.005927234888077">
        <ele>86.659999999999997</ele>
        <time>2026-04-25T10:39:56Z</time>
      </trkpt>
      <trkpt lat="59.076487384736538" lon="30.006073750555515">
        <ele>86.180000000000007</ele>
        <time>2026-04-25T10:40:09Z</time>
      </trkpt>
      <trkpt lat="59.076525606215" lon="30.0061971321702">
        <ele>86.180000000000007</ele>
        <time>2026-04-25T10:40:25Z</time>
      </trkpt>
      <trkpt lat="59.076528288424015" lon="30.006328392773867">
        <ele>86.180000000000007</ele>
        <time>2026-04-25T10:40:39Z</time>
      </trkpt>
      <trkpt lat="59.076520157977939" lon="30.006497874855995">
        <ele>86.180000000000007</ele>
        <time>2026-04-25T10:40:57Z</time>
      </trkpt>
      <trkpt lat="59.076555194333196" lon="30.006512543186545">
        <ele>86.180000000000007</ele>
        <time>2026-04-25T10:41:11Z</time>
      </trkpt>
      <trkpt lat="59.076497107744217" lon="30.0065010599792">
        <ele>86.180000000000007</ele>
        <time>2026-04-25T10:41:43Z</time>
      </trkpt>
      <trkpt lat="59.076427537947893" lon="30.006557134911418">
        <ele>86.180000000000007</ele>
        <time>2026-04-25T10:42:04Z</time>
      </trkpt>
      <trkpt lat="59.076384622603655" lon="30.006621172651649">
        <ele>86.180000000000007</ele>
        <time>2026-04-25T10:42:18Z</time>
      </trkpt>
      <trkpt lat="59.076369786635041" lon="30.006582867354155">
        <ele>86.180000000000007</ele>
        <time>2026-04-25T10:43:13Z</time>
      </trkpt>
      <trkpt lat="59.076308347284794" lon="30.006618406623602">
        <ele>86.180000000000007</ele>
        <time>2026-04-25T10:43:28Z</time>
      </trkpt>
      <trkpt lat="59.076295271515846" lon="30.006614048033953">
        <ele>86.659999999999997</ele>
        <time>2026-04-25T10:43:57Z</time>
      </trkpt>
      <trkpt lat="59.076339779421687" lon="30.006611701101065">
        <ele>86.659999999999997</ele>
        <time>2026-04-25T10:44:37Z</time>
      </trkpt>
      <trkpt lat="59.076337516307831" lon="30.006618071347475">
        <ele>86.180000000000007</ele>
        <time>2026-04-25T10:44:58Z</time>
      </trkpt>
      <trkpt lat="59.076349921524525" lon="30.006636260077357">
        <ele>86.180000000000007</ele>
        <time>2026-04-25T10:45:33Z</time>
      </trkpt>
      <trkpt lat="59.076320081949234" lon="30.006604911759496">
        <ele>86.180000000000007</ele>
        <time>2026-04-25T10:45:54Z</time>
      </trkpt>
      <trkpt lat="59.076341204345226" lon="30.006602900102735">
        <ele>86.180000000000007</ele>
        <time>2026-04-25T10:46:38Z</time>
      </trkpt>
      <trkpt lat="59.076306754723191" lon="30.006604325026274">
        <ele>86.180000000000007</ele>
        <time>2026-04-25T10:47:31Z</time>
      </trkpt>
      <trkpt lat="59.076289236545563" lon="30.006630979478359">
        <ele>86.659999999999997</ele>
        <time>2026-04-25T10:48:07Z</time>
      </trkpt>
      <trkpt lat="59.076298456639051" lon="30.006589572876692">
        <ele>86.659999999999997</ele>
        <time>2026-04-25T10:49:01Z</time>
      </trkpt>
      <trkpt lat="59.076202902942896" lon="30.006518075242639">
        <ele>86.659999999999997</ele>
        <time>2026-04-25T10:49:37Z</time>
      </trkpt>
      <trkpt lat="59.076177086681128" lon="30.006440877914429">
        <ele>86.659999999999997</ele>
        <time>2026-04-25T10:49:43Z</time>
      </trkpt>
      <trkpt lat="59.076145235449076" lon="30.006330823525786">
        <ele>86.659999999999997</ele>
        <time>2026-04-25T10:49:52Z</time>
      </trkpt>
      <trkpt lat="59.076123023405671" lon="30.006111385300756">
        <ele>86.659999999999997</ele>
        <time>2026-04-25T10:50:07Z</time>
      </trkpt>
      <trkpt lat="59.076120844110847" lon="30.006010886281729">
        <ele>86.659999999999997</ele>
        <time>2026-04-25T10:50:21Z</time>
      </trkpt>
      <trkpt lat="59.076104164123535" lon="30.005825897678733">
        <ele>86.659999999999997</ele>
        <time>2026-04-25T10:50:34Z</time>
      </trkpt>
      <trkpt lat="59.07606435008347" lon="30.005644094198942">
        <ele>86.659999999999997</ele>
        <time>2026-04-25T10:50:50Z</time>
      </trkpt>
      <trkpt lat="59.076023446395993" lon="30.005515599623322">
        <ele>86.659999999999997</ele>
        <time>2026-04-25T10:51:04Z</time>
      </trkpt>
      <trkpt lat="59.076016573235393" lon="30.005412669852376">
        <ele>86.659999999999997</ele>
        <time>2026-04-25T10:51:14Z</time>
      </trkpt>
      <trkpt lat="59.076035264879465" lon="30.005344608798623">
        <ele>86.659999999999997</ele>
        <time>2026-04-25T10:51:28Z</time>
      </trkpt>
      <trkpt lat="59.076011711731553" lon="30.00525014474988">
        <ele>86.659999999999997</ele>
        <time>2026-04-25T10:51:39Z</time>
      </trkpt>
      <trkpt lat="59.076003162190318" lon="30.005077729001641">
        <ele>86.180000000000007</ele>
        <time>2026-04-25T10:51:53Z</time>
      </trkpt>
      <trkpt lat="59.075963096693158" lon="30.004944624379277">
        <ele>86.659999999999997</ele>
        <time>2026-04-25T10:52:06Z</time>
      </trkpt>
      <trkpt lat="59.075925378128886" lon="30.004829959943891">
        <ele>86.659999999999997</ele>
        <time>2026-04-25T10:52:18Z</time>
      </trkpt>
      <trkpt lat="59.075899310410023" lon="30.004670452326536">
        <ele>86.659999999999997</ele>
        <time>2026-04-25T10:52:32Z</time>
      </trkpt>
      <trkpt lat="59.075854886323214" lon="30.004484038800001">
        <ele>86.659999999999997</ele>
        <time>2026-04-25T10:52:47Z</time>
      </trkpt>
      <trkpt lat="59.075828902423382" lon="30.004411032423377">
        <ele>86.659999999999997</ele>
        <time>2026-04-25T10:53:02Z</time>
      </trkpt>
      <trkpt lat="59.07583954744041" lon="30.004397286102176">
        <ele>86.659999999999997</ele>
        <time>2026-04-25T10:53:23Z</time>
      </trkpt>
      <trkpt lat="59.075827896595001" lon="30.004408517852426">
        <ele>86.659999999999997</ele>
        <time>2026-04-25T10:53:41Z</time>
      </trkpt>
      <trkpt lat="59.075806522741914" lon="30.004396950826049">
        <ele>86.659999999999997</ele>
        <time>2026-04-25T10:53:57Z</time>
      </trkpt>
      <trkpt lat="59.075759500265121" lon="30.004496276378632">
        <ele>86.659999999999997</ele>
        <time>2026-04-25T10:54:03Z</time>
      </trkpt>
      <trkpt lat="59.075758578255773" lon="30.00449568964541">
        <ele>86.659999999999997</ele>
        <time>2026-04-25T10:54:04Z</time>
      </trkpt>
      <trkpt lat="59.075693702325225" lon="30.004514046013355">
        <ele>86.180000000000007</ele>
        <time>2026-04-25T10:54:20Z</time>
      </trkpt>
      <trkpt lat="59.075679704546928" lon="30.004507089033723">
        <ele>86.180000000000007</ele>
        <time>2026-04-25T10:54:27Z</time>
      </trkpt>
      <trkpt lat="59.07562262378633" lon="30.004610940814018">
        <ele>86.180000000000007</ele>
        <time>2026-04-25T10:54:29Z</time>
      </trkpt>
      <trkpt lat="59.075704514980316" lon="30.004402734339237">
        <ele>86.180000000000007</ele>
        <time>2026-04-25T10:54:34Z</time>
      </trkpt>
      <trkpt lat="59.075646176934242" lon="30.00446149148047">
        <ele>86.180000000000007</ele>
        <time>2026-04-25T10:54:41Z</time>
      </trkpt>
      <trkpt lat="59.075566632673144" lon="30.004543717950583">
        <ele>86.180000000000007</ele>
        <time>2026-04-25T10:54:57Z</time>
      </trkpt>
      <trkpt lat="59.075618600472808" lon="30.004429137334228">
        <ele>86.180000000000007</ele>
        <time>2026-04-25T10:55:00Z</time>
      </trkpt>
      <trkpt lat="59.075563950464129" lon="30.004659639671445">
        <ele>86.659999999999997</ele>
        <time>2026-04-25T10:55:43Z</time>
      </trkpt>
      <trkpt lat="59.075556490570307" lon="30.004776483401656">
        <ele>86.659999999999997</ele>
        <time>2026-04-25T10:56:35Z</time>
      </trkpt>
      <trkpt lat="59.075585911050439" lon="30.004924759268761">
        <ele>86.659999999999997</ele>
        <time>2026-04-25T10:56:51Z</time>
      </trkpt>
      <trkpt lat="59.075608206912875" lon="30.004934733733535">
        <ele>86.180000000000007</ele>
        <time>2026-04-25T10:56:53Z</time>
      </trkpt>
      <trkpt lat="59.075547941029072" lon="30.004983684048057">
        <ele>86.180000000000007</ele>
        <time>2026-04-25T10:57:00Z</time>
      </trkpt>
      <trkpt lat="59.075579708442092" lon="30.005259113386273">
        <ele>86.180000000000007</ele>
        <time>2026-04-25T10:57:26Z</time>
      </trkpt>
      <trkpt lat="59.075610805302858" lon="30.005557425320148">
        <ele>86.180000000000007</ele>
        <time>2026-04-25T10:57:51Z</time>
      </trkpt>
      <trkpt lat="59.0755913592875" lon="30.005761357024312">
        <ele>86.180000000000007</ele>
        <time>2026-04-25T10:58:11Z</time>
      </trkpt>
      <trkpt lat="59.075622037053108" lon="30.005925809964538">
        <ele>86.180000000000007</ele>
        <time>2026-04-25T10:58:30Z</time>
      </trkpt>
      <trkpt lat="59.075684985145926" lon="30.006097638979554">
        <ele>86.659999999999997</ele>
        <time>2026-04-25T10:58:50Z</time>
      </trkpt>
      <trkpt lat="59.075759835541248" lon="30.006297715008259">
        <ele>86.659999999999997</ele>
        <time>2026-04-25T10:59:09Z</time>
      </trkpt>
      <trkpt lat="59.075792776420712" lon="30.006554536521435">
        <ele>86.659999999999997</ele>
        <time>2026-04-25T10:59:30Z</time>
      </trkpt>
      <trkpt lat="59.075810546055436" lon="30.006789900362492">
        <ele>86.180000000000007</ele>
        <time>2026-04-25T10:59:51Z</time>
      </trkpt>
      <trkpt lat="59.075801996514201" lon="30.006984444335103">
        <ele>86.180000000000007</ele>
        <time>2026-04-25T11:00:17Z</time>
      </trkpt>
      <trkpt lat="59.075715076178312" lon="30.006921496242285">
        <ele>86.180000000000007</ele>
        <time>2026-04-25T11:01:32Z</time>
      </trkpt>
      <trkpt lat="59.075602423399687" lon="30.006860727444291">
        <ele>86.180000000000007</ele>
        <time>2026-04-25T11:01:46Z</time>
      </trkpt>
      <trkpt lat="59.075516173616052" lon="30.006839269772172">
        <ele>86.180000000000007</ele>
        <time>2026-04-25T11:02:01Z</time>
      </trkpt>
      <trkpt lat="59.075505193322897" lon="30.006860643625259">
        <ele>86.180000000000007</ele>
        <time>2026-04-25T11:02:35Z</time>
      </trkpt>
      <trkpt lat="59.075414082035422" lon="30.006897691637278">
        <ele>86.659999999999997</ele>
        <time>2026-04-25T11:02:57Z</time>
      </trkpt>
      <trkpt lat="59.075309727340937" lon="30.006788894534111">
        <ele>86.659999999999997</ele>
        <time>2026-04-25T11:03:11Z</time>
      </trkpt>
      <trkpt lat="59.075267734006047" lon="30.006606839597225">
        <ele>86.180000000000007</ele>
        <time>2026-04-25T11:03:24Z</time>
      </trkpt>
      <trkpt lat="59.075270751491189" lon="30.006420006975532">
        <ele>86.180000000000007</ele>
        <time>2026-04-25T11:03:38Z</time>
      </trkpt>
      <trkpt lat="59.075256502255797" lon="30.006270222365856">
        <ele>86.180000000000007</ele>
        <time>2026-04-25T11:03:50Z</time>
      </trkpt>
      <trkpt lat="59.075251976028085" lon="30.006077941507101">
        <ele>86.180000000000007</ele>
        <time>2026-04-25T11:04:04Z</time>
      </trkpt>
      <trkpt lat="59.075244851410389" lon="30.005887001752853">
        <ele>86.180000000000007</ele>
        <time>2026-04-25T11:04:18Z</time>
      </trkpt>
      <trkpt lat="59.075243091210723" lon="30.005779629573226">
        <ele>86.180000000000007</ele>
        <time>2026-04-25T11:04:33Z</time>
      </trkpt>
      <trkpt lat="59.075232362374663" lon="30.005716094747186">
        <ele>86.180000000000007</ele>
        <time>2026-04-25T11:04:40Z</time>
      </trkpt>
      <trkpt lat="59.075184836983681" lon="30.005584666505456">
        <ele>86.180000000000007</ele>
        <time>2026-04-25T11:04:54Z</time>
      </trkpt>
      <trkpt lat="59.075171090662479" lon="30.005484838038683">
        <ele>85.689999999999998</ele>
        <time>2026-04-25T11:05:08Z</time>
      </trkpt>
      <trkpt lat="59.075163714587688" lon="30.005392050370574">
        <ele>85.689999999999998</ele>
        <time>2026-04-25T11:05:20Z</time>
      </trkpt>
      <trkpt lat="59.075172850862145" lon="30.005233716219664">
        <ele>85.689999999999998</ele>
        <time>2026-04-25T11:05:33Z</time>
      </trkpt>
      <trkpt lat="59.075168156996369" lon="30.005049481987953">
        <ele>85.689999999999998</ele>
        <time>2026-04-25T11:05:47Z</time>
      </trkpt>
      <trkpt lat="59.075160110369325" lon="30.004907324910164">
        <ele>85.689999999999998</ele>
        <time>2026-04-25T11:05:57Z</time>
      </trkpt>
      <trkpt lat="59.075148040428758" lon="30.004723174497485">
        <ele>85.689999999999998</ele>
        <time>2026-04-25T11:06:12Z</time>
      </trkpt>
      <trkpt lat="59.075153404846787" lon="30.0045963563025">
        <ele>85.689999999999998</ele>
        <time>2026-04-25T11:06:25Z</time>
      </trkpt>
      <trkpt lat="59.075156254693866" lon="30.004598703235388">
        <ele>85.689999999999998</ele>
        <time>2026-04-25T11:06:43Z</time>
      </trkpt>
      <trkpt lat="59.075143681839108" lon="30.004619993269444">
        <ele>85.689999999999998</ele>
        <time>2026-04-25T11:07:14Z</time>
      </trkpt>
      <trkpt lat="59.075100347399712" lon="30.004632733762264">
        <ele>85.689999999999998</ele>
        <time>2026-04-25T11:07:36Z</time>
      </trkpt>
      <trkpt lat="59.075029185041785" lon="30.004652263596654">
        <ele>86.180000000000007</ele>
        <time>2026-04-25T11:07:49Z</time>
      </trkpt>
      <trkpt lat="59.074955843389034" lon="30.004724934697151">
        <ele>85.689999999999998</ele>
        <time>2026-04-25T11:08:03Z</time>
      </trkpt>
      <trkpt lat="59.074920387938619" lon="30.004756534472108">
        <ele>85.689999999999998</ele>
        <time>2026-04-25T11:08:17Z</time>
      </trkpt>
      <trkpt lat="59.07484176568687" lon="30.004821745678782">
        <ele>85.689999999999998</ele>
        <time>2026-04-25T11:08:34Z</time>
      </trkpt>
      <trkpt lat="59.074784768745303" lon="30.004878994077444">
        <ele>85.689999999999998</ele>
        <time>2026-04-25T11:08:48Z</time>
      </trkpt>
      <trkpt lat="59.074764316901565" lon="30.004996927455068">
        <ele>85.689999999999998</ele>
        <time>2026-04-25T11:09:03Z</time>
      </trkpt>
      <trkpt lat="59.074790216982365" lon="30.005205972120166">
        <ele>85.689999999999998</ele>
        <time>2026-04-25T11:09:19Z</time>
      </trkpt>
      <trkpt lat="59.074842100962996" lon="30.005363300442696">
        <ele>85.689999999999998</ele>
        <time>2026-04-25T11:09:31Z</time>
      </trkpt>
      <trkpt lat="59.074898762628436" lon="30.005541164427996">
        <ele>85.689999999999998</ele>
        <time>2026-04-25T11:09:45Z</time>
      </trkpt>
      <trkpt lat="59.074941342696548" lon="30.005738809704781">
        <ele>85.209999999999994</ele>
        <time>2026-04-25T11:09:59Z</time>
      </trkpt>
      <trkpt lat="59.074892224743962" lon="30.005913991481066">
        <ele>85.209999999999994</ele>
        <time>2026-04-25T11:10:13Z</time>
      </trkpt>
      <trkpt lat="59.074869928881526" lon="30.005986746400595">
        <ele>85.209999999999994</ele>
        <time>2026-04-25T11:10:28Z</time>
      </trkpt>
      <trkpt lat="59.074892140924931" lon="30.006149774417281">
        <ele>85.209999999999994</ele>
        <time>2026-04-25T11:10:48Z</time>
      </trkpt>
      <trkpt lat="59.074894906952977" lon="30.006231665611267">
        <ele>85.209999999999994</ele>
        <time>2026-04-25T11:11:04Z</time>
      </trkpt>
      <trkpt lat="59.074931871145964" lon="30.006324537098408">
        <ele>85.209999999999994</ele>
        <time>2026-04-25T11:11:15Z</time>
      </trkpt>
      <trkpt lat="59.074953580275178" lon="30.006507178768516">
        <ele>85.209999999999994</ele>
        <time>2026-04-25T11:11:30Z</time>
      </trkpt>
      <trkpt lat="59.074956430122256" lon="30.006650928407907">
        <ele>84.730000000000004</ele>
        <time>2026-04-25T11:11:43Z</time>
      </trkpt>
      <trkpt lat="59.074972104281187" lon="30.006813453510404">
        <ele>84.730000000000004</ele>
        <time>2026-04-25T11:11:57Z</time>
      </trkpt>
      <trkpt lat="59.074987778440118" lon="30.00695544295013">
        <ele>84.730000000000004</ele>
        <time>2026-04-25T11:12:11Z</time>
      </trkpt>
      <trkpt lat="59.0749800670892" lon="30.007059462368488">
        <ele>85.209999999999994</ele>
        <time>2026-04-25T11:12:24Z</time>
      </trkpt>
      <trkpt lat="59.074977720156312" lon="30.007126433774829">
        <ele>85.209999999999994</ele>
        <time>2026-04-25T11:12:38Z</time>
      </trkpt>
      <trkpt lat="59.07496883533895" lon="30.007175467908382">
        <ele>85.209999999999994</ele>
        <time>2026-04-25T11:13:16Z</time>
      </trkpt>
      <trkpt lat="59.074927512556314" lon="30.007172115147114">
        <ele>85.689999999999998</ele>
        <time>2026-04-25T11:14:34Z</time>
      </trkpt>
      <trkpt lat="59.074893062934279" lon="30.007201619446278">
        <ele>85.209999999999994</ele>
        <time>2026-04-25T11:14:49Z</time>
      </trkpt>
      <trkpt lat="59.074816200882196" lon="30.007261298596859">
        <ele>85.209999999999994</ele>
        <time>2026-04-25T11:15:05Z</time>
      </trkpt>
      <trkpt lat="59.074785355478525" lon="30.007285522297025">
        <ele>85.209999999999994</ele>
        <time>2026-04-25T11:15:23Z</time>
      </trkpt>
      <trkpt lat="59.074788875877857" lon="30.00728233717382">
        <ele>85.209999999999994</ele>
        <time>2026-04-25T11:16:55Z</time>
      </trkpt>
      <trkpt lat="59.074774710461497" lon="30.007285354658961">
        <ele>85.209999999999994</ele>
        <time>2026-04-25T11:18:37Z</time>
      </trkpt>
      <trkpt lat="59.074733974412084" lon="30.00717337243259">
        <ele>84.730000000000004</ele>
        <time>2026-04-25T11:19:03Z</time>
      </trkpt>
      <trkpt lat="59.074705895036459" lon="30.007050829008222">
        <ele>84.730000000000004</ele>
        <time>2026-04-25T11:19:19Z</time>
      </trkpt>
      <trkpt lat="59.074680330231786" lon="30.007014535367489">
        <ele>84.730000000000004</ele>
        <time>2026-04-25T11:19:39Z</time>
      </trkpt>
      <trkpt lat="59.074697345495224" lon="30.006991652771831">
        <ele>84.25</ele>
        <time>2026-04-25T11:20:56Z</time>
      </trkpt>
      <trkpt lat="59.074674630537629" lon="30.006824182346463">
        <ele>84.25</ele>
        <time>2026-04-25T11:21:12Z</time>
      </trkpt>
      <trkpt lat="59.074653424322605" lon="30.00656995922327">
        <ele>84.25</ele>
        <time>2026-04-25T11:21:28Z</time>
      </trkpt>
      <trkpt lat="59.074650658294559" lon="30.00654112547636">
        <ele>84.25</ele>
        <time>2026-04-25T11:21:30Z</time>
      </trkpt>
      <trkpt lat="59.074631379917264" lon="30.006386730819941">
        <ele>84.25</ele>
        <time>2026-04-25T11:21:44Z</time>
      </trkpt>
      <trkpt lat="59.07463900744915" lon="30.006227139383554">
        <ele>84.25</ele>
        <time>2026-04-25T11:21:59Z</time>
      </trkpt>
      <trkpt lat="59.074611179530621" lon="30.006105853244662">
        <ele>83.769999999999996</ele>
        <time>2026-04-25T11:22:12Z</time>
      </trkpt>
      <trkpt lat="59.07458670437336" lon="30.005964282900095">
        <ele>83.769999999999996</ele>
        <time>2026-04-25T11:22:26Z</time>
      </trkpt>
      <trkpt lat="59.074568012729287" lon="30.005712490528822">
        <ele>83.769999999999996</ele>
        <time>2026-04-25T11:22:46Z</time>
      </trkpt>
      <trkpt lat="59.074549237266183" lon="30.005657086148858">
        <ele>83.769999999999996</ele>
        <time>2026-04-25T11:22:58Z</time>
      </trkpt>
      <trkpt lat="59.074545297771692" lon="30.005480060353875">
        <ele>83.769999999999996</ele>
        <time>2026-04-25T11:23:13Z</time>
      </trkpt>
      <trkpt lat="59.0745241753757" lon="30.005326587706804">
        <ele>83.290000000000006</ele>
        <time>2026-04-25T11:23:27Z</time>
      </trkpt>
      <trkpt lat="59.074453935027122" lon="30.005217036232352">
        <ele>83.290000000000006</ele>
        <time>2026-04-25T11:23:42Z</time>
      </trkpt>
      <trkpt lat="59.07441571354866" lon="30.005167918279767">
        <ele>83.290000000000006</ele>
        <time>2026-04-25T11:23:59Z</time>
      </trkpt>
      <trkpt lat="59.074360728263855" lon="30.005087787285447">
        <ele>83.290000000000006</ele>
        <time>2026-04-25T11:24:11Z</time>
      </trkpt>
      <trkpt lat="59.074344802647829" lon="30.00492375344038">
        <ele>83.290000000000006</ele>
        <time>2026-04-25T11:24:25Z</time>
      </trkpt>
      <trkpt lat="59.074303144589067" lon="30.004787296056747">
        <ele>83.769999999999996</ele>
        <time>2026-04-25T11:24:41Z</time>
      </trkpt>
      <trkpt lat="59.074307922273874" lon="30.004868851974607">
        <ele>83.290000000000006</ele>
        <time>2026-04-25T11:24:55Z</time>
      </trkpt>
      <trkpt lat="59.074305156245828" lon="30.004993239417672">
        <ele>83.290000000000006</ele>
        <time>2026-04-25T11:25:10Z</time>
      </trkpt>
      <trkpt lat="59.074267102405429" lon="30.005176551640034">
        <ele>83.290000000000006</ele>
        <time>2026-04-25T11:25:29Z</time>
      </trkpt>
      <trkpt lat="59.074254026636481" lon="30.005179904401302">
        <ele>83.290000000000006</ele>
        <time>2026-04-25T11:25:50Z</time>
      </trkpt>
      <trkpt lat="59.074203316122293" lon="30.005236230790615">
        <ele>82.810000000000002</ele>
        <time>2026-04-25T11:26:23Z</time>
      </trkpt>
      <trkpt lat="59.074134500697255" lon="30.005306890234351">
        <ele>82.810000000000002</ele>
        <time>2026-04-25T11:26:36Z</time>
      </trkpt>
      <trkpt lat="59.074118407443166" lon="30.00535131432116">
        <ele>82.810000000000002</ele>
        <time>2026-04-25T11:26:51Z</time>
      </trkpt>
      <trkpt lat="59.074067529290915" lon="30.005408227443695">
        <ele>82.810000000000002</ele>
        <time>2026-04-25T11:27:04Z</time>
      </trkpt>
      <trkpt lat="59.074044059962034" lon="30.005414849147201">
        <ele>82.810000000000002</ele>
        <time>2026-04-25T11:27:22Z</time>
      </trkpt>
      <trkpt lat="59.074050514027476" lon="30.005356594920158">
        <ele>82.329999999999998</ele>
        <time>2026-04-25T11:27:57Z</time>
      </trkpt>
      <trkpt lat="59.074039869010448" lon="30.005349721759558">
        <ele>82.329999999999998</ele>
        <time>2026-04-25T11:28:29Z</time>
      </trkpt>
      <trkpt lat="59.074043557047844" lon="30.005414932966232">
        <ele>81.849999999999994</ele>
        <time>2026-04-25T11:29:08Z</time>
      </trkpt>
      <trkpt lat="59.074089657515287" lon="30.005596987903118">
        <ele>82.329999999999998</ele>
        <time>2026-04-25T11:29:23Z</time>
      </trkpt>
      <trkpt lat="59.074112288653851" lon="30.005707126110792">
        <ele>82.329999999999998</ele>
        <time>2026-04-25T11:29:36Z</time>
      </trkpt>
      <trkpt lat="59.074165262281895" lon="30.0055824033916">
        <ele>82.329999999999998</ele>
        <time>2026-04-25T11:29:59Z</time>
      </trkpt>
      <trkpt lat="59.074210440739989" lon="30.005508223548532">
        <ele>82.329999999999998</ele>
        <time>2026-04-25T11:30:12Z</time>
      </trkpt>
      <trkpt lat="59.074226366356015" lon="30.005462793633342">
        <ele>82.329999999999998</ele>
        <time>2026-04-25T11:30:27Z</time>
      </trkpt>
      <trkpt lat="59.074235754087567" lon="30.005453657358885">
        <ele>81.849999999999994</ele>
        <time>2026-04-25T11:31:01Z</time>
      </trkpt>
      <trkpt lat="59.074250170961022" lon="30.005465894937515">
        <ele>81.849999999999994</ele>
        <time>2026-04-25T11:31:30Z</time>
      </trkpt>
      <trkpt lat="59.074266599491239" lon="30.005495399236679">
        <ele>81.370000000000005</ele>
        <time>2026-04-25T11:31:48Z</time>
      </trkpt>
      <trkpt lat="59.074269197881222" lon="30.005488693714142">
        <ele>81.370000000000005</ele>
        <time>2026-04-25T11:31:52Z</time>
      </trkpt>
      <trkpt lat="59.074299288913608" lon="30.005427338182926">
        <ele>81.370000000000005</ele>
        <time>2026-04-25T11:31:58Z</time>
      </trkpt>
      <trkpt lat="59.074302474036813" lon="30.005414262413979">
        <ele>81.370000000000005</ele>
        <time>2026-04-25T11:32:12Z</time>
      </trkpt>
      <trkpt lat="59.074282357469201" lon="30.00540018081665">
        <ele>81.849999999999994</ele>
        <time>2026-04-25T11:32:24Z</time>
      </trkpt>
      <trkpt lat="59.074285626411438" lon="30.005411161109805">
        <ele>81.849999999999994</ele>
        <time>2026-04-25T11:32:30Z</time>
      </trkpt>
      <trkpt lat="59.074300210922956" lon="30.005451980978251">
        <ele>81.849999999999994</ele>
        <time>2026-04-25T11:32:36Z</time>
      </trkpt>
      <trkpt lat="59.074276238679886" lon="30.005421135574579">
        <ele>81.849999999999994</ele>
        <time>2026-04-25T11:32:51Z</time>
      </trkpt>
      <trkpt lat="59.074265845119953" lon="30.005479892715812">
        <ele>81.849999999999994</ele>
        <time>2026-04-25T11:33:06Z</time>
      </trkpt>
      <trkpt lat="59.074279339984059" lon="30.005445862188935">
        <ele>81.370000000000005</ele>
        <time>2026-04-25T11:33:15Z</time>
      </trkpt>
      <trkpt lat="59.074272466823459" lon="30.00551350414753">
        <ele>81.370000000000005</ele>
        <time>2026-04-25T11:33:23Z</time>
      </trkpt>
      <trkpt lat="59.074288560077548" lon="30.005473019555211">
        <ele>81.370000000000005</ele>
        <time>2026-04-25T11:33:28Z</time>
      </trkpt>
      <trkpt lat="59.074282944202423" lon="30.005410574376583">
        <ele>81.370000000000005</ele>
        <time>2026-04-25T11:33:37Z</time>
      </trkpt>
      <trkpt lat="59.07427447848022" lon="30.005443515256047">
        <ele>81.370000000000005</ele>
        <time>2026-04-25T11:33:54Z</time>
      </trkpt>
      <trkpt lat="59.074282357469201" lon="30.005465727299452">
        <ele>81.370000000000005</ele>
        <time>2026-04-25T11:34:05Z</time>
      </trkpt>
      <trkpt lat="59.074275568127632" lon="30.005427841097116">
        <ele>81.370000000000005</ele>
        <time>2026-04-25T11:34:21Z</time>
      </trkpt>
      <trkpt lat="59.074254781007767" lon="30.005499925464392">
        <ele>80.890000000000001</ele>
        <time>2026-04-25T11:34:38Z</time>
      </trkpt>
      <trkpt lat="59.07426567748189" lon="30.005432199686766">
        <ele>80.890000000000001</ele>
        <time>2026-04-25T11:34:54Z</time>
      </trkpt>
      <trkpt lat="59.074270455166698" lon="30.00544317997992">
        <ele>80.890000000000001</ele>
        <time>2026-04-25T11:35:13Z</time>
      </trkpt>
      <trkpt lat="59.074284704402089" lon="30.005442593246698">
        <ele>80.890000000000001</ele>
        <time>2026-04-25T11:35:19Z</time>
      </trkpt>
      <trkpt lat="59.074270203709602" lon="30.005441084504128">
        <ele>80.890000000000001</ele>
        <time>2026-04-25T11:35:31Z</time>
      </trkpt>
      <trkpt lat="59.074268275871873" lon="30.005428679287434">
        <ele>80.890000000000001</ele>
        <time>2026-04-25T11:35:44Z</time>
      </trkpt>
      <trkpt lat="59.07425151206553" lon="30.005496991798282">
        <ele>80.890000000000001</ele>
        <time>2026-04-25T11:35:53Z</time>
      </trkpt>
      <trkpt lat="59.074254697188735" lon="30.005517276003957">
        <ele>80.409999999999997</ele>
        <time>2026-04-25T11:36:00Z</time>
      </trkpt>
      <trkpt lat="59.074226198717952" lon="30.005567483603954">
        <ele>80.409999999999997</ele>
        <time>2026-04-25T11:36:12Z</time>
      </trkpt>
      <trkpt lat="59.074198957532644" lon="30.005612159147859">
        <ele>80.409999999999997</ele>
        <time>2026-04-25T11:36:19Z</time>
      </trkpt>
      <trkpt lat="59.074150342494249" lon="30.005644848570228">
        <ele>80.409999999999997</ele>
        <time>2026-04-25T11:36:27Z</time>
      </trkpt>
      <trkpt lat="59.074114132672548" lon="30.005701594054699">
        <ele>80.409999999999997</ele>
        <time>2026-04-25T11:36:33Z</time>
      </trkpt>
      <trkpt lat="59.074061661958694" lon="30.00571240670979">
        <ele>80.409999999999997</ele>
        <time>2026-04-25T11:36:47Z</time>
      </trkpt>
      <trkpt lat="59.074046658352017" lon="30.005713328719139">
        <ele>80.409999999999997</ele>
        <time>2026-04-25T11:36:51Z</time>
      </trkpt>
      <trkpt lat="59.074058728292584" lon="30.005738222971559">
        <ele>80.409999999999997</ele>
        <time>2026-04-25T11:37:01Z</time>
      </trkpt>
      <trkpt lat="59.074046993628144" lon="30.005905777215958">
        <ele>80.409999999999997</ele>
        <time>2026-04-25T11:37:13Z</time>
      </trkpt>
      <trkpt lat="59.074119664728642" lon="30.006073247641325">
        <ele>79.930000000000007</ele>
        <time>2026-04-25T11:37:27Z</time>
      </trkpt>
      <trkpt lat="59.074125783517957" lon="30.006112894043326">
        <ele>79.930000000000007</ele>
        <time>2026-04-25T11:37:29Z</time>
      </trkpt>
      <trkpt lat="59.074214464053512" lon="30.006197635084391">
        <ele>79.930000000000007</ele>
        <time>2026-04-25T11:37:40Z</time>
      </trkpt>
      <trkpt lat="59.074252182617784" lon="30.006256978958845">
        <ele>79.930000000000007</ele>
        <time>2026-04-25T11:37:45Z</time>
      </trkpt>
      <trkpt lat="59.074287805706263" lon="30.006422018632293">
        <ele>79.930000000000007</ele>
        <time>2026-04-25T11:37:58Z</time>
      </trkpt>
      <trkpt lat="59.074312280863523" lon="30.006584208458662">
        <ele>79.930000000000007</ele>
        <time>2026-04-25T11:38:10Z</time>
      </trkpt>
      <trkpt lat="59.074322255328298" lon="30.006779003888369">
        <ele>79.930000000000007</ele>
        <time>2026-04-25T11:38:24Z</time>
      </trkpt>
      <trkpt lat="59.074330385774374" lon="30.006955359131098">
        <ele>79.450000000000003</ele>
        <time>2026-04-25T11:38:39Z</time>
      </trkpt>
      <trkpt lat="59.0743238478899" lon="30.007049906998873">
        <ele>79.450000000000003</ele>
        <time>2026-04-25T11:38:52Z</time>
      </trkpt>
      <trkpt lat="59.074293673038483" lon="30.007230453193188">
        <ele>79.450000000000003</ele>
        <time>2026-04-25T11:39:07Z</time>
      </trkpt>
      <trkpt lat="59.074312280863523" lon="30.00738836824894">
        <ele>79.450000000000003</ele>
        <time>2026-04-25T11:39:18Z</time>
      </trkpt>
      <trkpt lat="59.074368188157678" lon="30.007593557238579">
        <ele>79.930000000000007</ele>
        <time>2026-04-25T11:39:34Z</time>
      </trkpt>
      <trkpt lat="59.074358465149999" lon="30.00757553614676">
        <ele>79.450000000000003</ele>
        <time>2026-04-25T11:40:04Z</time>
      </trkpt>
      <trkpt lat="59.074362488463521" lon="30.007695481181145">
        <ele>79.450000000000003</ele>
        <time>2026-04-25T11:40:25Z</time>
      </trkpt>
      <trkpt lat="59.074277244508266" lon="30.00769816339016">
        <ele>79.450000000000003</ele>
        <time>2026-04-25T11:40:38Z</time>
      </trkpt>
      <trkpt lat="59.074224019423127" lon="30.007662456482649">
        <ele>79.450000000000003</ele>
        <time>2026-04-25T11:40:44Z</time>
      </trkpt>
      <trkpt lat="59.07420365139842" lon="30.007652482017875">
        <ele>79.450000000000003</ele>
        <time>2026-04-25T11:40:46Z</time>
      </trkpt>
      <trkpt lat="59.074083538725972" lon="30.00762976706028">
        <ele>79.450000000000003</ele>
        <time>2026-04-25T11:41:00Z</time>
      </trkpt>
      <trkpt lat="59.073984045535326" lon="30.007615182548761">
        <ele>79.450000000000003</ele>
        <time>2026-04-25T11:41:13Z</time>
      </trkpt>
      <trkpt lat="59.073894359171391" lon="30.007625240832567">
        <ele>78.969999999999999</ele>
        <time>2026-04-25T11:41:26Z</time>
      </trkpt>
      <trkpt lat="59.0738610830158" lon="30.007587354630232">
        <ele>78.969999999999999</ele>
        <time>2026-04-25T11:41:39Z</time>
      </trkpt>
      <trkpt lat="59.073860077187419" lon="30.007422314956784">
        <ele>79.450000000000003</ele>
        <time>2026-04-25T11:42:04Z</time>
      </trkpt>
      <trkpt lat="59.073814311996102" lon="30.00727110542357">
        <ele>79.450000000000003</ele>
        <time>2026-04-25T11:42:19Z</time>
      </trkpt>
      <trkpt lat="59.073774833232164" lon="30.007075387984514">
        <ele>78.969999999999999</ele>
        <time>2026-04-25T11:42:34Z</time>
      </trkpt>
      <trkpt lat="59.073773073032498" lon="30.006908588111401">
        <ele>78.969999999999999</ele>
        <time>2026-04-25T11:42:50Z</time>
      </trkpt>
      <trkpt lat="59.073752872645855" lon="30.006714798510075">
        <ele>78.969999999999999</ele>
        <time>2026-04-25T11:43:04Z</time>
      </trkpt>
      <trkpt lat="59.07373359426856" lon="30.006585130468011">
        <ele>78.969999999999999</ele>
        <time>2026-04-25T11:43:16Z</time>
      </trkpt>
      <trkpt lat="59.073696797713637" lon="30.006436854600906">
        <ele>78.969999999999999</ele>
        <time>2026-04-25T11:43:28Z</time>
      </trkpt>
      <trkpt lat="59.073670897632837" lon="30.006296876817942">
        <ele>78.480000000000004</ele>
        <time>2026-04-25T11:43:42Z</time>
      </trkpt>
      <trkpt lat="59.073658408597112" lon="30.006168717518449">
        <ele>78.480000000000004</ele>
        <time>2026-04-25T11:43:54Z</time>
      </trkpt>
      <trkpt lat="59.073637872934341" lon="30.005974927917123">
        <ele>78.480000000000004</ele>
        <time>2026-04-25T11:44:08Z</time>
      </trkpt>
      <trkpt lat="59.073621109127998" lon="30.00585749745369">
        <ele>78.969999999999999</ele>
        <time>2026-04-25T11:44:21Z</time>
      </trkpt>
      <trkpt lat="59.073628736659884" lon="30.005796477198601">
        <ele>78.480000000000004</ele>
        <time>2026-04-25T11:44:36Z</time>
      </trkpt>
      <trkpt lat="59.073619600385427" lon="30.005785580724478">
        <ele>78.480000000000004</ele>
        <time>2026-04-25T11:45:19Z</time>
      </trkpt>
      <trkpt lat="59.073576182126999" lon="30.00582966953516">
        <ele>78.480000000000004</ele>
        <time>2026-04-25T11:45:35Z</time>
      </trkpt>
      <trkpt lat="59.073525723069906" lon="30.00592639669776">
        <ele>78</ele>
        <time>2026-04-25T11:45:50Z</time>
      </trkpt>
      <trkpt lat="59.073484065011144" lon="30.005994038656354">
        <ele>78</ele>
        <time>2026-04-25T11:46:05Z</time>
      </trkpt>
      <trkpt lat="59.073402928188443" lon="30.006000827997923">
        <ele>78</ele>
        <time>2026-04-25T11:46:30Z</time>
      </trkpt>
      <trkpt lat="59.073337381705642" lon="30.005944669246674">
        <ele>78</ele>
        <time>2026-04-25T11:46:43Z</time>
      </trkpt>
      <trkpt lat="59.073283234611154" lon="30.005946094170213">
        <ele>78</ele>
        <time>2026-04-25T11:47:00Z</time>
      </trkpt>
      <trkpt lat="59.073265045881271" lon="30.005965372547507">
        <ele>78</ele>
        <time>2026-04-25T11:47:15Z</time>
      </trkpt>
      <trkpt lat="59.073252975940704" lon="30.00611113384366">
        <ele>78</ele>
        <time>2026-04-25T11:47:29Z</time>
      </trkpt>
      <trkpt lat="59.073263118043542" lon="30.006188163533807">
        <ele>78</ele>
        <time>2026-04-25T11:47:34Z</time>
      </trkpt>
      <trkpt lat="59.073301255702972" lon="30.00627969391644">
        <ele>78</ele>
        <time>2026-04-25T11:47:42Z</time>
      </trkpt>
      <trkpt lat="59.073350289836526" lon="30.006440626457334">
        <ele>78</ele>
        <time>2026-04-25T11:47:55Z</time>
      </trkpt>
      <trkpt lat="59.073378285393119" lon="30.006619747728109">
        <ele>78</ele>
        <time>2026-04-25T11:48:07Z</time>
      </trkpt>
      <trkpt lat="59.073428409174085" lon="30.006784033030272">
        <ele>77.519999999999996</ele>
        <time>2026-04-25T11:48:20Z</time>
      </trkpt>
      <trkpt lat="59.073449615389109" lon="30.007053343579173">
        <ele>77.519999999999996</ele>
        <time>2026-04-25T11:48:36Z</time>
      </trkpt>
      <trkpt lat="59.073451962321997" lon="30.007080417126417">
        <ele>77.519999999999996</ele>
        <time>2026-04-25T11:48:38Z</time>
      </trkpt>
      <trkpt lat="59.073479454964399" lon="30.007272278890014">
        <ele>78</ele>
        <time>2026-04-25T11:48:53Z</time>
      </trkpt>
      <trkpt lat="59.073514910414815" lon="30.007444694638252">
        <ele>78</ele>
        <time>2026-04-25T11:49:07Z</time>
      </trkpt>
      <trkpt lat="59.073537373915315" lon="30.007627168670297">
        <ele>78</ele>
        <time>2026-04-25T11:49:21Z</time>
      </trkpt>
      <trkpt lat="59.073484484106302" lon="30.007825987413526">
        <ele>78</ele>
        <time>2026-04-25T11:49:36Z</time>
      </trkpt>
      <trkpt lat="59.073496218770742" lon="30.00797082670033">
        <ele>77.519999999999996</ele>
        <time>2026-04-25T11:49:49Z</time>
      </trkpt>
      <trkpt lat="59.073503259569407" lon="30.008055651560426">
        <ele>77.519999999999996</ele>
        <time>2026-04-25T11:50:04Z</time>
      </trkpt>
      <trkpt lat="59.073434360325336" lon="30.00796009786427">
        <ele>77.519999999999996</ele>
        <time>2026-04-25T11:50:27Z</time>
      </trkpt>
      <trkpt lat="59.073350122198462" lon="30.007952470332384">
        <ele>77.519999999999996</ele>
        <time>2026-04-25T11:50:43Z</time>
      </trkpt>
      <trkpt lat="59.073268147185445" lon="30.007914332672954">
        <ele>77.519999999999996</ele>
        <time>2026-04-25T11:50:56Z</time>
      </trkpt>
      <trkpt lat="59.07321366481483" lon="30.007927324622869">
        <ele>77.519999999999996</ele>
        <time>2026-04-25T11:51:09Z</time>
      </trkpt>
      <trkpt lat="59.07317753881216" lon="30.007987841963768">
        <ele>77.519999999999996</ele>
        <time>2026-04-25T11:51:45Z</time>
      </trkpt>
      <trkpt lat="59.073201259598136" lon="30.007960181683302">
        <ele>77.519999999999996</ele>
        <time>2026-04-25T11:52:09Z</time>
      </trkpt>
      <trkpt lat="59.073148453608155" lon="30.007966803386807">
        <ele>78</ele>
        <time>2026-04-25T11:52:31Z</time>
      </trkpt>
      <trkpt lat="59.073136718943715" lon="30.007775276899338">
        <ele>77.519999999999996</ele>
        <time>2026-04-25T11:52:47Z</time>
      </trkpt>
      <trkpt lat="59.073114842176437" lon="30.007599508389831">
        <ele>77.519999999999996</ele>
        <time>2026-04-25T11:53:01Z</time>
      </trkpt>
      <trkpt lat="59.073121547698975" lon="30.007587186992168">
        <ele>77.519999999999996</ele>
        <time>2026-04-25T11:53:02Z</time>
      </trkpt>
      <trkpt lat="59.073129929602146" lon="30.007437402382493">
        <ele>77.519999999999996</ele>
        <time>2026-04-25T11:53:14Z</time>
      </trkpt>
      <trkpt lat="59.073099670931697" lon="30.007294323295355">
        <ele>77.519999999999996</ele>
        <time>2026-04-25T11:53:24Z</time>
      </trkpt>
      <trkpt lat="59.073051223531365" lon="30.007154177874327">
        <ele>77.519999999999996</ele>
        <time>2026-04-25T11:53:36Z</time>
      </trkpt>
      <trkpt lat="59.073020881041884" lon="30.006988886743784">
        <ele>77.519999999999996</ele>
        <time>2026-04-25T11:53:49Z</time>
      </trkpt>
      <trkpt lat="59.073011074215174" lon="30.006801718845963">
        <ele>77.519999999999996</ele>
        <time>2026-04-25T11:54:02Z</time>
      </trkpt>
      <trkpt lat="59.072982240468264" lon="30.006625531241298">
        <ele>77.040000000000006</ele>
        <time>2026-04-25T11:54:16Z</time>
      </trkpt>
      <trkpt lat="59.072979474440217" lon="30.00644825398922">
        <ele>77.040000000000006</ele>
        <time>2026-04-25T11:54:30Z</time>
      </trkpt>
      <trkpt lat="59.072951395064592" lon="30.006252285093069">
        <ele>77.040000000000006</ele>
        <time>2026-04-25T11:54:44Z</time>
      </trkpt>
      <trkpt lat="59.072901606559753" lon="30.006117252632976">
        <ele>77.040000000000006</ele>
        <time>2026-04-25T11:54:56Z</time>
      </trkpt>
      <trkpt lat="59.072903115302324" lon="30.005932683125138">
        <ele>77.519999999999996</ele>
        <time>2026-04-25T11:55:09Z</time>
      </trkpt>
      <trkpt lat="59.072885764762759" lon="30.005828496068716">
        <ele>77.040000000000006</ele>
        <time>2026-04-25T11:55:23Z</time>
      </trkpt>
      <trkpt lat="59.072902863845229" lon="30.005765296518803">
        <ele>77.040000000000006</ele>
        <time>2026-04-25T11:55:37Z</time>
      </trkpt>
      <trkpt lat="59.072923650965095" lon="30.005738055333495">
        <ele>77.040000000000006</ele>
        <time>2026-04-25T11:55:57Z</time>
      </trkpt>
      <trkpt lat="59.072900684550405" lon="30.005756746977568">
        <ele>77.040000000000006</ele>
        <time>2026-04-25T11:56:27Z</time>
      </trkpt>
      <trkpt lat="59.07285550609231" lon="30.005801506340504">
        <ele>76.560000000000002</ele>
        <time>2026-04-25T11:56:34Z</time>
      </trkpt>
      <trkpt lat="59.072710499167442" lon="30.005913740023971">
        <ele>76.560000000000002</ele>
        <time>2026-04-25T11:56:49Z</time>
      </trkpt>
      <trkpt lat="59.072642605751753" lon="30.005960175767541">
        <ele>76.560000000000002</ele>
        <time>2026-04-25T11:57:02Z</time>
      </trkpt>
      <trkpt lat="59.072568090632558" lon="30.006079114973545">
        <ele>76.560000000000002</ele>
        <time>2026-04-25T11:57:17Z</time>
      </trkpt>
      <trkpt lat="59.072537161409855" lon="30.006190426647663">
        <ele>76.560000000000002</ele>
        <time>2026-04-25T11:57:59Z</time>
      </trkpt>
      <trkpt lat="59.072475135326385" lon="30.006274245679379">
        <ele>76.560000000000002</ele>
        <time>2026-04-25T11:58:13Z</time>
      </trkpt>
      <trkpt lat="59.072470273822546" lon="30.006336942315102">
        <ele>76.560000000000002</ele>
        <time>2026-04-25T11:58:24Z</time>
      </trkpt>
      <trkpt lat="59.072471614927053" lon="30.006459904834628">
        <ele>76.560000000000002</ele>
        <time>2026-04-25T11:58:37Z</time>
      </trkpt>
      <trkpt lat="59.072436662390828" lon="30.006590662524104">
        <ele>76.560000000000002</ele>
        <time>2026-04-25T11:58:51Z</time>
      </trkpt>
      <trkpt lat="59.072453007102013" lon="30.006715217605233">
        <ele>76.560000000000002</ele>
        <time>2026-04-25T11:59:04Z</time>
      </trkpt>
      <trkpt lat="59.072443787008524" lon="30.006839269772172">
        <ele>76.560000000000002</ele>
        <time>2026-04-25T11:59:20Z</time>
      </trkpt>
      <trkpt lat="59.072471112012863" lon="30.006994586437941">
        <ele>76.560000000000002</ele>
        <time>2026-04-25T11:59:35Z</time>
      </trkpt>
      <trkpt lat="59.072501873597503" lon="30.007035322487354">
        <ele>76.560000000000002</ele>
        <time>2026-04-25T11:59:47Z</time>
      </trkpt>
      <trkpt lat="59.07253791578114" lon="30.007019732147455">
        <ele>76.560000000000002</ele>
        <time>2026-04-25T12:00:11Z</time>
      </trkpt>
      <trkpt lat="59.072528192773461" lon="30.007171696051955">
        <ele>76.560000000000002</ele>
        <time>2026-04-25T12:00:44Z</time>
      </trkpt>
      <trkpt lat="59.072525342926383" lon="30.007351152598858">
        <ele>76.560000000000002</ele>
        <time>2026-04-25T12:01:06Z</time>
      </trkpt>
      <trkpt lat="59.072581585496664" lon="30.007614847272635">
        <ele>76.560000000000002</ele>
        <time>2026-04-25T12:01:30Z</time>
      </trkpt>
      <trkpt lat="59.072698596864939" lon="30.007722219452262">
        <ele>76.079999999999998</ele>
        <time>2026-04-25T12:01:52Z</time>
      </trkpt>
      <trkpt lat="59.072751654312015" lon="30.007591294124722">
        <ele>76.560000000000002</ele>
        <time>2026-04-25T12:02:17Z</time>
      </trkpt>
      <trkpt lat="59.072743440046906" lon="30.007535638287663">
        <ele>76.560000000000002</ele>
        <time>2026-04-25T12:02:43Z</time>
      </trkpt>
      <trkpt lat="59.072798173874617" lon="30.007485765963793">
        <ele>76.560000000000002</ele>
        <time>2026-04-25T12:03:03Z</time>
      </trkpt>
      <trkpt lat="59.072782248258591" lon="30.007561119273305">
        <ele>76.560000000000002</ele>
        <time>2026-04-25T12:03:09Z</time>
      </trkpt>
      <trkpt lat="59.072770681232214" lon="30.007762955501676">
        <ele>76.560000000000002</ele>
        <time>2026-04-25T12:03:31Z</time>
      </trkpt>
      <trkpt lat="59.07280370593071" lon="30.007949369028211">
        <ele>76.079999999999998</ele>
        <time>2026-04-25T12:03:53Z</time>
      </trkpt>
      <trkpt lat="59.072709660977125" lon="30.007983902469277">
        <ele>76.079999999999998</ele>
        <time>2026-04-25T12:04:14Z</time>
      </trkpt>
      <trkpt lat="59.072705218568444" lon="30.007986836135387">
        <ele>76.079999999999998</ele>
        <time>2026-04-25T12:04:15Z</time>
      </trkpt>
      <trkpt lat="59.072592817246914" lon="30.008048275485635">
        <ele>76.079999999999998</ele>
        <time>2026-04-25T12:04:33Z</time>
      </trkpt>
      <trkpt lat="59.072559373453259" lon="30.008062524721026">
        <ele>76.079999999999998</ele>
        <time>2026-04-25T12:04:41Z</time>
      </trkpt>
      <trkpt lat="59.072532886639237" lon="30.008129831403494">
        <ele>76.079999999999998</ele>
        <time>2026-04-25T12:04:47Z</time>
      </trkpt>
      <trkpt lat="59.072384526953101" lon="30.008192779496312">
        <ele>76.079999999999998</ele>
        <time>2026-04-25T12:05:07Z</time>
      </trkpt>
      <trkpt lat="59.072343623265624" lon="30.008146595209837">
        <ele>76.079999999999998</ele>
        <time>2026-04-25T12:05:22Z</time>
      </trkpt>
      <trkpt lat="59.072329122573137" lon="30.00814919359982">
        <ele>76.079999999999998</ele>
        <time>2026-04-25T12:05:43Z</time>
      </trkpt>
      <trkpt lat="59.072322584688663" lon="30.008062021806836">
        <ele>76.079999999999998</ele>
        <time>2026-04-25T12:06:23Z</time>
      </trkpt>
      <trkpt lat="59.072332726791501" lon="30.0080621894449">
        <ele>76.079999999999998</ele>
        <time>2026-04-25T12:06:56Z</time>
      </trkpt>
      <trkpt lat="59.072342114523053" lon="30.008056489750743">
        <ele>76.079999999999998</ele>
        <time>2026-04-25T12:07:01Z</time>
      </trkpt>
      <trkpt lat="59.072294253855944" lon="30.008008293807507">
        <ele>76.079999999999998</ele>
        <time>2026-04-25T12:07:30Z</time>
      </trkpt>
      <trkpt lat="59.072366757318377" lon="30.008200407028198">
        <ele>76.079999999999998</ele>
        <time>2026-04-25T12:07:56Z</time>
      </trkpt>
      <trkpt lat="59.072307916358113" lon="30.008293027058244">
        <ele>76.560000000000002</ele>
        <time>2026-04-25T12:08:28Z</time>
      </trkpt>
      <trkpt lat="59.072310263291001" lon="30.008280538022518">
        <ele>76.560000000000002</ele>
        <time>2026-04-25T12:09:11Z</time>
      </trkpt>
      <trkpt lat="59.072320656850934" lon="30.008273329585791">
        <ele>76.560000000000002</ele>
        <time>2026-04-25T12:09:50Z</time>
      </trkpt>
      <trkpt lat="59.072319902479649" lon="30.00826402567327">
        <ele>76.560000000000002</ele>
        <time>2026-04-25T12:09:51Z</time>
      </trkpt>
      <trkpt lat="59.072258546948433" lon="30.007936293259263">
        <ele>77.040000000000006</ele>
        <time>2026-04-25T12:10:07Z</time>
      </trkpt>
      <trkpt lat="59.072251589968801" lon="30.007666479796171">
        <ele>77.040000000000006</ele>
        <time>2026-04-25T12:10:24Z</time>
      </trkpt>
      <trkpt lat="59.072208255529404" lon="30.00742306932807">
        <ele>76.560000000000002</ele>
        <time>2026-04-25T12:10:40Z</time>
      </trkpt>
      <trkpt lat="59.072204232215881" lon="30.007414435967803">
        <ele>76.560000000000002</ele>
        <time>2026-04-25T12:10:41Z</time>
      </trkpt>
      <trkpt lat="59.072098284959793" lon="30.007189800962806">
        <ele>76.560000000000002</ele>
        <time>2026-04-25T12:11:03Z</time>
      </trkpt>
      <trkpt lat="59.072062745690346" lon="30.006971368566155">
        <ele>76.560000000000002</ele>
        <time>2026-04-25T12:11:19Z</time>
      </trkpt>
      <trkpt lat="59.072097195312381" lon="30.006775734946132">
        <ele>76.560000000000002</ele>
        <time>2026-04-25T12:11:32Z</time>
      </trkpt>
      <trkpt lat="59.072074480354786" lon="30.006585968658328">
        <ele>76.560000000000002</ele>
        <time>2026-04-25T12:11:47Z</time>
      </trkpt>
      <trkpt lat="59.072084287181497" lon="30.006315819919109">
        <ele>77.040000000000006</ele>
        <time>2026-04-25T12:12:02Z</time>
      </trkpt>
      <trkpt lat="59.072087137028575" lon="30.006088502705097">
        <ele>77.040000000000006</ele>
        <time>2026-04-25T12:12:15Z</time>
      </trkpt>
      <trkpt lat="59.072064589709044" lon="30.00589856877923">
        <ele>77.040000000000006</ele>
        <time>2026-04-25T12:12:30Z</time>
      </trkpt>
      <trkpt lat="59.072064841166139" lon="30.005958415567875">
        <ele>77.040000000000006</ele>
        <time>2026-04-25T12:12:56Z</time>
      </trkpt>
      <trkpt lat="59.072057716548443" lon="30.006022369489074">
        <ele>77.040000000000006</ele>
        <time>2026-04-25T12:13:02Z</time>
      </trkpt>
      <trkpt lat="59.072023937478662" lon="30.006013484671712">
        <ele>77.040000000000006</ele>
        <time>2026-04-25T12:13:39Z</time>
      </trkpt>
      <trkpt lat="59.071994349360466" lon="30.006002001464367">
        <ele>77.040000000000006</ele>
        <time>2026-04-25T12:14:26Z</time>
      </trkpt>
      <trkpt lat="59.071989739313722" lon="30.006010886281729">
        <ele>77.040000000000006</ele>
        <time>2026-04-25T12:14:50Z</time>
      </trkpt>
      <trkpt lat="59.071919750422239" lon="30.006042402237654">
        <ele>77.040000000000006</ele>
        <time>2026-04-25T12:15:15Z</time>
      </trkpt>
      <trkpt lat="59.071934418752789" lon="30.006065787747502">
        <ele>77.040000000000006</ele>
        <time>2026-04-25T12:15:39Z</time>
      </trkpt>
      <trkpt lat="59.071943052113056" lon="30.006024213507771">
        <ele>77.519999999999996</ele>
        <time>2026-04-25T12:16:13Z</time>
      </trkpt>
      <trkpt lat="59.071938190609217" lon="30.005981884896755">
        <ele>77.519999999999996</ele>
        <time>2026-04-25T12:16:41Z</time>
      </trkpt>
      <trkpt lat="59.071939447894692" lon="30.005952715873718">
        <ele>78</ele>
        <time>2026-04-25T12:17:38Z</time>
      </trkpt>
      <trkpt lat="59.071918660774827" lon="30.005956655368209">
        <ele>78</ele>
        <time>2026-04-25T12:17:42Z</time>
      </trkpt>
      <trkpt lat="59.071832913905382" lon="30.006069224327803">
        <ele>78.480000000000004</ele>
        <time>2026-04-25T12:18:14Z</time>
      </trkpt>
      <trkpt lat="59.071717243641615" lon="30.006049694493413">
        <ele>78.480000000000004</ele>
        <time>2026-04-25T12:18:29Z</time>
      </trkpt>
      <trkpt lat="59.07167399302125" lon="30.006043240427971">
        <ele>78.480000000000004</ele>
        <time>2026-04-25T12:18:33Z</time>
      </trkpt>
      <trkpt lat="59.071586150676012" lon="30.006250776350498">
        <ele>78.480000000000004</ele>
        <time>2026-04-25T12:18:50Z</time>
      </trkpt>
      <trkpt lat="59.071597969159484" lon="30.006448086351156">
        <ele>78.480000000000004</ele>
        <time>2026-04-25T12:19:08Z</time>
      </trkpt>
      <trkpt lat="59.071605764329433" lon="30.006761653348804">
        <ele>78.480000000000004</ele>
        <time>2026-04-25T12:19:24Z</time>
      </trkpt>
      <trkpt lat="59.07161389477551" lon="30.006900290027261">
        <ele>78.480000000000004</ele>
        <time>2026-04-25T12:19:36Z</time>
      </trkpt>
      <trkpt lat="59.071629401296377" lon="30.007121907547116">
        <ele>78.480000000000004</ele>
        <time>2026-04-25T12:19:52Z</time>
      </trkpt>
      <trkpt lat="59.071616576984525" lon="30.007214695215225">
        <ele>78</ele>
        <time>2026-04-25T12:19:58Z</time>
      </trkpt>
      <trkpt lat="59.071587491780519" lon="30.007517617195845">
        <ele>78</ele>
        <time>2026-04-25T12:20:14Z</time>
      </trkpt>
      <trkpt lat="59.071575002744794" lon="30.007739486172795">
        <ele>78</ele>
        <time>2026-04-25T12:20:28Z</time>
      </trkpt>
      <trkpt lat="59.071601741015911" lon="30.007946016266942">
        <ele>78</ele>
        <time>2026-04-25T12:20:43Z</time>
      </trkpt>
      <trkpt lat="59.071698132902384" lon="30.008069146424532">
        <ele>78</ele>
        <time>2026-04-25T12:20:56Z</time>
      </trkpt>
      <trkpt lat="59.071809109300375" lon="30.008227983489633">
        <ele>78</ele>
        <time>2026-04-25T12:21:11Z</time>
      </trkpt>
      <trkpt lat="59.071821179240942" lon="30.008425964042544">
        <ele>78</ele>
        <time>2026-04-25T12:21:26Z</time>
      </trkpt>
      <trkpt lat="59.071809612214565" lon="30.008382964879274">
        <ele>78</ele>
        <time>2026-04-25T12:21:33Z</time>
      </trkpt>
      <trkpt lat="59.071796201169491" lon="30.00833485275507">
        <ele>78</ele>
        <time>2026-04-25T12:22:05Z</time>
      </trkpt>
      <trkpt lat="59.071752866730094" lon="30.008449852466583">
        <ele>78</ele>
        <time>2026-04-25T12:22:28Z</time>
      </trkpt>
      <trkpt lat="59.071694612503052" lon="30.008521601557732">
        <ele>78</ele>
        <time>2026-04-25T12:22:44Z</time>
      </trkpt>
      <trkpt lat="59.071645326912403" lon="30.008425880223513">
        <ele>78</ele>
        <time>2026-04-25T12:23:02Z</time>
      </trkpt>
      <trkpt lat="59.071514736860991" lon="30.008313562721014">
        <ele>78</ele>
        <time>2026-04-25T12:23:17Z</time>
      </trkpt>
      <trkpt lat="59.071423960849643" lon="30.008315071463585">
        <ele>78</ele>
        <time>2026-04-25T12:23:30Z</time>
      </trkpt>
      <trkpt lat="59.071386493742466" lon="30.008474914357066">
        <ele>78</ele>
        <time>2026-04-25T12:23:41Z</time>
      </trkpt>
      <trkpt lat="59.07134466804564" lon="30.008557979017496">
        <ele>78</ele>
        <time>2026-04-25T12:23:54Z</time>
      </trkpt>
      <trkpt lat="59.071270152926445" lon="30.008544567972422">
        <ele>78</ele>
        <time>2026-04-25T12:24:09Z</time>
      </trkpt>
      <trkpt lat="59.071262525394559" lon="30.008518416434526">
        <ele>78.480000000000004</ele>
        <time>2026-04-25T12:24:16Z</time>
      </trkpt>
      <trkpt lat="59.071246348321438" lon="30.008473824709654">
        <ele>78.480000000000004</ele>
        <time>2026-04-25T12:24:24Z</time>
      </trkpt>
      <trkpt lat="59.071253221482038" lon="30.008270060643554">
        <ele>78.480000000000004</ele>
        <time>2026-04-25T12:24:35Z</time>
      </trkpt>
      <trkpt lat="59.071230590343475" lon="30.007900837808847">
        <ele>78.480000000000004</ele>
        <time>2026-04-25T12:24:49Z</time>
      </trkpt>
      <trkpt lat="59.071179796010256" lon="30.007583582773805">
        <ele>78.480000000000004</ele>
        <time>2026-04-25T12:25:05Z</time>
      </trkpt>
      <trkpt lat="59.071174683049321" lon="30.007530441507697">
        <ele>78</ele>
        <time>2026-04-25T12:25:07Z</time>
      </trkpt>
      <trkpt lat="59.071169653907418" lon="30.007468750700355">
        <ele>78</ele>
        <time>2026-04-25T12:25:09Z</time>
      </trkpt>
      <trkpt lat="59.071160685271025" lon="30.007154010236263">
        <ele>78</ele>
        <time>2026-04-25T12:25:22Z</time>
      </trkpt>
      <trkpt lat="59.071173928678036" lon="30.007086703553796">
        <ele>78</ele>
        <time>2026-04-25T12:25:26Z</time>
      </trkpt>
      <trkpt lat="59.071158254519105" lon="30.006703399121761">
        <ele>78.480000000000004</ele>
        <time>2026-04-25T12:25:46Z</time>
      </trkpt>
      <trkpt lat="59.071152973920107" lon="30.0066789239645">
        <ele>78.480000000000004</ele>
        <time>2026-04-25T12:25:51Z</time>
      </trkpt>
      <trkpt lat="59.071051049977541" lon="30.006660986691713">
        <ele>78.480000000000004</ele>
        <time>2026-04-25T12:26:06Z</time>
      </trkpt>
      <trkpt lat="59.070935882627964" lon="30.006756037473679">
        <ele>78</ele>
        <time>2026-04-25T12:26:19Z</time>
      </trkpt>
      <trkpt lat="59.070884333923459" lon="30.00680347904563">
        <ele>78</ele>
        <time>2026-04-25T12:26:24Z</time>
      </trkpt>
      <trkpt lat="59.070845609530807" lon="30.006819069385529">
        <ele>78</ele>
        <time>2026-04-25T12:26:27Z</time>
      </trkpt>
      <trkpt lat="59.070757096633315" lon="30.006814040243626">
        <ele>78</ele>
        <time>2026-04-25T12:26:40Z</time>
      </trkpt>
      <trkpt lat="59.07066741026938" lon="30.006900206208229">
        <ele>78</ele>
        <time>2026-04-25T12:26:54Z</time>
      </trkpt>
      <trkpt lat="59.070660201832652" lon="30.006985533982515">
        <ele>78</ele>
        <time>2026-04-25T12:27:09Z</time>
      </trkpt>
      <trkpt lat="59.070671265944839" lon="30.007052505388856">
        <ele>77.519999999999996</ele>
        <time>2026-04-25T12:27:13Z</time>
      </trkpt>
      <trkpt lat="59.070688616484404" lon="30.007399851456285">
        <ele>77.519999999999996</ele>
        <time>2026-04-25T12:27:32Z</time>
      </trkpt>
      <trkpt lat="59.070730526000261" lon="30.007623145356774">
        <ele>77.519999999999996</ele>
        <time>2026-04-25T12:27:46Z</time>
      </trkpt>
      <trkpt lat="59.070753660053015" lon="30.007805535569787">
        <ele>77.519999999999996</ele>
        <time>2026-04-25T12:28:07Z</time>
      </trkpt>
      <trkpt lat="59.070738572627306" lon="30.007843924686313">
        <ele>77.519999999999996</ele>
        <time>2026-04-25T12:28:11Z</time>
      </trkpt>
      <trkpt lat="59.070747625082731" lon="30.007974179461598">
        <ele>77.519999999999996</ele>
        <time>2026-04-25T12:28:27Z</time>
      </trkpt>
      <trkpt lat="59.070803951472044" lon="30.008035283535719">
        <ele>77.519999999999996</ele>
        <time>2026-04-25T12:28:40Z</time>
      </trkpt>
      <trkpt lat="59.070779895409942" lon="30.008161431178451">
        <ele>77.519999999999996</ele>
        <time>2026-04-25T12:28:51Z</time>
      </trkpt>
      <trkpt lat="59.070723401382565" lon="30.008519003167748">
        <ele>77.519999999999996</ele>
        <time>2026-04-25T12:29:08Z</time>
      </trkpt>
      <trkpt lat="59.070770591497421" lon="30.008683372288942">
        <ele>77.519999999999996</ele>
        <time>2026-04-25T12:29:23Z</time>
      </trkpt>
      <trkpt lat="59.070826750248671" lon="30.008849333971739">
        <ele>77.519999999999996</ele>
        <time>2026-04-25T12:29:38Z</time>
      </trkpt>
      <trkpt lat="59.070807639509439" lon="30.008967099711299">
        <ele>77.519999999999996</ele>
        <time>2026-04-25T12:29:56Z</time>
      </trkpt>
      <trkpt lat="59.070835299789906" lon="30.00888797454536">
        <ele>77.519999999999996</ele>
        <time>2026-04-25T12:30:04Z</time>
      </trkpt>
      <trkpt lat="59.070937894284725" lon="30.008967518806458">
        <ele>77.519999999999996</ele>
        <time>2026-04-25T12:30:21Z</time>
      </trkpt>
      <trkpt lat="59.071017019450665" lon="30.009057708084583">
        <ele>77.519999999999996</ele>
        <time>2026-04-25T12:30:40Z</time>
      </trkpt>
      <trkpt lat="59.071094719693065" lon="30.009012781083584">
        <ele>77.519999999999996</ele>
        <time>2026-04-25T12:30:58Z</time>
      </trkpt>
      <trkpt lat="59.071171581745148" lon="30.009103557094932">
        <ele>77.519999999999996</ele>
        <time>2026-04-25T12:31:12Z</time>
      </trkpt>
      <trkpt lat="59.071259843185544" lon="30.009038262069225">
        <ele>77.519999999999996</ele>
        <time>2026-04-25T12:31:25Z</time>
      </trkpt>
      <trkpt lat="59.071327233687043" lon="30.009001884609461">
        <ele>77.519999999999996</ele>
        <time>2026-04-25T12:31:38Z</time>
      </trkpt>
      <trkpt lat="59.071417590603232" lon="30.009075561538339">
        <ele>78</ele>
        <time>2026-04-25T12:31:47Z</time>
      </trkpt>
      <trkpt lat="59.071434522047639" lon="30.00947336666286">
        <ele>78.480000000000004</ele>
        <time>2026-04-25T12:32:05Z</time>
      </trkpt>
      <trkpt lat="59.071470061317086" lon="30.009850384667516">
        <ele>78.480000000000004</ele>
        <time>2026-04-25T12:32:20Z</time>
      </trkpt>
      <trkpt lat="59.071536026895046" lon="30.010293535888195">
        <ele>78.480000000000004</ele>
        <time>2026-04-25T12:32:39Z</time>
      </trkpt>
      <trkpt lat="59.071551533415914" lon="30.01046821475029">
        <ele>78.480000000000004</ele>
        <time>2026-04-25T12:32:51Z</time>
      </trkpt>
      <trkpt lat="59.071511551737785" lon="30.010443236678839">
        <ele>78.969999999999999</ele>
        <time>2026-04-25T12:33:15Z</time>
      </trkpt>
      <trkpt lat="59.07160559669137" lon="30.010728808119893">
        <ele>78.969999999999999</ele>
        <time>2026-04-25T12:33:27Z</time>
      </trkpt>
      <trkpt lat="59.0716402977705" lon="30.011026114225388">
        <ele>78.969999999999999</ele>
        <time>2026-04-25T12:33:40Z</time>
      </trkpt>
      <trkpt lat="59.071639040485024" lon="30.011070873588324">
        <ele>78.969999999999999</ele>
        <time>2026-04-25T12:33:42Z</time>
      </trkpt>
      <trkpt lat="59.071653708815575" lon="30.011338843032718">
        <ele>78.969999999999999</ele>
        <time>2026-04-25T12:33:54Z</time>
      </trkpt>
      <trkpt lat="59.071708358824253" lon="30.011495165526867">
        <ele>78.969999999999999</ele>
        <time>2026-04-25T12:34:03Z</time>
      </trkpt>
      <trkpt lat="59.071733336895704" lon="30.011856090277433">
        <ele>78.969999999999999</ele>
        <time>2026-04-25T12:34:16Z</time>
      </trkpt>
      <trkpt lat="59.071758398786187" lon="30.011982908472419">
        <ele>78.969999999999999</ele>
        <time>2026-04-25T12:34:22Z</time>
      </trkpt>
      <trkpt lat="59.071755465120077" lon="30.012067062780261">
        <ele>78.969999999999999</ele>
        <time>2026-04-25T12:34:26Z</time>
      </trkpt>
      <trkpt lat="59.0717438980937" lon="30.012192036956549">
        <ele>78.969999999999999</ele>
        <time>2026-04-25T12:34:31Z</time>
      </trkpt>
      <trkpt lat="59.071758985519409" lon="30.012515326961875">
        <ele>78.969999999999999</ele>
        <time>2026-04-25T12:34:46Z</time>
      </trkpt>
      <trkpt lat="59.071763679385185" lon="30.012788660824299">
        <ele>78.969999999999999</ele>
        <time>2026-04-25T12:35:00Z</time>
      </trkpt>
      <trkpt lat="59.071828639134765" lon="30.012981696054339">
        <ele>78.969999999999999</ele>
        <time>2026-04-25T12:35:15Z</time>
      </trkpt>
      <trkpt lat="59.071847414597869" lon="30.013113627210259">
        <ele>78.969999999999999</ele>
        <time>2026-04-25T12:35:47Z</time>
      </trkpt>
      <trkpt lat="59.071899885311723" lon="30.013387380167842">
        <ele>78.969999999999999</ele>
        <time>2026-04-25T12:36:00Z</time>
      </trkpt>
      <trkpt lat="59.071890749037266" lon="30.013499278575182">
        <ele>78.480000000000004</ele>
        <time>2026-04-25T12:36:09Z</time>
      </trkpt>
      <trkpt lat="59.071940453723073" lon="30.013907393440604">
        <ele>78.480000000000004</ele>
        <time>2026-04-25T12:36:26Z</time>
      </trkpt>
      <trkpt lat="59.071931233629584" lon="30.01416178420186">
        <ele>78.480000000000004</ele>
        <time>2026-04-25T12:36:36Z</time>
      </trkpt>
      <trkpt lat="59.07194665633142" lon="30.014579957351089">
        <ele>78.480000000000004</ele>
        <time>2026-04-25T12:36:54Z</time>
      </trkpt>
      <trkpt lat="59.071977166458964" lon="30.014903917908669">
        <ele>78.480000000000004</ele>
        <time>2026-04-25T12:37:12Z</time>
      </trkpt>
      <trkpt lat="59.071975909173489" lon="30.014989580959082">
        <ele>78.480000000000004</ele>
        <time>2026-04-25T12:37:16Z</time>
      </trkpt>
      <trkpt lat="59.071993762627244" lon="30.015354696661234">
        <ele>78.480000000000004</ele>
        <time>2026-04-25T12:37:31Z</time>
      </trkpt>
      <trkpt lat="59.072001138702035" lon="30.015450669452548">
        <ele>78.480000000000004</ele>
        <time>2026-04-25T12:37:35Z</time>
      </trkpt>
      <trkpt lat="59.072022177278996" lon="30.015521161258221">
        <ele>78</ele>
        <time>2026-04-25T12:37:39Z</time>
      </trkpt>
      <trkpt lat="59.072057381272316" lon="30.015700198709965">
        <ele>78</ele>
        <time>2026-04-25T12:37:47Z</time>
      </trkpt>
      <trkpt lat="59.072087639942765" lon="30.015872195363045">
        <ele>78</ele>
        <time>2026-04-25T12:37:55Z</time>
      </trkpt>
      <trkpt lat="59.072111193090677" lon="30.016147373244166">
        <ele>78</ele>
        <time>2026-04-25T12:38:10Z</time>
      </trkpt>
      <trkpt lat="59.072129465639591" lon="30.016268407925963">
        <ele>78</ele>
        <time>2026-04-25T12:38:16Z</time>
      </trkpt>
      <trkpt lat="59.072137679904699" lon="30.016375025734305">
        <ele>78</ele>
        <time>2026-04-25T12:38:21Z</time>
      </trkpt>
      <trkpt lat="59.072150588035583" lon="30.016479631885886">
        <ele>78</ele>
        <time>2026-04-25T12:38:33Z</time>
      </trkpt>
      <trkpt lat="59.072174560278654" lon="30.016663279384375">
        <ele>78</ele>
        <time>2026-04-25T12:38:42Z</time>
      </trkpt>
      <trkpt lat="59.072191407904029" lon="30.017029568552971">
        <ele>78</ele>
        <time>2026-04-25T12:38:59Z</time>
      </trkpt>
      <trkpt lat="59.072169531136751" lon="30.017300387844443">
        <ele>78</ele>
        <time>2026-04-25T12:39:12Z</time>
      </trkpt>
      <trkpt lat="59.072176404297352" lon="30.017610266804695">
        <ele>77.519999999999996</ele>
        <time>2026-04-25T12:39:28Z</time>
      </trkpt>
      <trkpt lat="59.072180092334747" lon="30.017749238759279">
        <ele>76.560000000000002</ele>
        <time>2026-04-25T12:39:46Z</time>
      </trkpt>
      <trkpt lat="59.072192162275314" lon="30.018017878755927">
        <ele>76.560000000000002</ele>
        <time>2026-04-25T12:40:05Z</time>
      </trkpt>
      <trkpt lat="59.07222518697381" lon="30.018099350854754">
        <ele>76.560000000000002</ele>
        <time>2026-04-25T12:40:29Z</time>
      </trkpt>
      <trkpt lat="59.072235999628901" lon="30.018321638926864">
        <ele>76.560000000000002</ele>
        <time>2026-04-25T12:40:44Z</time>
      </trkpt>
      <trkpt lat="59.072269024327397" lon="30.018628248944879">
        <ele>76.079999999999998</ele>
        <time>2026-04-25T12:40:59Z</time>
      </trkpt>
      <trkpt lat="59.072347981855273" lon="30.019024964421988">
        <ele>76.079999999999998</ele>
        <time>2026-04-25T12:41:17Z</time>
      </trkpt>
      <trkpt lat="59.07238888554275" lon="30.019179107621312">
        <ele>76.079999999999998</ele>
        <time>2026-04-25T12:41:24Z</time>
      </trkpt>
      <trkpt lat="59.072503801435232" lon="30.019544055685401">
        <ele>76.079999999999998</ele>
        <time>2026-04-25T12:41:41Z</time>
      </trkpt>
      <trkpt lat="59.072581501677632" lon="30.019893497228622">
        <ele>75.599999999999994</ele>
        <time>2026-04-25T12:41:57Z</time>
      </trkpt>
      <trkpt lat="59.072584770619869" lon="30.019987793639302">
        <ele>75.599999999999994</ele>
        <time>2026-04-25T12:42:01Z</time>
      </trkpt>
      <trkpt lat="59.072636822238564" lon="30.020323405042291">
        <ele>75.120000000000005</ele>
        <time>2026-04-25T12:42:16Z</time>
      </trkpt>
      <trkpt lat="59.072671104222536" lon="30.020626913756132">
        <ele>75.120000000000005</ele>
        <time>2026-04-25T12:42:30Z</time>
      </trkpt>
      <trkpt lat="59.072665991261601" lon="30.020936876535416">
        <ele>75.120000000000005</ele>
        <time>2026-04-25T12:42:47Z</time>
      </trkpt>
      <trkpt lat="59.07264294102788" lon="30.021165870130062">
        <ele>75.120000000000005</ele>
        <time>2026-04-25T12:43:08Z</time>
      </trkpt>
      <trkpt lat="59.072641097009182" lon="30.021435096859932">
        <ele>75.120000000000005</ele>
        <time>2026-04-25T12:43:23Z</time>
      </trkpt>
      <trkpt lat="59.072646042332053" lon="30.021707005798817">
        <ele>74.640000000000001</ele>
        <time>2026-04-25T12:43:37Z</time>
      </trkpt>
      <trkpt lat="59.072638666257262" lon="30.021830890327692">
        <ele>74.640000000000001</ele>
        <time>2026-04-25T12:43:43Z</time>
      </trkpt>
      <trkpt lat="59.072626261040568" lon="30.022175218909979">
        <ele>74.640000000000001</ele>
        <time>2026-04-25T12:44:00Z</time>
      </trkpt>
      <trkpt lat="59.07261997461319" lon="30.022425837814808">
        <ele>74.640000000000001</ele>
        <time>2026-04-25T12:44:13Z</time>
      </trkpt>
      <trkpt lat="59.0726038813591" lon="30.022564558312297">
        <ele>74.640000000000001</ele>
        <time>2026-04-25T12:44:20Z</time>
      </trkpt>
      <trkpt lat="59.072597343474627" lon="30.022648125886917">
        <ele>74.640000000000001</ele>
        <time>2026-04-25T12:44:24Z</time>
      </trkpt>
      <trkpt lat="59.072605976834893" lon="30.022867396473885">
        <ele>74.640000000000001</ele>
        <time>2026-04-25T12:44:41Z</time>
      </trkpt>
      <trkpt lat="59.072607234120369" lon="30.022931601852179">
        <ele>74.640000000000001</ele>
        <time>2026-04-25T12:45:15Z</time>
      </trkpt>
      <trkpt lat="59.072587620466948" lon="30.023275930434465">
        <ele>74.640000000000001</ele>
        <time>2026-04-25T12:45:31Z</time>
      </trkpt>
      <trkpt lat="59.072639420628548" lon="30.02364163286984">
        <ele>74.159999999999997</ele>
        <time>2026-04-25T12:45:48Z</time>
      </trkpt>
      <trkpt lat="59.0726781450212" lon="30.023966766893864">
        <ele>73.680000000000007</ele>
        <time>2026-04-25T12:46:04Z</time>
      </trkpt>
      <trkpt lat="59.072700273245573" lon="30.024170028045774">
        <ele>73.680000000000007</ele>
        <time>2026-04-25T12:46:14Z</time>
      </trkpt>
      <trkpt lat="59.072723658755422" lon="30.024472028017044">
        <ele>73.680000000000007</ele>
        <time>2026-04-25T12:46:28Z</time>
      </trkpt>
      <trkpt lat="59.072759281843901" lon="30.024668499827385">
        <ele>73.680000000000007</ele>
        <time>2026-04-25T12:46:37Z</time>
      </trkpt>
      <trkpt lat="59.072796665132046" lon="30.024851392954588">
        <ele>73.680000000000007</ele>
        <time>2026-04-25T12:46:46Z</time>
      </trkpt>
      <trkpt lat="59.072851734235883" lon="30.025236122310162">
        <ele>73.200000000000003</ele>
        <time>2026-04-25T12:47:04Z</time>
      </trkpt>
      <trkpt lat="59.072860451415181" lon="30.025354977697134">
        <ele>73.200000000000003</ele>
        <time>2026-04-25T12:47:10Z</time>
      </trkpt>
      <trkpt lat="59.072907641530037" lon="30.025607608258724">
        <ele>73.200000000000003</ele>
        <time>2026-04-25T12:47:24Z</time>
      </trkpt>
      <trkpt lat="59.072943851351738" lon="30.025843223556876">
        <ele>73.200000000000003</ele>
        <time>2026-04-25T12:47:36Z</time>
      </trkpt>
      <trkpt lat="59.07299380749464" lon="30.02621378749609">
        <ele>73.200000000000003</ele>
        <time>2026-04-25T12:47:53Z</time>
      </trkpt>
      <trkpt lat="59.073012750595808" lon="30.026584519073367">
        <ele>73.200000000000003</ele>
        <time>2026-04-25T12:48:09Z</time>
      </trkpt>
      <trkpt lat="59.073017193004489" lon="30.026608658954501">
        <ele>73.200000000000003</ele>
        <time>2026-04-25T12:48:10Z</time>
      </trkpt>
      <trkpt lat="59.073044266551733" lon="30.026844525709748">
        <ele>73.200000000000003</ele>
        <time>2026-04-25T12:48:20Z</time>
      </trkpt>
      <trkpt lat="59.073118697851896" lon="30.027172509580851">
        <ele>74.159999999999997</ele>
        <time>2026-04-25T12:48:35Z</time>
      </trkpt>
      <trkpt lat="59.073140323162079" lon="30.027501583099365">
        <ele>74.159999999999997</ele>
        <time>2026-04-25T12:48:48Z</time>
      </trkpt>
      <trkpt lat="59.073010990396142" lon="30.027670310810208">
        <ele>74.159999999999997</ele>
        <time>2026-04-25T12:49:02Z</time>
      </trkpt>
      <trkpt lat="59.072919962927699" lon="30.027719428762794">
        <ele>74.159999999999997</ele>
        <time>2026-04-25T12:49:10Z</time>
      </trkpt>
      <trkpt lat="59.072736231610179" lon="30.027808444574475">
        <ele>74.159999999999997</ele>
        <time>2026-04-25T12:49:26Z</time>
      </trkpt>
      <trkpt lat="59.072583429515362" lon="30.027864770963788">
        <ele>74.159999999999997</ele>
        <time>2026-04-25T12:49:41Z</time>
      </trkpt>
      <trkpt lat="59.07235368154943" lon="30.02795378677547">
        <ele>73.200000000000003</ele>
        <time>2026-04-25T12:50:03Z</time>
      </trkpt>
      <trkpt lat="59.072175649926066" lon="30.028117066249251">
        <ele>73.200000000000003</ele>
        <time>2026-04-25T12:50:24Z</time>
      </trkpt>
      <trkpt lat="59.07208101823926" lon="30.028049508109689">
        <ele>73.200000000000003</ele>
        <time>2026-04-25T12:50:40Z</time>
      </trkpt>
      <trkpt lat="59.071926288306713" lon="30.028141289949417">
        <ele>73.200000000000003</ele>
        <time>2026-04-25T12:50:55Z</time>
      </trkpt>
      <trkpt lat="59.071763260290027" lon="30.02809401601553">
        <ele>72.719999999999999</ele>
        <time>2026-04-25T12:51:10Z</time>
      </trkpt>
      <trkpt lat="59.071641387417912" lon="30.028098961338401">
        <ele>72.719999999999999</ele>
        <time>2026-04-25T12:51:27Z</time>
      </trkpt>
      <trkpt lat="59.07161146402359" lon="30.028182025998831">
        <ele>72.719999999999999</ele>
        <time>2026-04-25T12:51:54Z</time>
      </trkpt>
      <trkpt lat="59.071505684405565" lon="30.028193509206176">
        <ele>72.719999999999999</ele>
        <time>2026-04-25T12:52:19Z</time>
      </trkpt>
      <trkpt lat="59.07134173437953" lon="30.028233658522367">
        <ele>72.719999999999999</ele>
        <time>2026-04-25T12:52:39Z</time>
      </trkpt>
      <trkpt lat="59.071082063019276" lon="30.028334241360426">
        <ele>72.239999999999995</ele>
        <time>2026-04-25T12:53:01Z</time>
      </trkpt>
      <trkpt lat="59.070806633681059" lon="30.028398782014847">
        <ele>72.239999999999995</ele>
        <time>2026-04-25T12:53:24Z</time>
      </trkpt>
      <trkpt lat="59.070584513247013" lon="30.028528366237879">
        <ele>72.239999999999995</ele>
        <time>2026-04-25T12:53:44Z</time>
      </trkpt>
      <trkpt lat="59.070348730310798" lon="30.02859877422452">
        <ele>73.200000000000003</ele>
        <time>2026-04-25T12:54:02Z</time>
      </trkpt>
      <trkpt lat="59.07016952522099" lon="30.028628446161747">
        <ele>73.200000000000003</ele>
        <time>2026-04-25T12:54:20Z</time>
      </trkpt>
      <trkpt lat="59.06989686191082" lon="30.02868234179914">
        <ele>73.200000000000003</ele>
        <time>2026-04-25T12:54:42Z</time>
      </trkpt>
      <trkpt lat="59.069750010967255" lon="30.028777811676264">
        <ele>73.200000000000003</ele>
        <time>2026-04-25T12:54:59Z</time>
      </trkpt>
      <trkpt lat="59.069497548043728" lon="30.028828522190452">
        <ele>72.719999999999999</ele>
        <time>2026-04-25T12:55:22Z</time>
      </trkpt>
      <trkpt lat="59.069248270243406" lon="30.028926422819495">
        <ele>72.719999999999999</ele>
        <time>2026-04-25T12:55:44Z</time>
      </trkpt>
      <trkpt lat="59.068995052948594" lon="30.028965482488275">
        <ele>72.719999999999999</ele>
        <time>2026-04-25T12:56:06Z</time>
      </trkpt>
      <trkpt lat="59.068686179816723" lon="30.029118033125997">
        <ele>72.239999999999995</ele>
        <time>2026-04-25T12:56:30Z</time>
      </trkpt>
      <trkpt lat="59.068462634459138" lon="30.02922959625721">
        <ele>72.239999999999995</ele>
        <time>2026-04-25T12:56:50Z</time>
      </trkpt>
      <trkpt lat="59.068292230367661" lon="30.029282318428159">
        <ele>72.239999999999995</ele>
        <time>2026-04-25T12:57:08Z</time>
      </trkpt>
      <trkpt lat="59.068100536242127" lon="30.029348619282246">
        <ele>71.760000000000005</ele>
        <time>2026-04-25T12:57:27Z</time>
      </trkpt>
      <trkpt lat="59.067899705842137" lon="30.029358090832829">
        <ele>71.760000000000005</ele>
        <time>2026-04-25T12:57:47Z</time>
      </trkpt>
      <trkpt lat="59.06769510358572" lon="30.029487255960703">
        <ele>71.760000000000005</ele>
        <time>2026-04-25T12:58:09Z</time>
      </trkpt>
      <trkpt lat="59.067561496049166" lon="30.029496727511287">
        <ele>71.760000000000005</ele>
        <time>2026-04-25T12:58:23Z</time>
      </trkpt>
      <trkpt lat="59.067380698397756" lon="30.029568979516625">
        <ele>71.269999999999996</ele>
        <time>2026-04-25T12:58:42Z</time>
      </trkpt>
      <trkpt lat="59.067228566855192" lon="30.02959068864584">
        <ele>71.269999999999996</ele>
        <time>2026-04-25T12:58:58Z</time>
      </trkpt>
      <trkpt lat="59.067070484161377" lon="30.029706945642829">
        <ele>71.269999999999996</ele>
        <time>2026-04-25T12:59:17Z</time>
      </trkpt>
      <trkpt lat="59.066922543570399" lon="30.029791686683893">
        <ele>71.269999999999996</ele>
        <time>2026-04-25T12:59:36Z</time>
      </trkpt>
      <trkpt lat="59.066742416471243" lon="30.029846085235476">
        <ele>70.790000000000006</ele>
        <time>2026-04-25T12:59:57Z</time>
      </trkpt>
      <trkpt lat="59.066584417596459" lon="30.029826974496245">
        <ele>70.790000000000006</ele>
        <time>2026-04-25T13:00:17Z</time>
      </trkpt>
      <trkpt lat="59.066429184749722" lon="30.029897214844823">
        <ele>70.790000000000006</ele>
        <time>2026-04-25T13:00:37Z</time>
      </trkpt>
      <trkpt lat="59.066301444545388" lon="30.029999976977706">
        <ele>70.310000000000002</ele>
        <time>2026-04-25T13:00:59Z</time>
      </trkpt>
      <trkpt lat="59.066174626350403" lon="30.030013807117939">
        <ele>70.310000000000002</ele>
        <time>2026-04-25T13:01:26Z</time>
      </trkpt>
      <trkpt lat="59.066054932773113" lon="30.030065942555666">
        <ele>70.310000000000002</ele>
        <time>2026-04-25T13:01:47Z</time>
      </trkpt>
      <trkpt lat="59.066004138439894" lon="30.030081113800406">
        <ele>70.310000000000002</ele>
        <time>2026-04-25T13:02:01Z</time>
      </trkpt>
      <trkpt lat="59.065936831757426" lon="30.030044401064515">
        <ele>70.310000000000002</ele>
        <time>2026-04-25T13:02:24Z</time>
      </trkpt>
      <trkpt lat="59.065938089042902" lon="30.030166441574693">
        <ele>69.829999999999998</ele>
        <time>2026-04-25T13:02:55Z</time>
      </trkpt>
      <trkpt lat="59.065988967195153" lon="30.030115060508251">
        <ele>69.829999999999998</ele>
        <time>2026-04-25T13:03:11Z</time>
      </trkpt>
      <trkpt lat="59.065928617492318" lon="30.029998635873199">
        <ele>69.829999999999998</ele>
        <time>2026-04-25T13:03:48Z</time>
      </trkpt>
      <trkpt lat="59.065915709361434" lon="30.030088825151324">
        <ele>70.310000000000002</ele>
        <time>2026-04-25T13:04:36Z</time>
      </trkpt>
      <trkpt lat="59.065927276387811" lon="30.03008228726685">
        <ele>70.310000000000002</ele>
        <time>2026-04-25T13:04:52Z</time>
      </trkpt>
      <trkpt lat="59.065960049629211" lon="30.030065020546317">
        <ele>70.310000000000002</ele>
        <time>2026-04-25T13:05:28Z</time>
      </trkpt>
      <trkpt lat="59.065966503694654" lon="30.030026379972696">
        <ele>70.310000000000002</ele>
        <time>2026-04-25T13:06:33Z</time>
      </trkpt>
      <trkpt lat="59.065939346328378" lon="30.030173985287547">
        <ele>70.310000000000002</ele>
        <time>2026-04-25T13:07:14Z</time>
      </trkpt>
      <trkpt lat="59.065967090427876" lon="30.03004658035934">
        <ele>70.310000000000002</ele>
        <time>2026-04-25T13:07:44Z</time>
      </trkpt>
      <trkpt lat="59.0659658331424" lon="30.030062589794397">
        <ele>70.310000000000002</ele>
        <time>2026-04-25T13:08:12Z</time>
      </trkpt>
      <trkpt lat="59.065938508138061" lon="30.030118245631456">
        <ele>70.790000000000006</ele>
        <time>2026-04-25T13:08:51Z</time>
      </trkpt>
      <trkpt lat="59.065942531451583" lon="30.030123107135296">
        <ele>70.790000000000006</ele>
        <time>2026-04-25T13:09:36Z</time>
      </trkpt>
      <trkpt lat="59.065913027152419" lon="30.030122688040137">
        <ele>70.790000000000006</ele>
        <time>2026-04-25T13:10:10Z</time>
      </trkpt>
      <trkpt lat="59.065810348838568" lon="30.030089830979705">
        <ele>70.790000000000006</ele>
        <time>2026-04-25T13:10:22Z</time>
      </trkpt>
      <trkpt lat="59.065728457644582" lon="30.030132159590721">
        <ele>70.790000000000006</ele>
        <time>2026-04-25T13:10:36Z</time>
      </trkpt>
      <trkpt lat="59.06563114374876" lon="30.030195191502571">
        <ele>70.790000000000006</ele>
        <time>2026-04-25T13:10:52Z</time>
      </trkpt>
      <trkpt lat="59.065504325553775" lon="30.030274065211415">
        <ele>70.790000000000006</ele>
        <time>2026-04-25T13:11:08Z</time>
      </trkpt>
      <trkpt lat="59.065373903140426" lon="30.03030750900507">
        <ele>70.790000000000006</ele>
        <time>2026-04-25T13:11:23Z</time>
      </trkpt>
      <trkpt lat="59.065238870680332" lon="30.030362494289875">
        <ele>70.310000000000002</ele>
        <time>2026-04-25T13:11:40Z</time>
      </trkpt>
      <trkpt lat="59.065018678084016" lon="30.030407086014748">
        <ele>70.310000000000002</ele>
        <time>2026-04-25T13:11:58Z</time>
      </trkpt>
      <trkpt lat="59.064860763028264" lon="30.030446983873844">
        <ele>70.310000000000002</ele>
        <time>2026-04-25T13:12:14Z</time>
      </trkpt>
      <trkpt lat="59.064688179641962" lon="30.030497442930937">
        <ele>69.829999999999998</ele>
        <time>2026-04-25T13:12:29Z</time>
      </trkpt>
      <trkpt lat="59.064674014225602" lon="30.030514542013407">
        <ele>69.829999999999998</ele>
        <time>2026-04-25T13:12:31Z</time>
      </trkpt>
      <trkpt lat="59.064437141641974" lon="30.03054304048419">
        <ele>69.829999999999998</ele>
        <time>2026-04-25T13:12:49Z</time>
      </trkpt>
      <trkpt lat="59.064418282359838" lon="30.030558966100216">
        <ele>69.829999999999998</ele>
        <time>2026-04-25T13:12:50Z</time>
      </trkpt>
      <trkpt lat="59.064238239079714" lon="30.030672289431095">
        <ele>69.349999999999994</ele>
        <time>2026-04-25T13:13:09Z</time>
      </trkpt>
      <trkpt lat="59.064110917970538" lon="30.030700787901878">
        <ele>69.349999999999994</ele>
        <time>2026-04-25T13:13:23Z</time>
      </trkpt>
      <trkpt lat="59.063925091177225" lon="30.030776308849454">
        <ele>69.349999999999994</ele>
        <time>2026-04-25T13:13:40Z</time>
      </trkpt>
      <trkpt lat="59.063855856657028" lon="30.030802963301539">
        <ele>68.870000000000005</ele>
        <time>2026-04-25T13:13:58Z</time>
      </trkpt>
      <trkpt lat="59.063714370131493" lon="30.030855601653457">
        <ele>68.870000000000005</ele>
        <time>2026-04-25T13:14:20Z</time>
      </trkpt>
      <trkpt lat="59.06361797824502" lon="30.030868258327246">
        <ele>68.870000000000005</ele>
        <time>2026-04-25T13:14:37Z</time>
      </trkpt>
      <trkpt lat="59.063452268019319" lon="30.031050983816385">
        <ele>68.870000000000005</ele>
        <time>2026-04-25T13:14:58Z</time>
      </trkpt>
      <trkpt lat="59.063466601073742" lon="30.031310152262449">
        <ele>68.870000000000005</ele>
        <time>2026-04-25T13:15:07Z</time>
      </trkpt>
      <trkpt lat="59.06347188167274" lon="30.031645679846406">
        <ele>68.870000000000005</ele>
        <time>2026-04-25T13:15:26Z</time>
      </trkpt>
      <trkpt lat="59.063505996018648" lon="30.031620115041733">
        <ele>68.870000000000005</ele>
        <time>2026-04-25T13:15:57Z</time>
      </trkpt>
      <trkpt lat="59.063503900542855" lon="30.031637465581298">
        <ele>68.870000000000005</ele>
        <time>2026-04-25T13:16:28Z</time>
      </trkpt>
      <trkpt lat="59.063518065959215" lon="30.031557250767946">
        <ele>68.870000000000005</ele>
        <time>2026-04-25T13:17:11Z</time>
      </trkpt>
      <trkpt lat="59.063458554446697" lon="30.031619360670447">
        <ele>68.870000000000005</ele>
        <time>2026-04-25T13:17:38Z</time>
      </trkpt>
      <trkpt lat="59.063511360436678" lon="30.031274780631065">
        <ele>68.870000000000005</ele>
        <time>2026-04-25T13:18:05Z</time>
      </trkpt>
      <trkpt lat="59.063510270789266" lon="30.031251646578312">
        <ele>68.870000000000005</ele>
        <time>2026-04-25T13:18:06Z</time>
      </trkpt>
      <trkpt lat="59.063469199463725" lon="30.031038913875818">
        <ele>69.829999999999998</ele>
        <time>2026-04-25T13:18:16Z</time>
      </trkpt>
      <trkpt lat="59.063414800912142" lon="30.030950820073485">
        <ele>69.829999999999998</ele>
        <time>2026-04-25T13:18:20Z</time>
      </trkpt>
      <trkpt lat="59.063330311328173" lon="30.030995914712548">
        <ele>69.829999999999998</ele>
        <time>2026-04-25T13:18:42Z</time>
      </trkpt>
      <trkpt lat="59.063323186710477" lon="30.030926344916224">
        <ele>69.829999999999998</ele>
        <time>2026-04-25T13:19:25Z</time>
      </trkpt>
      <trkpt lat="59.06333358027041" lon="30.030883178114891">
        <ele>69.829999999999998</ele>
        <time>2026-04-25T13:19:43Z</time>
      </trkpt>
      <trkpt lat="59.063567351549864" lon="30.030858786776662">
        <ele>69.829999999999998</ele>
        <time>2026-04-25T13:20:02Z</time>
      </trkpt>
      <trkpt lat="59.063687631860375" lon="30.030765663832426">
        <ele>69.829999999999998</ele>
        <time>2026-04-25T13:20:16Z</time>
      </trkpt>
      <trkpt lat="59.06383641064167" lon="30.030762311071157">
        <ele>69.829999999999998</ele>
        <time>2026-04-25T13:20:34Z</time>
      </trkpt>
      <trkpt lat="59.063934730365872" lon="30.030760215595365">
        <ele>69.829999999999998</ele>
        <time>2026-04-25T13:20:55Z</time>
      </trkpt>
      <trkpt lat="59.063997510820627" lon="30.030648820102215">
        <ele>68.390000000000001</ele>
        <time>2026-04-25T13:21:10Z</time>
      </trkpt>
      <trkpt lat="59.064170429483056" lon="30.030641024932265">
        <ele>68.390000000000001</ele>
        <time>2026-04-25T13:21:29Z</time>
      </trkpt>
      <trkpt lat="59.064394310116768" lon="30.03056257031858">
        <ele>68.870000000000005</ele>
        <time>2026-04-25T13:21:50Z</time>
      </trkpt>
      <trkpt lat="59.064589608460665" lon="30.030454024672508">
        <ele>68.870000000000005</ele>
        <time>2026-04-25T13:22:09Z</time>
      </trkpt>
      <trkpt lat="59.064771914854646" lon="30.030387975275517">
        <ele>68.870000000000005</ele>
        <time>2026-04-25T13:22:26Z</time>
      </trkpt>
      <trkpt lat="59.06502085737884" lon="30.03033097833395">
        <ele>68.870000000000005</ele>
        <time>2026-04-25T13:22:45Z</time>
      </trkpt>
      <trkpt lat="59.065275499597192" lon="30.030244896188378">
        <ele>68.870000000000005</ele>
        <time>2026-04-25T13:23:05Z</time>
      </trkpt>
      <trkpt lat="59.065517066046596" lon="30.030168704688549">
        <ele>68.870000000000005</ele>
        <time>2026-04-25T13:23:30Z</time>
      </trkpt>
      <trkpt lat="59.065536009147763" lon="30.030149593949318">
        <ele>70.310000000000002</ele>
        <time>2026-04-25T13:23:36Z</time>
      </trkpt>
      <trkpt lat="59.065659893676639" lon="30.030180187895894">
        <ele>70.310000000000002</ele>
        <time>2026-04-25T13:23:47Z</time>
      </trkpt>
      <trkpt lat="59.06588964164257" lon="30.0302645098418">
        <ele>70.310000000000002</ele>
        <time>2026-04-25T13:24:26Z</time>
      </trkpt>
      <trkpt lat="59.065964659675956" lon="30.0300382822752">
        <ele>70.310000000000002</ele>
        <time>2026-04-25T13:24:48Z</time>
      </trkpt>
      <trkpt lat="59.066118216142058" lon="30.029918001964688">
        <ele>70.790000000000006</ele>
        <time>2026-04-25T13:25:12Z</time>
      </trkpt>
      <trkpt lat="59.066292056813836" lon="30.02993225120008">
        <ele>70.790000000000006</ele>
        <time>2026-04-25T13:25:31Z</time>
      </trkpt>
      <trkpt lat="59.066484840586782" lon="30.029855724424124">
        <ele>70.790000000000006</ele>
        <time>2026-04-25T13:25:57Z</time>
      </trkpt>
      <trkpt lat="59.066551560536027" lon="30.030009532347322">
        <ele>70.790000000000006</ele>
        <time>2026-04-25T13:26:21Z</time>
      </trkpt>
      <trkpt lat="59.066641246899962" lon="30.030132411047816">
        <ele>70.790000000000006</ele>
        <time>2026-04-25T13:26:43Z</time>
      </trkpt>
      <trkpt lat="59.066716767847538" lon="30.030273729935288">
        <ele>70.790000000000006</ele>
        <time>2026-04-25T13:26:57Z</time>
      </trkpt>
      <trkpt lat="59.066800167784095" lon="30.030539352446795">
        <ele>70.790000000000006</ele>
        <time>2026-04-25T13:27:13Z</time>
      </trkpt>
      <trkpt lat="59.066920280456543" lon="30.030832551419735">
        <ele>70.790000000000006</ele>
        <time>2026-04-25T13:27:32Z</time>
      </trkpt>
      <trkpt lat="59.067057576030493" lon="30.030950652435422">
        <ele>70.790000000000006</ele>
        <time>2026-04-25T13:27:49Z</time>
      </trkpt>
      <trkpt lat="59.067139718681574" lon="30.030905054882169">
        <ele>70.790000000000006</ele>
        <time>2026-04-25T13:28:08Z</time>
      </trkpt>
      <trkpt lat="59.067009212449193" lon="30.030851243063807">
        <ele>71.269999999999996</ele>
        <time>2026-04-25T13:28:51Z</time>
      </trkpt>
      <trkpt lat="59.067091858014464" lon="30.030860295519233">
        <ele>71.269999999999996</ele>
        <time>2026-04-25T13:29:16Z</time>
      </trkpt>
      <trkpt lat="59.067032178863883" lon="30.030907737091184">
        <ele>71.269999999999996</ele>
        <time>2026-04-25T13:30:15Z</time>
      </trkpt>
      <trkpt lat="59.067206354811788" lon="30.030731549486518">
        <ele>71.760000000000005</ele>
        <time>2026-04-25T13:31:25Z</time>
      </trkpt>
      <trkpt lat="59.067075932398438" lon="30.030705984681845">
        <ele>71.760000000000005</ele>
        <time>2026-04-25T13:32:08Z</time>
      </trkpt>
      <trkpt lat="59.067057156935334" lon="30.03080103546381">
        <ele>69.829999999999998</ele>
        <time>2026-04-25T13:32:56Z</time>
      </trkpt>
      <trkpt lat="59.067043662071228" lon="30.030999267473817">
        <ele>72.719999999999999</ele>
        <time>2026-04-25T13:33:38Z</time>
      </trkpt>
      <trkpt lat="59.067034274339676" lon="30.030805645510554">
        <ele>73.200000000000003</ele>
        <time>2026-04-25T13:34:35Z</time>
      </trkpt>
      <trkpt lat="59.067005524411798" lon="30.030831629410386">
        <ele>73.200000000000003</ele>
        <time>2026-04-25T13:34:38Z</time>
      </trkpt>
      <trkpt lat="59.062972068786621" lon="30.030561061576009">
        <ele>249.59999999999999</ele>
        <time>2026-04-25T15:02:52Z</time>
      </trkpt>
      <trkpt lat="59.063034346327186" lon="30.030620405450463">
        <ele>249.59999999999999</ele>
        <time>2026-04-25T15:02:53Z</time>
      </trkpt>
      <trkpt lat="59.063366185873747" lon="30.030998177826405">
        <ele>246.72</ele>
        <time>2026-04-25T15:03:23Z</time>
      </trkpt>
      <trkpt lat="59.063319163396955" lon="30.030988873913884">
        <ele>246.22999999999999</ele>
        <time>2026-04-25T15:03:39Z</time>
      </trkpt>
      <trkpt lat="59.063315140083432" lon="30.030946210026741">
        <ele>246.22999999999999</ele>
        <time>2026-04-25T15:03:45Z</time>
      </trkpt>
      <trkpt lat="59.064498329535127" lon="30.028933882713318">
        <ele>252</ele>
        <time>2026-04-25T15:10:03Z</time>
      </trkpt>
      <trkpt lat="59.063318576663733" lon="30.031369244679809">
        <ele>234.22</ele>
        <time>2026-04-25T15:10:13Z</time>
      </trkpt>
      <trkpt lat="59.063313798978925" lon="30.031228680163622">
        <ele>234.22</ele>
        <time>2026-04-25T15:10:14Z</time>
      </trkpt>
      <trkpt lat="59.063293179497123" lon="30.031114853918552">
        <ele>226.53</ele>
        <time>2026-04-25T15:10:15Z</time>
      </trkpt>
      <trkpt lat="59.063265770673752" lon="30.030960375443101">
        <ele>220.28</ele>
        <time>2026-04-25T15:10:16Z</time>
      </trkpt>
      <trkpt lat="59.063262920826674" lon="30.030915280804038">
        <ele>214.03</ele>
        <time>2026-04-25T15:10:17Z</time>
      </trkpt>
      <trkpt lat="59.063260154798627" lon="30.030894912779331">
        <ele>208.25999999999999</ele>
        <time>2026-04-25T15:10:18Z</time>
      </trkpt>
      <trkpt lat="59.063256299123168" lon="30.03078930079937">
        <ele>202.97999999999999</ele>
        <time>2026-04-25T15:10:21Z</time>
      </trkpt>
      <trkpt lat="59.063253868371248" lon="30.030763065442443">
        <ele>197.69</ele>
        <time>2026-04-25T15:10:22Z</time>
      </trkpt>
      <trkpt lat="59.063253700733185" lon="30.03075803630054">
        <ele>192.88</ele>
        <time>2026-04-25T15:10:23Z</time>
      </trkpt>
      <trkpt lat="59.063241798430681" lon="30.030766502022743">
        <ele>188.56</ele>
        <time>2026-04-25T15:10:24Z</time>
      </trkpt>
      <trkpt lat="59.063241463154554" lon="30.030769435688853">
        <ele>184.22999999999999</ele>
        <time>2026-04-25T15:10:25Z</time>
      </trkpt>
      <trkpt lat="59.063259148970246" lon="30.030847890302539">
        <ele>180.38</ele>
        <time>2026-04-25T15:10:26Z</time>
      </trkpt>
      <trkpt lat="59.063271638005972" lon="30.030883178114891">
        <ele>176.06</ele>
        <time>2026-04-25T15:10:27Z</time>
      </trkpt>
      <trkpt lat="59.063280941918492" lon="30.03091637045145">
        <ele>172.69</ele>
        <time>2026-04-25T15:10:28Z</time>
      </trkpt>
      <trkpt lat="59.06328471377492" lon="30.030927518382668">
        <ele>165.47999999999999</ele>
        <time>2026-04-25T15:10:29Z</time>
      </trkpt>
      <trkpt lat="59.063286390155554" lon="30.0309276022017">
        <ele>165.47999999999999</ele>
        <time>2026-04-25T15:10:30Z</time>
      </trkpt>
      <trkpt lat="59.063293682411313" lon="30.030938079580665">
        <ele>162.12</ele>
        <time>2026-04-25T15:10:32Z</time>
      </trkpt>
      <trkpt lat="59.06329208984971" lon="30.030942102894187">
        <ele>162.12</ele>
        <time>2026-04-25T15:10:33Z</time>
      </trkpt>
      <trkpt lat="59.063288820907474" lon="30.030945958569646">
        <ele>158.75</ele>
        <time>2026-04-25T15:10:34Z</time>
      </trkpt>
      <trkpt lat="59.063299633562565" lon="30.03094369545579">
        <ele>155.87</ele>
        <time>2026-04-25T15:10:35Z</time>
      </trkpt>
      <trkpt lat="59.063297789543867" lon="30.030943527817726">
        <ele>150.09999999999999</ele>
        <time>2026-04-25T15:10:37Z</time>
      </trkpt>
      <trkpt lat="59.063284881412983" lon="30.030955011025071">
        <ele>144.81999999999999</ele>
        <time>2026-04-25T15:10:39Z</time>
      </trkpt>
      <trkpt lat="59.063278762623668" lon="30.030950149521232">
        <ele>140.00999999999999</ele>
        <time>2026-04-25T15:10:41Z</time>
      </trkpt>
      <trkpt lat="59.063281025737524" lon="30.030948389321566">
        <ele>135.68000000000001</ele>
        <time>2026-04-25T15:10:43Z</time>
      </trkpt>
      <trkpt lat="59.063278846442699" lon="30.030932882800698">
        <ele>133.28</ele>
        <time>2026-04-25T15:10:46Z</time>
      </trkpt>
      <trkpt lat="59.063277170062065" lon="30.030908826738596">
        <ele>129.43000000000001</ele>
        <time>2026-04-25T15:10:47Z</time>
      </trkpt>
    </trkseg>
  </trk>

</gpx>